<?xml version="1.0" encoding="UTF-8" standalone="no" ?>
<gpx xmlns="http://www.topografix.com/GPX/1/1" xmlns:xsi="http://www.w3.org/2001/XMLSchema-instance" xsi:schemaLocation="http://www.topografix.com/GPX/1/1 http://www.topografix.com/GPX/1/1/gpx.xsd" version="1.1" creator="VisuGPX - https://www.visugpx.com">
  <metadata>
    <name>Gardanne</name>
  </metadata>
  <trk>
    <name><![CDATA[SityTrail - gardanne]]></name>
    <extensions>
      <line xmlns="http://www.topografix.com/GPX/gpx_style/0/2">
        <color>0000FF</color>
        <width>4</width>
      </line>
    </extensions>
    <trkseg>
      <trkpt lat="43.45656" lon="5.4747">
        <ele>216</ele>
        <time>2019-03-09T15:25:49.333Z</time>
      </trkpt>
      <trkpt lat="43.45655" lon="5.47471">
        <ele>216</ele>
        <time>2019-03-09T15:25:50.344Z</time>
      </trkpt>
      <trkpt lat="43.45654" lon="5.47475">
        <ele>216</ele>
        <time>2019-03-09T15:25:54.366Z</time>
      </trkpt>
      <trkpt lat="43.45655" lon="5.47484">
        <ele>216</ele>
        <time>2019-03-09T15:25:59.340Z</time>
      </trkpt>
      <trkpt lat="43.45655" lon="5.47491">
        <ele>216</ele>
        <time>2019-03-09T15:26:04.337Z</time>
      </trkpt>
      <trkpt lat="43.45652" lon="5.47501">
        <ele>217</ele>
        <time>2019-03-09T15:27:27.335Z</time>
      </trkpt>
      <trkpt lat="43.45653" lon="5.47507">
        <ele>217</ele>
        <time>2019-03-09T15:27:31.337Z</time>
      </trkpt>
      <trkpt lat="43.45655" lon="5.47513">
        <ele>216</ele>
        <time>2019-03-09T15:27:35.374Z</time>
      </trkpt>
      <trkpt lat="43.45655" lon="5.47515">
        <ele>216</ele>
        <time>2019-03-09T15:27:39.377Z</time>
      </trkpt>
      <trkpt lat="43.45656" lon="5.47524">
        <ele>216</ele>
        <time>2019-03-09T15:27:44.339Z</time>
      </trkpt>
      <trkpt lat="43.45655" lon="5.47529">
        <ele>216</ele>
        <time>2019-03-09T15:27:48.376Z</time>
      </trkpt>
      <trkpt lat="43.45655" lon="5.47537">
        <ele>216</ele>
        <time>2019-03-09T15:27:53.340Z</time>
      </trkpt>
      <trkpt lat="43.45655" lon="5.47543">
        <ele>217</ele>
        <time>2019-03-09T15:27:57.336Z</time>
      </trkpt>
      <trkpt lat="43.45656" lon="5.4755">
        <ele>217</ele>
        <time>2019-03-09T15:28:02.334Z</time>
      </trkpt>
      <trkpt lat="43.45656" lon="5.47555">
        <ele>217</ele>
        <time>2019-03-09T15:28:06.377Z</time>
      </trkpt>
      <trkpt lat="43.45657" lon="5.4756">
        <ele>217</ele>
        <time>2019-03-09T15:28:11.374Z</time>
      </trkpt>
      <trkpt lat="43.45659" lon="5.47562">
        <ele>217</ele>
        <time>2019-03-09T15:28:15.375Z</time>
      </trkpt>
      <trkpt lat="43.45659" lon="5.47572">
        <ele>218</ele>
        <time>2019-03-09T15:28:34.378Z</time>
      </trkpt>
      <trkpt lat="43.45659" lon="5.4758">
        <ele>218</ele>
        <time>2019-03-09T15:28:39.347Z</time>
      </trkpt>
      <trkpt lat="43.45659" lon="5.47588">
        <ele>218</ele>
        <time>2019-03-09T15:28:43.340Z</time>
      </trkpt>
      <trkpt lat="43.45661" lon="5.47595">
        <ele>218</ele>
        <time>2019-03-09T15:28:47.342Z</time>
      </trkpt>
      <trkpt lat="43.45663" lon="5.47604">
        <ele>217</ele>
        <time>2019-03-09T15:28:52.337Z</time>
      </trkpt>
      <trkpt lat="43.45665" lon="5.47613">
        <ele>217</ele>
        <time>2019-03-09T15:28:57.337Z</time>
      </trkpt>
      <trkpt lat="43.45666" lon="5.4762">
        <ele>217</ele>
        <time>2019-03-09T15:29:01.376Z</time>
      </trkpt>
      <trkpt lat="43.45667" lon="5.47629">
        <ele>216</ele>
        <time>2019-03-09T15:29:06.337Z</time>
      </trkpt>
      <trkpt lat="43.45666" lon="5.47636">
        <ele>216</ele>
        <time>2019-03-09T15:29:10.377Z</time>
      </trkpt>
      <trkpt lat="43.45666" lon="5.47646">
        <ele>216</ele>
        <time>2019-03-09T15:29:15.332Z</time>
      </trkpt>
      <trkpt lat="43.45666" lon="5.47653">
        <ele>216</ele>
        <time>2019-03-09T15:29:19.378Z</time>
      </trkpt>
      <trkpt lat="43.45667" lon="5.47661">
        <ele>217</ele>
        <time>2019-03-09T15:29:24.335Z</time>
      </trkpt>
      <trkpt lat="43.45665" lon="5.47668">
        <ele>217</ele>
        <time>2019-03-09T15:29:28.333Z</time>
      </trkpt>
      <trkpt lat="43.45666" lon="5.47675">
        <ele>217</ele>
        <time>2019-03-09T15:29:32.336Z</time>
      </trkpt>
      <trkpt lat="43.45668" lon="5.47683">
        <ele>218</ele>
        <time>2019-03-09T15:29:37.336Z</time>
      </trkpt>
      <trkpt lat="43.45666" lon="5.47688">
        <ele>218</ele>
        <time>2019-03-09T15:29:41.371Z</time>
      </trkpt>
      <trkpt lat="43.45662" lon="5.47691">
        <ele>218</ele>
        <time>2019-03-09T15:29:46.364Z</time>
      </trkpt>
      <trkpt lat="43.4566" lon="5.47692">
        <ele>218</ele>
        <time>2019-03-09T15:29:51.335Z</time>
      </trkpt>
      <trkpt lat="43.4566" lon="5.47692">
        <ele>218</ele>
        <time>2019-03-09T15:30:01.376Z</time>
      </trkpt>
      <trkpt lat="43.45658" lon="5.47693">
        <ele>218</ele>
        <time>2019-03-09T15:30:06.348Z</time>
      </trkpt>
      <trkpt lat="43.45654" lon="5.47696">
        <ele>218</ele>
        <time>2019-03-09T15:30:21.346Z</time>
      </trkpt>
      <trkpt lat="43.45644" lon="5.47705">
        <ele>220</ele>
        <time>2019-03-09T15:30:26.345Z</time>
      </trkpt>
      <trkpt lat="43.45638" lon="5.4771">
        <ele>221</ele>
        <time>2019-03-09T15:30:31.335Z</time>
      </trkpt>
      <trkpt lat="43.45634" lon="5.47717">
        <ele>221</ele>
        <time>2019-03-09T15:30:35.373Z</time>
      </trkpt>
      <trkpt lat="43.45631" lon="5.47724">
        <ele>221</ele>
        <time>2019-03-09T15:30:40.367Z</time>
      </trkpt>
      <trkpt lat="43.45627" lon="5.47732">
        <ele>221</ele>
        <time>2019-03-09T15:30:45.336Z</time>
      </trkpt>
      <trkpt lat="43.45625" lon="5.47737">
        <ele>222</ele>
        <time>2019-03-09T15:30:50.336Z</time>
      </trkpt>
      <trkpt lat="43.45622" lon="5.47741">
        <ele>222</ele>
        <time>2019-03-09T15:30:54.373Z</time>
      </trkpt>
      <trkpt lat="43.45618" lon="5.47746">
        <ele>222</ele>
        <time>2019-03-09T15:30:59.335Z</time>
      </trkpt>
      <trkpt lat="43.45615" lon="5.4775">
        <ele>222</ele>
        <time>2019-03-09T15:31:03.366Z</time>
      </trkpt>
      <trkpt lat="43.45612" lon="5.47758">
        <ele>222</ele>
        <time>2019-03-09T15:31:08.333Z</time>
      </trkpt>
      <trkpt lat="43.45609" lon="5.47759">
        <ele>222</ele>
        <time>2019-03-09T15:31:12.376Z</time>
      </trkpt>
      <trkpt lat="43.45606" lon="5.47767">
        <ele>221</ele>
        <time>2019-03-09T15:31:17.381Z</time>
      </trkpt>
      <trkpt lat="43.45604" lon="5.47772">
        <ele>221</ele>
        <time>2019-03-09T15:31:22.347Z</time>
      </trkpt>
      <trkpt lat="43.45605" lon="5.47781">
        <ele>221</ele>
        <time>2019-03-09T15:31:27.364Z</time>
      </trkpt>
      <trkpt lat="43.45605" lon="5.47791">
        <ele>221</ele>
        <time>2019-03-09T15:31:32.334Z</time>
      </trkpt>
      <trkpt lat="43.45605" lon="5.47796">
        <ele>220</ele>
        <time>2019-03-09T15:31:36.335Z</time>
      </trkpt>
      <trkpt lat="43.45606" lon="5.47801">
        <ele>220</ele>
        <time>2019-03-09T15:31:41.345Z</time>
      </trkpt>
      <trkpt lat="43.45606" lon="5.47814">
        <ele>220</ele>
        <time>2019-03-09T15:32:13.379Z</time>
      </trkpt>
      <trkpt lat="43.45601" lon="5.47816">
        <ele>220</ele>
        <time>2019-03-09T15:32:18.369Z</time>
      </trkpt>
      <trkpt lat="43.45597" lon="5.47818">
        <ele>219</ele>
        <time>2019-03-09T15:32:23.346Z</time>
      </trkpt>
      <trkpt lat="43.45593" lon="5.4782">
        <ele>220</ele>
        <time>2019-03-09T15:32:28.335Z</time>
      </trkpt>
      <trkpt lat="43.45585" lon="5.47825">
        <ele>220</ele>
        <time>2019-03-09T15:32:33.347Z</time>
      </trkpt>
      <trkpt lat="43.45579" lon="5.47828">
        <ele>220</ele>
        <time>2019-03-09T15:32:38.337Z</time>
      </trkpt>
      <trkpt lat="43.45571" lon="5.47833">
        <ele>220</ele>
        <time>2019-03-09T15:32:42.379Z</time>
      </trkpt>
      <trkpt lat="43.45566" lon="5.47842">
        <ele>221</ele>
        <time>2019-03-09T15:32:47.334Z</time>
      </trkpt>
      <trkpt lat="43.45564" lon="5.4785">
        <ele>220</ele>
        <time>2019-03-09T15:32:51.384Z</time>
      </trkpt>
      <trkpt lat="43.45563" lon="5.47857">
        <ele>220</ele>
        <time>2019-03-09T15:32:56.332Z</time>
      </trkpt>
      <trkpt lat="43.45563" lon="5.47863">
        <ele>220</ele>
        <time>2019-03-09T15:33:01.351Z</time>
      </trkpt>
      <trkpt lat="43.45562" lon="5.47874">
        <ele>220</ele>
        <time>2019-03-09T15:33:06.346Z</time>
      </trkpt>
      <trkpt lat="43.45559" lon="5.4788">
        <ele>221</ele>
        <time>2019-03-09T15:33:10.376Z</time>
      </trkpt>
      <trkpt lat="43.45557" lon="5.47888">
        <ele>221</ele>
        <time>2019-03-09T15:33:15.363Z</time>
      </trkpt>
      <trkpt lat="43.45556" lon="5.47894">
        <ele>221</ele>
        <time>2019-03-09T15:33:20.376Z</time>
      </trkpt>
      <trkpt lat="43.45554" lon="5.47902">
        <ele>221</ele>
        <time>2019-03-09T15:33:25.334Z</time>
      </trkpt>
      <trkpt lat="43.45551" lon="5.47909">
        <ele>222</ele>
        <time>2019-03-09T15:33:29.365Z</time>
      </trkpt>
      <trkpt lat="43.45548" lon="5.47915">
        <ele>222</ele>
        <time>2019-03-09T15:33:34.366Z</time>
      </trkpt>
      <trkpt lat="43.45545" lon="5.47921">
        <ele>222</ele>
        <time>2019-03-09T15:33:39.334Z</time>
      </trkpt>
      <trkpt lat="43.45541" lon="5.47926">
        <ele>222</ele>
        <time>2019-03-09T15:33:43.335Z</time>
      </trkpt>
      <trkpt lat="43.45537" lon="5.47932">
        <ele>221</ele>
        <time>2019-03-09T15:33:48.347Z</time>
      </trkpt>
      <trkpt lat="43.45533" lon="5.4794">
        <ele>221</ele>
        <time>2019-03-09T15:33:52.370Z</time>
      </trkpt>
      <trkpt lat="43.45532" lon="5.47945">
        <ele>221</ele>
        <time>2019-03-09T15:33:57.366Z</time>
      </trkpt>
      <trkpt lat="43.45532" lon="5.47954">
        <ele>221</ele>
        <time>2019-03-09T15:34:02.372Z</time>
      </trkpt>
      <trkpt lat="43.4553" lon="5.47961">
        <ele>220</ele>
        <time>2019-03-09T15:34:07.346Z</time>
      </trkpt>
      <trkpt lat="43.4553" lon="5.4797">
        <ele>220</ele>
        <time>2019-03-09T15:34:12.333Z</time>
      </trkpt>
      <trkpt lat="43.45528" lon="5.47982">
        <ele>220</ele>
        <time>2019-03-09T15:34:17.370Z</time>
      </trkpt>
      <trkpt lat="43.45527" lon="5.47991">
        <ele>220</ele>
        <time>2019-03-09T15:34:22.337Z</time>
      </trkpt>
      <trkpt lat="43.45527" lon="5.47997">
        <ele>220</ele>
        <time>2019-03-09T15:34:27.334Z</time>
      </trkpt>
      <trkpt lat="43.45529" lon="5.48002">
        <ele>220</ele>
        <time>2019-03-09T15:34:31.378Z</time>
      </trkpt>
      <trkpt lat="43.45534" lon="5.4801">
        <ele>220</ele>
        <time>2019-03-09T15:34:36.347Z</time>
      </trkpt>
      <trkpt lat="43.45536" lon="5.48013">
        <ele>220</ele>
        <time>2019-03-09T15:34:41.336Z</time>
      </trkpt>
      <trkpt lat="43.4554" lon="5.4802">
        <ele>224</ele>
        <time>2019-03-09T15:34:45.350Z</time>
      </trkpt>
      <trkpt lat="43.45541" lon="5.48027">
        <ele>224</ele>
        <time>2019-03-09T15:34:50.349Z</time>
      </trkpt>
      <trkpt lat="43.45537" lon="5.48036">
        <ele>224</ele>
        <time>2019-03-09T15:34:55.364Z</time>
      </trkpt>
      <trkpt lat="43.45533" lon="5.48044">
        <ele>226</ele>
        <time>2019-03-09T15:35:00.347Z</time>
      </trkpt>
      <trkpt lat="43.45531" lon="5.4805">
        <ele>226</ele>
        <time>2019-03-09T15:35:04.374Z</time>
      </trkpt>
      <trkpt lat="43.45526" lon="5.48054">
        <ele>226</ele>
        <time>2019-03-09T15:35:09.367Z</time>
      </trkpt>
      <trkpt lat="43.45521" lon="5.48055">
        <ele>226</ele>
        <time>2019-03-09T15:35:14.339Z</time>
      </trkpt>
      <trkpt lat="43.45517" lon="5.48057">
        <ele>226</ele>
        <time>2019-03-09T15:35:19.336Z</time>
      </trkpt>
      <trkpt lat="43.45513" lon="5.48058">
        <ele>226</ele>
        <time>2019-03-09T15:35:23.342Z</time>
      </trkpt>
      <trkpt lat="43.45511" lon="5.48057">
        <ele>226</ele>
        <time>2019-03-09T15:35:27.368Z</time>
      </trkpt>
      <trkpt lat="43.45508" lon="5.48061">
        <ele>226</ele>
        <time>2019-03-09T15:35:31.380Z</time>
      </trkpt>
      <trkpt lat="43.45504" lon="5.48064">
        <ele>226</ele>
        <time>2019-03-09T15:35:36.336Z</time>
      </trkpt>
      <trkpt lat="43.45503" lon="5.48064">
        <ele>226</ele>
        <time>2019-03-09T15:35:40.358Z</time>
      </trkpt>
      <trkpt lat="43.45508" lon="5.48057">
        <ele>226</ele>
        <time>2019-03-09T15:35:49.352Z</time>
      </trkpt>
      <trkpt lat="43.45509" lon="5.48065">
        <ele>226</ele>
        <time>2019-03-09T15:36:28.358Z</time>
      </trkpt>
      <trkpt lat="43.45502" lon="5.48066">
        <ele>226</ele>
        <time>2019-03-09T15:36:32.379Z</time>
      </trkpt>
      <trkpt lat="43.45499" lon="5.48064">
        <ele>226</ele>
        <time>2019-03-09T15:36:36.379Z</time>
      </trkpt>
      <trkpt lat="43.45496" lon="5.48066">
        <ele>226</ele>
        <time>2019-03-09T15:36:41.376Z</time>
      </trkpt>
      <trkpt lat="43.45493" lon="5.4807">
        <ele>226</ele>
        <time>2019-03-09T15:36:46.377Z</time>
      </trkpt>
      <trkpt lat="43.45488" lon="5.48075">
        <ele>226</ele>
        <time>2019-03-09T15:36:51.358Z</time>
      </trkpt>
      <trkpt lat="43.45483" lon="5.48081">
        <ele>226</ele>
        <time>2019-03-09T15:36:56.347Z</time>
      </trkpt>
      <trkpt lat="43.45479" lon="5.48084">
        <ele>226</ele>
        <time>2019-03-09T15:37:00.353Z</time>
      </trkpt>
      <trkpt lat="43.45474" lon="5.48088">
        <ele>226</ele>
        <time>2019-03-09T15:37:05.347Z</time>
      </trkpt>
      <trkpt lat="43.45468" lon="5.48093">
        <ele>226</ele>
        <time>2019-03-09T15:37:10.357Z</time>
      </trkpt>
      <trkpt lat="43.45462" lon="5.48098">
        <ele>227</ele>
        <time>2019-03-09T15:37:15.378Z</time>
      </trkpt>
      <trkpt lat="43.45458" lon="5.48105">
        <ele>228</ele>
        <time>2019-03-09T15:37:20.350Z</time>
      </trkpt>
      <trkpt lat="43.45453" lon="5.4811">
        <ele>228</ele>
        <time>2019-03-09T15:37:25.379Z</time>
      </trkpt>
      <trkpt lat="43.4545" lon="5.48117">
        <ele>228</ele>
        <time>2019-03-09T15:37:30.343Z</time>
      </trkpt>
      <trkpt lat="43.45446" lon="5.48125">
        <ele>228</ele>
        <time>2019-03-09T15:37:35.356Z</time>
      </trkpt>
      <trkpt lat="43.45442" lon="5.48133">
        <ele>228</ele>
        <time>2019-03-09T15:37:40.356Z</time>
      </trkpt>
      <trkpt lat="43.45439" lon="5.48144">
        <ele>228</ele>
        <time>2019-03-09T15:37:45.348Z</time>
      </trkpt>
      <trkpt lat="43.45439" lon="5.4815">
        <ele>228</ele>
        <time>2019-03-09T15:37:49.353Z</time>
      </trkpt>
      <trkpt lat="43.45444" lon="5.48161">
        <ele>229</ele>
        <time>2019-03-09T15:37:54.351Z</time>
      </trkpt>
      <trkpt lat="43.45451" lon="5.48176">
        <ele>229</ele>
        <time>2019-03-09T15:37:59.344Z</time>
      </trkpt>
      <trkpt lat="43.45452" lon="5.48183">
        <ele>229</ele>
        <time>2019-03-09T15:38:03.378Z</time>
      </trkpt>
      <trkpt lat="43.45452" lon="5.4819">
        <ele>229</ele>
        <time>2019-03-09T15:38:08.375Z</time>
      </trkpt>
      <trkpt lat="43.4545" lon="5.48193">
        <ele>229</ele>
        <time>2019-03-09T15:38:13.381Z</time>
      </trkpt>
      <trkpt lat="43.45449" lon="5.48196">
        <ele>229</ele>
        <time>2019-03-09T15:38:18.353Z</time>
      </trkpt>
      <trkpt lat="43.45448" lon="5.482">
        <ele>229</ele>
        <time>2019-03-09T15:38:22.372Z</time>
      </trkpt>
      <trkpt lat="43.45448" lon="5.48206">
        <ele>229</ele>
        <time>2019-03-09T15:38:27.373Z</time>
      </trkpt>
      <trkpt lat="43.45447" lon="5.48211">
        <ele>230</ele>
        <time>2019-03-09T15:38:32.347Z</time>
      </trkpt>
      <trkpt lat="43.45443" lon="5.48217">
        <ele>230</ele>
        <time>2019-03-09T15:38:37.345Z</time>
      </trkpt>
      <trkpt lat="43.4544" lon="5.48222">
        <ele>230</ele>
        <time>2019-03-09T15:38:42.375Z</time>
      </trkpt>
      <trkpt lat="43.45438" lon="5.48228">
        <ele>230</ele>
        <time>2019-03-09T15:38:47.348Z</time>
      </trkpt>
      <trkpt lat="43.45435" lon="5.48232">
        <ele>230</ele>
        <time>2019-03-09T15:38:51.375Z</time>
      </trkpt>
      <trkpt lat="43.45432" lon="5.48239">
        <ele>230</ele>
        <time>2019-03-09T15:38:56.350Z</time>
      </trkpt>
      <trkpt lat="43.45429" lon="5.48244">
        <ele>230</ele>
        <time>2019-03-09T15:39:00.387Z</time>
      </trkpt>
      <trkpt lat="43.45427" lon="5.48247">
        <ele>230</ele>
        <time>2019-03-09T15:39:05.332Z</time>
      </trkpt>
      <trkpt lat="43.45425" lon="5.48254">
        <ele>230</ele>
        <time>2019-03-09T15:39:09.354Z</time>
      </trkpt>
      <trkpt lat="43.45421" lon="5.48262">
        <ele>230</ele>
        <time>2019-03-09T15:39:14.353Z</time>
      </trkpt>
      <trkpt lat="43.45418" lon="5.4827">
        <ele>231</ele>
        <time>2019-03-09T15:39:19.356Z</time>
      </trkpt>
      <trkpt lat="43.45414" lon="5.48278">
        <ele>231</ele>
        <time>2019-03-09T15:39:24.346Z</time>
      </trkpt>
      <trkpt lat="43.45412" lon="5.48281">
        <ele>231</ele>
        <time>2019-03-09T15:39:28.351Z</time>
      </trkpt>
      <trkpt lat="43.45406" lon="5.48292">
        <ele>230</ele>
        <time>2019-03-09T15:39:33.374Z</time>
      </trkpt>
      <trkpt lat="43.45404" lon="5.48302">
        <ele>230</ele>
        <time>2019-03-09T15:39:38.345Z</time>
      </trkpt>
      <trkpt lat="43.45402" lon="5.48309">
        <ele>232</ele>
        <time>2019-03-09T15:39:42.374Z</time>
      </trkpt>
      <trkpt lat="43.45401" lon="5.48322">
        <ele>232</ele>
        <time>2019-03-09T15:39:47.373Z</time>
      </trkpt>
      <trkpt lat="43.45402" lon="5.48334">
        <ele>232</ele>
        <time>2019-03-09T15:39:52.376Z</time>
      </trkpt>
      <trkpt lat="43.45404" lon="5.48335">
        <ele>230</ele>
        <time>2019-03-09T15:39:57.346Z</time>
      </trkpt>
      <trkpt lat="43.45403" lon="5.48337">
        <ele>230</ele>
        <time>2019-03-09T15:40:02.348Z</time>
      </trkpt>
      <trkpt lat="43.45402" lon="5.48344">
        <ele>232</ele>
        <time>2019-03-09T15:40:06.375Z</time>
      </trkpt>
      <trkpt lat="43.454" lon="5.48359">
        <ele>233</ele>
        <time>2019-03-09T15:40:11.345Z</time>
      </trkpt>
      <trkpt lat="43.45398" lon="5.48367">
        <ele>233</ele>
        <time>2019-03-09T15:40:15.350Z</time>
      </trkpt>
      <trkpt lat="43.45395" lon="5.48372">
        <ele>233</ele>
        <time>2019-03-09T15:40:19.365Z</time>
      </trkpt>
      <trkpt lat="43.4539" lon="5.48379">
        <ele>233</ele>
        <time>2019-03-09T15:40:24.374Z</time>
      </trkpt>
      <trkpt lat="43.45389" lon="5.48381">
        <ele>233</ele>
        <time>2019-03-09T15:40:29.343Z</time>
      </trkpt>
      <trkpt lat="43.45387" lon="5.48386">
        <ele>233</ele>
        <time>2019-03-09T15:40:34.346Z</time>
      </trkpt>
      <trkpt lat="43.45385" lon="5.48393">
        <ele>233</ele>
        <time>2019-03-09T15:40:39.346Z</time>
      </trkpt>
      <trkpt lat="43.45383" lon="5.48397">
        <ele>233</ele>
        <time>2019-03-09T15:40:44.357Z</time>
      </trkpt>
      <trkpt lat="43.45379" lon="5.48401">
        <ele>233</ele>
        <time>2019-03-09T15:40:49.340Z</time>
      </trkpt>
      <trkpt lat="43.45377" lon="5.48401">
        <ele>233</ele>
        <time>2019-03-09T15:40:53.355Z</time>
      </trkpt>
      <trkpt lat="43.45373" lon="5.48402">
        <ele>233</ele>
        <time>2019-03-09T15:40:58.344Z</time>
      </trkpt>
      <trkpt lat="43.45366" lon="5.48401">
        <ele>233</ele>
        <time>2019-03-09T15:41:04.334Z</time>
      </trkpt>
      <trkpt lat="43.45359" lon="5.48399">
        <ele>233</ele>
        <time>2019-03-09T15:41:09.347Z</time>
      </trkpt>
      <trkpt lat="43.45354" lon="5.48397">
        <ele>233</ele>
        <time>2019-03-09T15:41:14.353Z</time>
      </trkpt>
      <trkpt lat="43.45349" lon="5.48395">
        <ele>233</ele>
        <time>2019-03-09T15:41:19.346Z</time>
      </trkpt>
      <trkpt lat="43.45349" lon="5.48395">
        <ele>233</ele>
        <time>2019-03-09T15:41:24.337Z</time>
      </trkpt>
      <trkpt lat="43.45349" lon="5.48394">
        <ele>233</ele>
        <time>2019-03-09T15:41:28.342Z</time>
      </trkpt>
      <trkpt lat="43.45344" lon="5.4839">
        <ele>233</ele>
        <time>2019-03-09T15:41:32.372Z</time>
      </trkpt>
      <trkpt lat="43.45341" lon="5.48386">
        <ele>233</ele>
        <time>2019-03-09T15:41:36.377Z</time>
      </trkpt>
      <trkpt lat="43.45337" lon="5.4838">
        <ele>233</ele>
        <time>2019-03-09T15:41:41.364Z</time>
      </trkpt>
      <trkpt lat="43.45333" lon="5.48376">
        <ele>233</ele>
        <time>2019-03-09T15:41:46.350Z</time>
      </trkpt>
      <trkpt lat="43.45331" lon="5.48372">
        <ele>232</ele>
        <time>2019-03-09T15:41:51.374Z</time>
      </trkpt>
      <trkpt lat="43.45328" lon="5.48369">
        <ele>232</ele>
        <time>2019-03-09T15:41:56.362Z</time>
      </trkpt>
      <trkpt lat="43.45322" lon="5.48369">
        <ele>232</ele>
        <time>2019-03-09T15:42:01.333Z</time>
      </trkpt>
      <trkpt lat="43.45318" lon="5.48368">
        <ele>232</ele>
        <time>2019-03-09T15:42:05.335Z</time>
      </trkpt>
      <trkpt lat="43.45313" lon="5.48365">
        <ele>232</ele>
        <time>2019-03-09T15:42:09.346Z</time>
      </trkpt>
      <trkpt lat="43.45311" lon="5.48361">
        <ele>232</ele>
        <time>2019-03-09T15:42:13.355Z</time>
      </trkpt>
      <trkpt lat="43.45307" lon="5.48354">
        <ele>232</ele>
        <time>2019-03-09T15:42:18.352Z</time>
      </trkpt>
      <trkpt lat="43.45303" lon="5.48348">
        <ele>232</ele>
        <time>2019-03-09T15:42:23.345Z</time>
      </trkpt>
      <trkpt lat="43.45298" lon="5.48344">
        <ele>231</ele>
        <time>2019-03-09T15:42:27.376Z</time>
      </trkpt>
      <trkpt lat="43.45294" lon="5.48338">
        <ele>231</ele>
        <time>2019-03-09T15:42:32.345Z</time>
      </trkpt>
      <trkpt lat="43.45288" lon="5.48333">
        <ele>233</ele>
        <time>2019-03-09T15:42:37.376Z</time>
      </trkpt>
      <trkpt lat="43.45281" lon="5.48331">
        <ele>233</ele>
        <time>2019-03-09T15:42:42.343Z</time>
      </trkpt>
      <trkpt lat="43.45275" lon="5.48332">
        <ele>233</ele>
        <time>2019-03-09T15:42:47.345Z</time>
      </trkpt>
      <trkpt lat="43.45267" lon="5.48331">
        <ele>233</ele>
        <time>2019-03-09T15:42:52.380Z</time>
      </trkpt>
      <trkpt lat="43.45259" lon="5.48335">
        <ele>233</ele>
        <time>2019-03-09T15:42:57.361Z</time>
      </trkpt>
      <trkpt lat="43.45255" lon="5.48341">
        <ele>233</ele>
        <time>2019-03-09T15:43:02.349Z</time>
      </trkpt>
      <trkpt lat="43.45253" lon="5.48348">
        <ele>234</ele>
        <time>2019-03-09T15:43:06.373Z</time>
      </trkpt>
      <trkpt lat="43.45251" lon="5.48354">
        <ele>234</ele>
        <time>2019-03-09T15:43:11.367Z</time>
      </trkpt>
      <trkpt lat="43.45247" lon="5.48358">
        <ele>234</ele>
        <time>2019-03-09T15:43:15.375Z</time>
      </trkpt>
      <trkpt lat="43.45242" lon="5.48367">
        <ele>234</ele>
        <time>2019-03-09T15:43:20.345Z</time>
      </trkpt>
      <trkpt lat="43.45239" lon="5.48375">
        <ele>234</ele>
        <time>2019-03-09T15:43:25.348Z</time>
      </trkpt>
      <trkpt lat="43.45238" lon="5.48384">
        <ele>235</ele>
        <time>2019-03-09T15:43:30.345Z</time>
      </trkpt>
      <trkpt lat="43.45238" lon="5.48389">
        <ele>235</ele>
        <time>2019-03-09T15:43:34.379Z</time>
      </trkpt>
      <trkpt lat="43.45235" lon="5.48396">
        <ele>234</ele>
        <time>2019-03-09T15:43:39.375Z</time>
      </trkpt>
      <trkpt lat="43.45231" lon="5.48404">
        <ele>235</ele>
        <time>2019-03-09T15:43:44.372Z</time>
      </trkpt>
      <trkpt lat="43.45228" lon="5.48412">
        <ele>235</ele>
        <time>2019-03-09T15:43:49.352Z</time>
      </trkpt>
      <trkpt lat="43.45226" lon="5.48417">
        <ele>235</ele>
        <time>2019-03-09T15:43:53.363Z</time>
      </trkpt>
      <trkpt lat="43.45222" lon="5.48425">
        <ele>235</ele>
        <time>2019-03-09T15:43:58.346Z</time>
      </trkpt>
      <trkpt lat="43.45221" lon="5.48432">
        <ele>235</ele>
        <time>2019-03-09T15:44:03.374Z</time>
      </trkpt>
      <trkpt lat="43.45218" lon="5.4844">
        <ele>235</ele>
        <time>2019-03-09T15:44:08.382Z</time>
      </trkpt>
      <trkpt lat="43.45215" lon="5.48449">
        <ele>235</ele>
        <time>2019-03-09T15:44:13.335Z</time>
      </trkpt>
      <trkpt lat="43.45211" lon="5.48454">
        <ele>235</ele>
        <time>2019-03-09T15:44:17.383Z</time>
      </trkpt>
      <trkpt lat="43.45208" lon="5.48461">
        <ele>235</ele>
        <time>2019-03-09T15:44:22.345Z</time>
      </trkpt>
      <trkpt lat="43.45207" lon="5.48467">
        <ele>234</ele>
        <time>2019-03-09T15:44:26.366Z</time>
      </trkpt>
      <trkpt lat="43.45204" lon="5.48473">
        <ele>234</ele>
        <time>2019-03-09T15:44:31.339Z</time>
      </trkpt>
      <trkpt lat="43.45206" lon="5.48476">
        <ele>234</ele>
        <time>2019-03-09T15:44:35.345Z</time>
      </trkpt>
      <trkpt lat="43.45205" lon="5.48483">
        <ele>234</ele>
        <time>2019-03-09T15:44:49.368Z</time>
      </trkpt>
      <trkpt lat="43.45204" lon="5.4849">
        <ele>236</ele>
        <time>2019-03-09T15:44:54.394Z</time>
      </trkpt>
      <trkpt lat="43.45204" lon="5.48497">
        <ele>236</ele>
        <time>2019-03-09T15:44:59.335Z</time>
      </trkpt>
      <trkpt lat="43.45204" lon="5.48498">
        <ele>236</ele>
        <time>2019-03-09T15:45:04.332Z</time>
      </trkpt>
      <trkpt lat="43.45201" lon="5.48505">
        <ele>236</ele>
        <time>2019-03-09T15:45:09.341Z</time>
      </trkpt>
      <trkpt lat="43.452" lon="5.48512">
        <ele>236</ele>
        <time>2019-03-09T15:45:14.336Z</time>
      </trkpt>
      <trkpt lat="43.45198" lon="5.48516">
        <ele>238</ele>
        <time>2019-03-09T15:45:19.338Z</time>
      </trkpt>
      <trkpt lat="43.45198" lon="5.48523">
        <ele>238</ele>
        <time>2019-03-09T15:45:24.349Z</time>
      </trkpt>
      <trkpt lat="43.45197" lon="5.48526">
        <ele>238</ele>
        <time>2019-03-09T15:45:28.378Z</time>
      </trkpt>
      <trkpt lat="43.45196" lon="5.4853">
        <ele>238</ele>
        <time>2019-03-09T15:46:01.379Z</time>
      </trkpt>
      <trkpt lat="43.45195" lon="5.48539">
        <ele>238</ele>
        <time>2019-03-09T15:46:06.338Z</time>
      </trkpt>
      <trkpt lat="43.45195" lon="5.48545">
        <ele>240</ele>
        <time>2019-03-09T15:46:10.341Z</time>
      </trkpt>
      <trkpt lat="43.45196" lon="5.48549">
        <ele>240</ele>
        <time>2019-03-09T15:46:15.336Z</time>
      </trkpt>
      <trkpt lat="43.45196" lon="5.48554">
        <ele>240</ele>
        <time>2019-03-09T15:46:19.337Z</time>
      </trkpt>
      <trkpt lat="43.45196" lon="5.48562">
        <ele>240</ele>
        <time>2019-03-09T15:46:24.360Z</time>
      </trkpt>
      <trkpt lat="43.45195" lon="5.48569">
        <ele>240</ele>
        <time>2019-03-09T15:46:29.343Z</time>
      </trkpt>
      <trkpt lat="43.45194" lon="5.48578">
        <ele>242</ele>
        <time>2019-03-09T15:46:34.378Z</time>
      </trkpt>
      <trkpt lat="43.45191" lon="5.48584">
        <ele>242</ele>
        <time>2019-03-09T15:46:39.349Z</time>
      </trkpt>
      <trkpt lat="43.4519" lon="5.4859">
        <ele>242</ele>
        <time>2019-03-09T15:46:44.364Z</time>
      </trkpt>
      <trkpt lat="43.45187" lon="5.48592">
        <ele>242</ele>
        <time>2019-03-09T15:46:49.336Z</time>
      </trkpt>
      <trkpt lat="43.45182" lon="5.48595">
        <ele>242</ele>
        <time>2019-03-09T15:46:53.371Z</time>
      </trkpt>
      <trkpt lat="43.45177" lon="5.48597">
        <ele>244</ele>
        <time>2019-03-09T15:46:58.377Z</time>
      </trkpt>
      <trkpt lat="43.45174" lon="5.486">
        <ele>244</ele>
        <time>2019-03-09T15:47:03.343Z</time>
      </trkpt>
      <trkpt lat="43.45169" lon="5.48603">
        <ele>244</ele>
        <time>2019-03-09T15:47:07.367Z</time>
      </trkpt>
      <trkpt lat="43.45163" lon="5.48605">
        <ele>244</ele>
        <time>2019-03-09T15:47:12.332Z</time>
      </trkpt>
      <trkpt lat="43.45158" lon="5.48611">
        <ele>244</ele>
        <time>2019-03-09T15:47:17.333Z</time>
      </trkpt>
      <trkpt lat="43.45154" lon="5.48613">
        <ele>244</ele>
        <time>2019-03-09T15:47:21.346Z</time>
      </trkpt>
      <trkpt lat="43.45149" lon="5.48616">
        <ele>245</ele>
        <time>2019-03-09T15:47:26.376Z</time>
      </trkpt>
      <trkpt lat="43.45147" lon="5.48618">
        <ele>245</ele>
        <time>2019-03-09T15:47:31.351Z</time>
      </trkpt>
      <trkpt lat="43.45148" lon="5.48616">
        <ele>245</ele>
        <time>2019-03-09T15:47:50.339Z</time>
      </trkpt>
      <trkpt lat="43.45154" lon="5.48615">
        <ele>244</ele>
        <time>2019-03-09T15:47:54.376Z</time>
      </trkpt>
      <trkpt lat="43.45161" lon="5.48611">
        <ele>244</ele>
        <time>2019-03-09T15:47:59.342Z</time>
      </trkpt>
      <trkpt lat="43.45165" lon="5.4861">
        <ele>244</ele>
        <time>2019-03-09T15:48:03.365Z</time>
      </trkpt>
      <trkpt lat="43.4517" lon="5.48607">
        <ele>244</ele>
        <time>2019-03-09T15:48:08.337Z</time>
      </trkpt>
      <trkpt lat="43.45174" lon="5.48607">
        <ele>244</ele>
        <time>2019-03-09T15:48:13.340Z</time>
      </trkpt>
      <trkpt lat="43.45181" lon="5.48606">
        <ele>244</ele>
        <time>2019-03-09T15:48:18.332Z</time>
      </trkpt>
      <trkpt lat="43.45186" lon="5.48607">
        <ele>244</ele>
        <time>2019-03-09T15:48:23.333Z</time>
      </trkpt>
      <trkpt lat="43.45188" lon="5.48612">
        <ele>244</ele>
        <time>2019-03-09T15:48:27.365Z</time>
      </trkpt>
      <trkpt lat="43.45189" lon="5.48621">
        <ele>244</ele>
        <time>2019-03-09T15:48:32.382Z</time>
      </trkpt>
      <trkpt lat="43.45188" lon="5.48626">
        <ele>245</ele>
        <time>2019-03-09T15:48:37.335Z</time>
      </trkpt>
      <trkpt lat="43.4519" lon="5.48632">
        <ele>245</ele>
        <time>2019-03-09T15:48:42.338Z</time>
      </trkpt>
      <trkpt lat="43.45192" lon="5.48639">
        <ele>245</ele>
        <time>2019-03-09T15:48:47.337Z</time>
      </trkpt>
      <trkpt lat="43.45194" lon="5.48647">
        <ele>245</ele>
        <time>2019-03-09T15:48:51.363Z</time>
      </trkpt>
      <trkpt lat="43.45195" lon="5.48654">
        <ele>245</ele>
        <time>2019-03-09T15:48:56.357Z</time>
      </trkpt>
      <trkpt lat="43.45197" lon="5.48661">
        <ele>245</ele>
        <time>2019-03-09T15:49:01.373Z</time>
      </trkpt>
      <trkpt lat="43.452" lon="5.48668">
        <ele>245</ele>
        <time>2019-03-09T15:49:06.362Z</time>
      </trkpt>
      <trkpt lat="43.45201" lon="5.48677">
        <ele>245</ele>
        <time>2019-03-09T15:49:11.366Z</time>
      </trkpt>
      <trkpt lat="43.45202" lon="5.48683">
        <ele>246</ele>
        <time>2019-03-09T15:49:15.375Z</time>
      </trkpt>
      <trkpt lat="43.45203" lon="5.4869">
        <ele>246</ele>
        <time>2019-03-09T15:49:20.364Z</time>
      </trkpt>
      <trkpt lat="43.45204" lon="5.48699">
        <ele>246</ele>
        <time>2019-03-09T15:49:25.336Z</time>
      </trkpt>
      <trkpt lat="43.45204" lon="5.48705">
        <ele>246</ele>
        <time>2019-03-09T15:49:29.366Z</time>
      </trkpt>
      <trkpt lat="43.45204" lon="5.4871">
        <ele>248</ele>
        <time>2019-03-09T15:49:33.377Z</time>
      </trkpt>
      <trkpt lat="43.45202" lon="5.48718">
        <ele>248</ele>
        <time>2019-03-09T15:49:38.343Z</time>
      </trkpt>
      <trkpt lat="43.452" lon="5.48725">
        <ele>248</ele>
        <time>2019-03-09T15:49:43.374Z</time>
      </trkpt>
      <trkpt lat="43.45196" lon="5.48727">
        <ele>248</ele>
        <time>2019-03-09T15:49:48.376Z</time>
      </trkpt>
      <trkpt lat="43.45191" lon="5.4873">
        <ele>248</ele>
        <time>2019-03-09T15:49:53.353Z</time>
      </trkpt>
      <trkpt lat="43.45184" lon="5.48732">
        <ele>248</ele>
        <time>2019-03-09T15:49:58.347Z</time>
      </trkpt>
      <trkpt lat="43.45182" lon="5.48734">
        <ele>248</ele>
        <time>2019-03-09T15:50:03.343Z</time>
      </trkpt>
      <trkpt lat="43.45178" lon="5.48736">
        <ele>250</ele>
        <time>2019-03-09T15:50:07.366Z</time>
      </trkpt>
      <trkpt lat="43.45174" lon="5.48738">
        <ele>254</ele>
        <time>2019-03-09T15:50:12.379Z</time>
      </trkpt>
      <trkpt lat="43.45169" lon="5.48741">
        <ele>254</ele>
        <time>2019-03-09T15:50:17.357Z</time>
      </trkpt>
      <trkpt lat="43.45164" lon="5.48743">
        <ele>254</ele>
        <time>2019-03-09T15:50:21.378Z</time>
      </trkpt>
      <trkpt lat="43.45159" lon="5.48747">
        <ele>254</ele>
        <time>2019-03-09T15:50:26.356Z</time>
      </trkpt>
      <trkpt lat="43.45154" lon="5.48751">
        <ele>254</ele>
        <time>2019-03-09T15:50:31.348Z</time>
      </trkpt>
      <trkpt lat="43.4515" lon="5.4876">
        <ele>256</ele>
        <time>2019-03-09T15:50:36.373Z</time>
      </trkpt>
      <trkpt lat="43.45144" lon="5.48771">
        <ele>258</ele>
        <time>2019-03-09T15:50:41.344Z</time>
      </trkpt>
      <trkpt lat="43.45141" lon="5.4878">
        <ele>258</ele>
        <time>2019-03-09T15:50:46.343Z</time>
      </trkpt>
      <trkpt lat="43.4514" lon="5.48787">
        <ele>258</ele>
        <time>2019-03-09T15:50:50.375Z</time>
      </trkpt>
      <trkpt lat="43.45136" lon="5.4879">
        <ele>258</ele>
        <time>2019-03-09T15:50:55.343Z</time>
      </trkpt>
      <trkpt lat="43.45133" lon="5.48794">
        <ele>259</ele>
        <time>2019-03-09T15:50:59.387Z</time>
      </trkpt>
      <trkpt lat="43.45128" lon="5.48797">
        <ele>259</ele>
        <time>2019-03-09T15:51:04.354Z</time>
      </trkpt>
      <trkpt lat="43.45126" lon="5.488">
        <ele>259</ele>
        <time>2019-03-09T15:51:08.366Z</time>
      </trkpt>
      <trkpt lat="43.45122" lon="5.48803">
        <ele>259</ele>
        <time>2019-03-09T15:51:13.342Z</time>
      </trkpt>
      <trkpt lat="43.45119" lon="5.48807">
        <ele>259</ele>
        <time>2019-03-09T15:51:17.375Z</time>
      </trkpt>
      <trkpt lat="43.45115" lon="5.4881">
        <ele>259</ele>
        <time>2019-03-09T15:51:21.384Z</time>
      </trkpt>
      <trkpt lat="43.4511" lon="5.48815">
        <ele>259</ele>
        <time>2019-03-09T15:51:26.347Z</time>
      </trkpt>
      <trkpt lat="43.45106" lon="5.4882">
        <ele>261</ele>
        <time>2019-03-09T15:51:30.365Z</time>
      </trkpt>
      <trkpt lat="43.45105" lon="5.48822">
        <ele>261</ele>
        <time>2019-03-09T15:51:35.374Z</time>
      </trkpt>
      <trkpt lat="43.45099" lon="5.48836">
        <ele>261</ele>
        <time>2019-03-09T15:51:40.365Z</time>
      </trkpt>
      <trkpt lat="43.45096" lon="5.48839">
        <ele>263</ele>
        <time>2019-03-09T15:51:45.353Z</time>
      </trkpt>
      <trkpt lat="43.45092" lon="5.48839">
        <ele>263</ele>
        <time>2019-03-09T15:51:50.337Z</time>
      </trkpt>
      <trkpt lat="43.45092" lon="5.48842">
        <ele>263</ele>
        <time>2019-03-09T15:51:54.345Z</time>
      </trkpt>
      <trkpt lat="43.45087" lon="5.48844">
        <ele>263</ele>
        <time>2019-03-09T15:51:59.382Z</time>
      </trkpt>
      <trkpt lat="43.45084" lon="5.48845">
        <ele>263</ele>
        <time>2019-03-09T15:52:04.346Z</time>
      </trkpt>
      <trkpt lat="43.45079" lon="5.48847">
        <ele>263</ele>
        <time>2019-03-09T15:52:08.373Z</time>
      </trkpt>
      <trkpt lat="43.45073" lon="5.48847">
        <ele>263</ele>
        <time>2019-03-09T15:52:13.345Z</time>
      </trkpt>
      <trkpt lat="43.45067" lon="5.48846">
        <ele>266</ele>
        <time>2019-03-09T15:52:17.384Z</time>
      </trkpt>
      <trkpt lat="43.45059" lon="5.4885">
        <ele>266</ele>
        <time>2019-03-09T15:52:22.358Z</time>
      </trkpt>
      <trkpt lat="43.45054" lon="5.48854">
        <ele>266</ele>
        <time>2019-03-09T15:52:27.347Z</time>
      </trkpt>
      <trkpt lat="43.45049" lon="5.48857">
        <ele>266</ele>
        <time>2019-03-09T15:52:31.376Z</time>
      </trkpt>
      <trkpt lat="43.45044" lon="5.48863">
        <ele>266</ele>
        <time>2019-03-09T15:52:36.387Z</time>
      </trkpt>
      <trkpt lat="43.45041" lon="5.48871">
        <ele>267</ele>
        <time>2019-03-09T15:52:41.360Z</time>
      </trkpt>
      <trkpt lat="43.45036" lon="5.48877">
        <ele>267</ele>
        <time>2019-03-09T15:52:46.351Z</time>
      </trkpt>
      <trkpt lat="43.45032" lon="5.48885">
        <ele>267</ele>
        <time>2019-03-09T15:52:51.366Z</time>
      </trkpt>
      <trkpt lat="43.45029" lon="5.48891">
        <ele>267</ele>
        <time>2019-03-09T15:52:56.350Z</time>
      </trkpt>
      <trkpt lat="43.45026" lon="5.48895">
        <ele>267</ele>
        <time>2019-03-09T15:53:01.357Z</time>
      </trkpt>
      <trkpt lat="43.45022" lon="5.48899">
        <ele>267</ele>
        <time>2019-03-09T15:53:06.378Z</time>
      </trkpt>
      <trkpt lat="43.45018" lon="5.48903">
        <ele>266</ele>
        <time>2019-03-09T15:53:11.342Z</time>
      </trkpt>
      <trkpt lat="43.45015" lon="5.48908">
        <ele>266</ele>
        <time>2019-03-09T15:53:15.373Z</time>
      </trkpt>
      <trkpt lat="43.45012" lon="5.48914">
        <ele>268</ele>
        <time>2019-03-09T15:53:20.373Z</time>
      </trkpt>
      <trkpt lat="43.45007" lon="5.4892">
        <ele>268</ele>
        <time>2019-03-09T15:53:25.383Z</time>
      </trkpt>
      <trkpt lat="43.45002" lon="5.48925">
        <ele>268</ele>
        <time>2019-03-09T15:53:30.354Z</time>
      </trkpt>
      <trkpt lat="43.44998" lon="5.48929">
        <ele>268</ele>
        <time>2019-03-09T15:53:34.382Z</time>
      </trkpt>
      <trkpt lat="43.44992" lon="5.48935">
        <ele>270</ele>
        <time>2019-03-09T15:53:39.375Z</time>
      </trkpt>
      <trkpt lat="43.44988" lon="5.48938">
        <ele>270</ele>
        <time>2019-03-09T15:53:44.345Z</time>
      </trkpt>
      <trkpt lat="43.44983" lon="5.48942">
        <ele>275</ele>
        <time>2019-03-09T15:53:49.345Z</time>
      </trkpt>
      <trkpt lat="43.4498" lon="5.48946">
        <ele>275</ele>
        <time>2019-03-09T15:53:53.354Z</time>
      </trkpt>
      <trkpt lat="43.44979" lon="5.48947">
        <ele>275</ele>
        <time>2019-03-09T15:53:58.343Z</time>
      </trkpt>
      <trkpt lat="43.44977" lon="5.48952">
        <ele>275</ele>
        <time>2019-03-09T15:54:18.345Z</time>
      </trkpt>
      <trkpt lat="43.44977" lon="5.48963">
        <ele>277</ele>
        <time>2019-03-09T15:54:23.372Z</time>
      </trkpt>
      <trkpt lat="43.44975" lon="5.48969">
        <ele>277</ele>
        <time>2019-03-09T15:54:28.343Z</time>
      </trkpt>
      <trkpt lat="43.44974" lon="5.48973">
        <ele>277</ele>
        <time>2019-03-09T15:54:32.349Z</time>
      </trkpt>
      <trkpt lat="43.44972" lon="5.48978">
        <ele>277</ele>
        <time>2019-03-09T15:54:41.332Z</time>
      </trkpt>
      <trkpt lat="43.44968" lon="5.48997">
        <ele>278</ele>
        <time>2019-03-09T15:54:46.334Z</time>
      </trkpt>
      <trkpt lat="43.44963" lon="5.49005">
        <ele>278</ele>
        <time>2019-03-09T15:54:51.345Z</time>
      </trkpt>
      <trkpt lat="43.44959" lon="5.4901">
        <ele>278</ele>
        <time>2019-03-09T15:54:56.366Z</time>
      </trkpt>
      <trkpt lat="43.44954" lon="5.49015">
        <ele>281</ele>
        <time>2019-03-09T15:55:01.345Z</time>
      </trkpt>
      <trkpt lat="43.44951" lon="5.49019">
        <ele>281</ele>
        <time>2019-03-09T15:55:05.376Z</time>
      </trkpt>
      <trkpt lat="43.44946" lon="5.49023">
        <ele>281</ele>
        <time>2019-03-09T15:55:10.347Z</time>
      </trkpt>
      <trkpt lat="43.44943" lon="5.49026">
        <ele>281</ele>
        <time>2019-03-09T15:55:15.343Z</time>
      </trkpt>
      <trkpt lat="43.4494" lon="5.49028">
        <ele>281</ele>
        <time>2019-03-09T15:55:19.376Z</time>
      </trkpt>
      <trkpt lat="43.44936" lon="5.4903">
        <ele>281</ele>
        <time>2019-03-09T15:55:24.370Z</time>
      </trkpt>
      <trkpt lat="43.44932" lon="5.49034">
        <ele>281</ele>
        <time>2019-03-09T15:55:29.350Z</time>
      </trkpt>
      <trkpt lat="43.4493" lon="5.49038">
        <ele>283</ele>
        <time>2019-03-09T15:55:33.361Z</time>
      </trkpt>
      <trkpt lat="43.44926" lon="5.49044">
        <ele>285</ele>
        <time>2019-03-09T15:55:38.373Z</time>
      </trkpt>
      <trkpt lat="43.44922" lon="5.49049">
        <ele>285</ele>
        <time>2019-03-09T15:55:43.374Z</time>
      </trkpt>
      <trkpt lat="43.44919" lon="5.49055">
        <ele>285</ele>
        <time>2019-03-09T15:55:48.364Z</time>
      </trkpt>
      <trkpt lat="43.44916" lon="5.49061">
        <ele>285</ele>
        <time>2019-03-09T15:55:52.373Z</time>
      </trkpt>
      <trkpt lat="43.44913" lon="5.49067">
        <ele>285</ele>
        <time>2019-03-09T15:55:57.345Z</time>
      </trkpt>
      <trkpt lat="43.4491" lon="5.49072">
        <ele>287</ele>
        <time>2019-03-09T15:56:01.347Z</time>
      </trkpt>
      <trkpt lat="43.44906" lon="5.49077">
        <ele>287</ele>
        <time>2019-03-09T15:56:05.374Z</time>
      </trkpt>
      <trkpt lat="43.44901" lon="5.49083">
        <ele>289</ele>
        <time>2019-03-09T15:56:10.346Z</time>
      </trkpt>
      <trkpt lat="43.44897" lon="5.49087">
        <ele>289</ele>
        <time>2019-03-09T15:56:14.358Z</time>
      </trkpt>
      <trkpt lat="43.44893" lon="5.49091">
        <ele>289</ele>
        <time>2019-03-09T15:56:19.381Z</time>
      </trkpt>
      <trkpt lat="43.44887" lon="5.49094">
        <ele>289</ele>
        <time>2019-03-09T15:56:24.346Z</time>
      </trkpt>
      <trkpt lat="43.4488" lon="5.49096">
        <ele>289</ele>
        <time>2019-03-09T15:56:29.345Z</time>
      </trkpt>
      <trkpt lat="43.44875" lon="5.49097">
        <ele>289</ele>
        <time>2019-03-09T15:56:34.349Z</time>
      </trkpt>
      <trkpt lat="43.44868" lon="5.49099">
        <ele>292</ele>
        <time>2019-03-09T15:56:39.348Z</time>
      </trkpt>
      <trkpt lat="43.44864" lon="5.491">
        <ele>292</ele>
        <time>2019-03-09T15:56:43.371Z</time>
      </trkpt>
      <trkpt lat="43.44859" lon="5.49101">
        <ele>292</ele>
        <time>2019-03-09T15:56:48.341Z</time>
      </trkpt>
      <trkpt lat="43.44854" lon="5.49102">
        <ele>292</ele>
        <time>2019-03-09T15:56:52.375Z</time>
      </trkpt>
      <trkpt lat="43.44851" lon="5.49102">
        <ele>292</ele>
        <time>2019-03-09T15:56:57.381Z</time>
      </trkpt>
      <trkpt lat="43.44845" lon="5.49104">
        <ele>293</ele>
        <time>2019-03-09T15:57:02.374Z</time>
      </trkpt>
      <trkpt lat="43.44839" lon="5.49104">
        <ele>293</ele>
        <time>2019-03-09T15:57:07.351Z</time>
      </trkpt>
      <trkpt lat="43.44832" lon="5.49104">
        <ele>293</ele>
        <time>2019-03-09T15:57:12.349Z</time>
      </trkpt>
      <trkpt lat="43.44827" lon="5.49104">
        <ele>293</ele>
        <time>2019-03-09T15:57:16.384Z</time>
      </trkpt>
      <trkpt lat="43.44821" lon="5.49104">
        <ele>293</ele>
        <time>2019-03-09T15:57:21.332Z</time>
      </trkpt>
      <trkpt lat="43.44817" lon="5.49106">
        <ele>293</ele>
        <time>2019-03-09T15:57:25.370Z</time>
      </trkpt>
      <trkpt lat="43.44808" lon="5.49108">
        <ele>293</ele>
        <time>2019-03-09T15:57:30.387Z</time>
      </trkpt>
      <trkpt lat="43.448" lon="5.49111">
        <ele>293</ele>
        <time>2019-03-09T15:57:35.348Z</time>
      </trkpt>
      <trkpt lat="43.44794" lon="5.49116">
        <ele>293</ele>
        <time>2019-03-09T15:57:40.381Z</time>
      </trkpt>
      <trkpt lat="43.4479" lon="5.49123">
        <ele>293</ele>
        <time>2019-03-09T15:57:45.360Z</time>
      </trkpt>
      <trkpt lat="43.44785" lon="5.49128">
        <ele>296</ele>
        <time>2019-03-09T15:57:50.344Z</time>
      </trkpt>
      <trkpt lat="43.4478" lon="5.49134">
        <ele>296</ele>
        <time>2019-03-09T15:57:55.343Z</time>
      </trkpt>
      <trkpt lat="43.44775" lon="5.4914">
        <ele>296</ele>
        <time>2019-03-09T15:58:00.350Z</time>
      </trkpt>
      <trkpt lat="43.44769" lon="5.49146">
        <ele>296</ele>
        <time>2019-03-09T15:58:05.374Z</time>
      </trkpt>
      <trkpt lat="43.44763" lon="5.49152">
        <ele>296</ele>
        <time>2019-03-09T15:58:10.343Z</time>
      </trkpt>
      <trkpt lat="43.4476" lon="5.49157">
        <ele>298</ele>
        <time>2019-03-09T15:58:14.360Z</time>
      </trkpt>
      <trkpt lat="43.44756" lon="5.49161">
        <ele>298</ele>
        <time>2019-03-09T15:58:19.386Z</time>
      </trkpt>
      <trkpt lat="43.44753" lon="5.49166">
        <ele>298</ele>
        <time>2019-03-09T15:58:24.351Z</time>
      </trkpt>
      <trkpt lat="43.44749" lon="5.49173">
        <ele>298</ele>
        <time>2019-03-09T15:58:29.351Z</time>
      </trkpt>
      <trkpt lat="43.44746" lon="5.49178">
        <ele>298</ele>
        <time>2019-03-09T15:58:33.378Z</time>
      </trkpt>
      <trkpt lat="43.44743" lon="5.49183">
        <ele>298</ele>
        <time>2019-03-09T15:58:38.343Z</time>
      </trkpt>
      <trkpt lat="43.44741" lon="5.49188">
        <ele>298</ele>
        <time>2019-03-09T15:58:43.344Z</time>
      </trkpt>
      <trkpt lat="43.44737" lon="5.49193">
        <ele>298</ele>
        <time>2019-03-09T15:58:48.347Z</time>
      </trkpt>
      <trkpt lat="43.44732" lon="5.492">
        <ele>302</ele>
        <time>2019-03-09T15:58:53.375Z</time>
      </trkpt>
      <trkpt lat="43.4473" lon="5.49203">
        <ele>302</ele>
        <time>2019-03-09T15:58:57.379Z</time>
      </trkpt>
      <trkpt lat="43.44724" lon="5.49208">
        <ele>302</ele>
        <time>2019-03-09T15:59:02.343Z</time>
      </trkpt>
      <trkpt lat="43.44719" lon="5.49214">
        <ele>303</ele>
        <time>2019-03-09T15:59:06.380Z</time>
      </trkpt>
      <trkpt lat="43.44714" lon="5.49221">
        <ele>303</ele>
        <time>2019-03-09T15:59:11.378Z</time>
      </trkpt>
      <trkpt lat="43.44709" lon="5.4923">
        <ele>303</ele>
        <time>2019-03-09T15:59:16.352Z</time>
      </trkpt>
      <trkpt lat="43.44706" lon="5.49235">
        <ele>305</ele>
        <time>2019-03-09T15:59:20.359Z</time>
      </trkpt>
      <trkpt lat="43.44702" lon="5.4924">
        <ele>305</ele>
        <time>2019-03-09T15:59:25.352Z</time>
      </trkpt>
      <trkpt lat="43.44698" lon="5.49242">
        <ele>305</ele>
        <time>2019-03-09T15:59:29.361Z</time>
      </trkpt>
      <trkpt lat="43.44696" lon="5.49244">
        <ele>305</ele>
        <time>2019-03-09T15:59:34.374Z</time>
      </trkpt>
      <trkpt lat="43.44691" lon="5.49248">
        <ele>305</ele>
        <time>2019-03-09T15:59:39.374Z</time>
      </trkpt>
      <trkpt lat="43.44688" lon="5.49251">
        <ele>305</ele>
        <time>2019-03-09T15:59:44.346Z</time>
      </trkpt>
      <trkpt lat="43.44685" lon="5.49255">
        <ele>305</ele>
        <time>2019-03-09T15:59:49.375Z</time>
      </trkpt>
      <trkpt lat="43.44681" lon="5.49261">
        <ele>305</ele>
        <time>2019-03-09T15:59:54.345Z</time>
      </trkpt>
      <trkpt lat="43.44677" lon="5.49265">
        <ele>306</ele>
        <time>2019-03-09T15:59:58.373Z</time>
      </trkpt>
      <trkpt lat="43.44674" lon="5.49271">
        <ele>306</ele>
        <time>2019-03-09T16:00:03.346Z</time>
      </trkpt>
      <trkpt lat="43.44671" lon="5.49276">
        <ele>306</ele>
        <time>2019-03-09T16:00:07.392Z</time>
      </trkpt>
      <trkpt lat="43.44668" lon="5.49282">
        <ele>306</ele>
        <time>2019-03-09T16:00:12.376Z</time>
      </trkpt>
      <trkpt lat="43.44665" lon="5.49286">
        <ele>306</ele>
        <time>2019-03-09T16:00:17.352Z</time>
      </trkpt>
      <trkpt lat="43.44661" lon="5.49293">
        <ele>308</ele>
        <time>2019-03-09T16:00:22.360Z</time>
      </trkpt>
      <trkpt lat="43.44656" lon="5.493">
        <ele>308</ele>
        <time>2019-03-09T16:00:26.375Z</time>
      </trkpt>
      <trkpt lat="43.44651" lon="5.49307">
        <ele>309</ele>
        <time>2019-03-09T16:00:31.348Z</time>
      </trkpt>
      <trkpt lat="43.44645" lon="5.49313">
        <ele>309</ele>
        <time>2019-03-09T16:00:36.353Z</time>
      </trkpt>
      <trkpt lat="43.44641" lon="5.49317">
        <ele>309</ele>
        <time>2019-03-09T16:00:41.362Z</time>
      </trkpt>
      <trkpt lat="43.44637" lon="5.49321">
        <ele>311</ele>
        <time>2019-03-09T16:00:46.346Z</time>
      </trkpt>
      <trkpt lat="43.44635" lon="5.49325">
        <ele>311</ele>
        <time>2019-03-09T16:00:51.343Z</time>
      </trkpt>
      <trkpt lat="43.44634" lon="5.49329">
        <ele>311</ele>
        <time>2019-03-09T16:00:56.375Z</time>
      </trkpt>
      <trkpt lat="43.44631" lon="5.49337">
        <ele>311</ele>
        <time>2019-03-09T16:01:01.377Z</time>
      </trkpt>
      <trkpt lat="43.44628" lon="5.49345">
        <ele>311</ele>
        <time>2019-03-09T16:01:06.351Z</time>
      </trkpt>
      <trkpt lat="43.44627" lon="5.49351">
        <ele>313</ele>
        <time>2019-03-09T16:01:11.347Z</time>
      </trkpt>
      <trkpt lat="43.44627" lon="5.49366">
        <ele>313</ele>
        <time>2019-03-09T16:01:16.374Z</time>
      </trkpt>
      <trkpt lat="43.44627" lon="5.4937">
        <ele>313</ele>
        <time>2019-03-09T16:01:21.343Z</time>
      </trkpt>
      <trkpt lat="43.44627" lon="5.49372">
        <ele>313</ele>
        <time>2019-03-09T16:01:29.373Z</time>
      </trkpt>
      <trkpt lat="43.44627" lon="5.49374">
        <ele>313</ele>
        <time>2019-03-09T16:01:34.348Z</time>
      </trkpt>
      <trkpt lat="43.44625" lon="5.49376">
        <ele>314</ele>
        <time>2019-03-09T16:01:38.376Z</time>
      </trkpt>
      <trkpt lat="43.44624" lon="5.49378">
        <ele>315</ele>
        <time>2019-03-09T16:01:43.345Z</time>
      </trkpt>
      <trkpt lat="43.44621" lon="5.4938">
        <ele>315</ele>
        <time>2019-03-09T16:01:48.343Z</time>
      </trkpt>
      <trkpt lat="43.44612" lon="5.49385">
        <ele>315</ele>
        <time>2019-03-09T16:01:53.336Z</time>
      </trkpt>
      <trkpt lat="43.44605" lon="5.49389">
        <ele>315</ele>
        <time>2019-03-09T16:01:58.342Z</time>
      </trkpt>
      <trkpt lat="43.44598" lon="5.49394">
        <ele>315</ele>
        <time>2019-03-09T16:02:03.343Z</time>
      </trkpt>
      <trkpt lat="43.44592" lon="5.49398">
        <ele>313</ele>
        <time>2019-03-09T16:02:08.347Z</time>
      </trkpt>
      <trkpt lat="43.44589" lon="5.494">
        <ele>313</ele>
        <time>2019-03-09T16:02:13.337Z</time>
      </trkpt>
      <trkpt lat="43.44583" lon="5.49406">
        <ele>314</ele>
        <time>2019-03-09T16:02:18.332Z</time>
      </trkpt>
      <trkpt lat="43.44579" lon="5.49411">
        <ele>314</ele>
        <time>2019-03-09T16:02:22.342Z</time>
      </trkpt>
      <trkpt lat="43.44576" lon="5.49415">
        <ele>314</ele>
        <time>2019-03-09T16:02:27.343Z</time>
      </trkpt>
      <trkpt lat="43.44571" lon="5.49421">
        <ele>314</ele>
        <time>2019-03-09T16:02:32.333Z</time>
      </trkpt>
      <trkpt lat="43.44567" lon="5.49424">
        <ele>311</ele>
        <time>2019-03-09T16:02:37.367Z</time>
      </trkpt>
      <trkpt lat="43.44562" lon="5.49427">
        <ele>311</ele>
        <time>2019-03-09T16:02:42.341Z</time>
      </trkpt>
      <trkpt lat="43.4456" lon="5.49431">
        <ele>312</ele>
        <time>2019-03-09T16:02:46.346Z</time>
      </trkpt>
      <trkpt lat="43.44555" lon="5.49434">
        <ele>312</ele>
        <time>2019-03-09T16:02:51.333Z</time>
      </trkpt>
      <trkpt lat="43.44553" lon="5.49434">
        <ele>312</ele>
        <time>2019-03-09T16:02:55.376Z</time>
      </trkpt>
      <trkpt lat="43.44552" lon="5.49435">
        <ele>312</ele>
        <time>2019-03-09T16:03:00.372Z</time>
      </trkpt>
      <trkpt lat="43.44547" lon="5.49441">
        <ele>312</ele>
        <time>2019-03-09T16:03:05.344Z</time>
      </trkpt>
      <trkpt lat="43.44543" lon="5.49446">
        <ele>312</ele>
        <time>2019-03-09T16:03:09.375Z</time>
      </trkpt>
      <trkpt lat="43.4454" lon="5.4945">
        <ele>311</ele>
        <time>2019-03-09T16:03:14.357Z</time>
      </trkpt>
      <trkpt lat="43.44535" lon="5.49455">
        <ele>311</ele>
        <time>2019-03-09T16:03:19.375Z</time>
      </trkpt>
      <trkpt lat="43.44529" lon="5.49464">
        <ele>312</ele>
        <time>2019-03-09T16:03:24.375Z</time>
      </trkpt>
      <trkpt lat="43.44518" lon="5.4947">
        <ele>312</ele>
        <time>2019-03-09T16:03:29.352Z</time>
      </trkpt>
      <trkpt lat="43.44515" lon="5.49473">
        <ele>312</ele>
        <time>2019-03-09T16:03:33.373Z</time>
      </trkpt>
      <trkpt lat="43.44512" lon="5.49479">
        <ele>312</ele>
        <time>2019-03-09T16:03:38.374Z</time>
      </trkpt>
      <trkpt lat="43.4451" lon="5.49485">
        <ele>312</ele>
        <time>2019-03-09T16:03:43.349Z</time>
      </trkpt>
      <trkpt lat="43.44507" lon="5.4949">
        <ele>314</ele>
        <time>2019-03-09T16:03:48.360Z</time>
      </trkpt>
      <trkpt lat="43.44503" lon="5.49493">
        <ele>314</ele>
        <time>2019-03-09T16:03:53.345Z</time>
      </trkpt>
      <trkpt lat="43.44498" lon="5.49496">
        <ele>314</ele>
        <time>2019-03-09T16:03:57.362Z</time>
      </trkpt>
      <trkpt lat="43.44495" lon="5.49499">
        <ele>314</ele>
        <time>2019-03-09T16:04:02.374Z</time>
      </trkpt>
      <trkpt lat="43.44491" lon="5.49502">
        <ele>314</ele>
        <time>2019-03-09T16:04:06.382Z</time>
      </trkpt>
      <trkpt lat="43.44486" lon="5.49506">
        <ele>315</ele>
        <time>2019-03-09T16:04:11.344Z</time>
      </trkpt>
      <trkpt lat="43.44483" lon="5.49508">
        <ele>315</ele>
        <time>2019-03-09T16:04:15.357Z</time>
      </trkpt>
      <trkpt lat="43.4448" lon="5.49512">
        <ele>315</ele>
        <time>2019-03-09T16:04:20.343Z</time>
      </trkpt>
      <trkpt lat="43.44476" lon="5.49517">
        <ele>317</ele>
        <time>2019-03-09T16:04:24.358Z</time>
      </trkpt>
      <trkpt lat="43.44471" lon="5.49521">
        <ele>317</ele>
        <time>2019-03-09T16:04:29.350Z</time>
      </trkpt>
      <trkpt lat="43.44469" lon="5.49524">
        <ele>317</ele>
        <time>2019-03-09T16:04:34.348Z</time>
      </trkpt>
      <trkpt lat="43.44468" lon="5.49525">
        <ele>317</ele>
        <time>2019-03-09T16:04:44.376Z</time>
      </trkpt>
      <trkpt lat="43.44461" lon="5.49528">
        <ele>317</ele>
        <time>2019-03-09T16:04:49.376Z</time>
      </trkpt>
      <trkpt lat="43.44455" lon="5.49534">
        <ele>319</ele>
        <time>2019-03-09T16:04:54.378Z</time>
      </trkpt>
      <trkpt lat="43.44447" lon="5.49544">
        <ele>321</ele>
        <time>2019-03-09T16:04:59.362Z</time>
      </trkpt>
      <trkpt lat="43.44442" lon="5.49553">
        <ele>321</ele>
        <time>2019-03-09T16:05:04.353Z</time>
      </trkpt>
      <trkpt lat="43.44439" lon="5.4956">
        <ele>321</ele>
        <time>2019-03-09T16:05:09.355Z</time>
      </trkpt>
      <trkpt lat="43.44435" lon="5.49567">
        <ele>321</ele>
        <time>2019-03-09T16:05:14.347Z</time>
      </trkpt>
      <trkpt lat="43.44432" lon="5.49575">
        <ele>321</ele>
        <time>2019-03-09T16:05:19.360Z</time>
      </trkpt>
      <trkpt lat="43.4443" lon="5.49588">
        <ele>321</ele>
        <time>2019-03-09T16:05:24.376Z</time>
      </trkpt>
      <trkpt lat="43.4443" lon="5.49599">
        <ele>323</ele>
        <time>2019-03-09T16:05:29.353Z</time>
      </trkpt>
      <trkpt lat="43.44429" lon="5.49608">
        <ele>323</ele>
        <time>2019-03-09T16:05:34.362Z</time>
      </trkpt>
      <trkpt lat="43.44429" lon="5.49616">
        <ele>323</ele>
        <time>2019-03-09T16:05:39.347Z</time>
      </trkpt>
      <trkpt lat="43.44429" lon="5.49622">
        <ele>323</ele>
        <time>2019-03-09T16:05:43.366Z</time>
      </trkpt>
      <trkpt lat="43.44428" lon="5.4963">
        <ele>325</ele>
        <time>2019-03-09T16:05:48.346Z</time>
      </trkpt>
      <trkpt lat="43.4443" lon="5.49635">
        <ele>325</ele>
        <time>2019-03-09T16:05:53.377Z</time>
      </trkpt>
      <trkpt lat="43.44432" lon="5.49642">
        <ele>327</ele>
        <time>2019-03-09T16:05:58.341Z</time>
      </trkpt>
      <trkpt lat="43.44431" lon="5.49648">
        <ele>327</ele>
        <time>2019-03-09T16:06:02.347Z</time>
      </trkpt>
      <trkpt lat="43.44429" lon="5.49654">
        <ele>327</ele>
        <time>2019-03-09T16:06:07.374Z</time>
      </trkpt>
      <trkpt lat="43.44425" lon="5.49657">
        <ele>327</ele>
        <time>2019-03-09T16:06:12.343Z</time>
      </trkpt>
      <trkpt lat="43.44423" lon="5.49661">
        <ele>327</ele>
        <time>2019-03-09T16:06:16.355Z</time>
      </trkpt>
      <trkpt lat="43.44421" lon="5.49666">
        <ele>327</ele>
        <time>2019-03-09T16:06:21.349Z</time>
      </trkpt>
      <trkpt lat="43.44417" lon="5.4967">
        <ele>327</ele>
        <time>2019-03-09T16:06:26.351Z</time>
      </trkpt>
      <trkpt lat="43.44413" lon="5.49674">
        <ele>327</ele>
        <time>2019-03-09T16:06:31.376Z</time>
      </trkpt>
      <trkpt lat="43.4441" lon="5.49679">
        <ele>327</ele>
        <time>2019-03-09T16:06:36.358Z</time>
      </trkpt>
      <trkpt lat="43.44407" lon="5.49683">
        <ele>328</ele>
        <time>2019-03-09T16:06:40.381Z</time>
      </trkpt>
      <trkpt lat="43.44404" lon="5.49689">
        <ele>328</ele>
        <time>2019-03-09T16:06:45.347Z</time>
      </trkpt>
      <trkpt lat="43.44401" lon="5.49693">
        <ele>327</ele>
        <time>2019-03-09T16:06:49.375Z</time>
      </trkpt>
      <trkpt lat="43.44397" lon="5.49698">
        <ele>327</ele>
        <time>2019-03-09T16:06:54.375Z</time>
      </trkpt>
      <trkpt lat="43.44393" lon="5.49701">
        <ele>327</ele>
        <time>2019-03-09T16:06:59.340Z</time>
      </trkpt>
      <trkpt lat="43.44391" lon="5.49706">
        <ele>327</ele>
        <time>2019-03-09T16:07:03.374Z</time>
      </trkpt>
      <trkpt lat="43.44388" lon="5.49712">
        <ele>329</ele>
        <time>2019-03-09T16:07:08.342Z</time>
      </trkpt>
      <trkpt lat="43.44384" lon="5.49717">
        <ele>329</ele>
        <time>2019-03-09T16:07:13.351Z</time>
      </trkpt>
      <trkpt lat="43.44381" lon="5.49722">
        <ele>329</ele>
        <time>2019-03-09T16:07:17.387Z</time>
      </trkpt>
      <trkpt lat="43.44378" lon="5.49727">
        <ele>329</ele>
        <time>2019-03-09T16:07:22.345Z</time>
      </trkpt>
      <trkpt lat="43.44375" lon="5.49732">
        <ele>328</ele>
        <time>2019-03-09T16:07:27.346Z</time>
      </trkpt>
      <trkpt lat="43.44372" lon="5.49737">
        <ele>330</ele>
        <time>2019-03-09T16:07:32.357Z</time>
      </trkpt>
      <trkpt lat="43.44369" lon="5.49742">
        <ele>330</ele>
        <time>2019-03-09T16:07:36.380Z</time>
      </trkpt>
      <trkpt lat="43.44366" lon="5.49748">
        <ele>330</ele>
        <time>2019-03-09T16:07:41.360Z</time>
      </trkpt>
      <trkpt lat="43.44362" lon="5.49753">
        <ele>330</ele>
        <time>2019-03-09T16:07:46.375Z</time>
      </trkpt>
      <trkpt lat="43.44357" lon="5.49757">
        <ele>330</ele>
        <time>2019-03-09T16:07:51.347Z</time>
      </trkpt>
      <trkpt lat="43.44351" lon="5.49759">
        <ele>330</ele>
        <time>2019-03-09T16:07:56.377Z</time>
      </trkpt>
      <trkpt lat="43.44345" lon="5.49761">
        <ele>329</ele>
        <time>2019-03-09T16:08:01.378Z</time>
      </trkpt>
      <trkpt lat="43.4434" lon="5.49765">
        <ele>331</ele>
        <time>2019-03-09T16:08:06.393Z</time>
      </trkpt>
      <trkpt lat="43.44337" lon="5.49768">
        <ele>331</ele>
        <time>2019-03-09T16:08:11.341Z</time>
      </trkpt>
      <trkpt lat="43.44333" lon="5.49772">
        <ele>331</ele>
        <time>2019-03-09T16:08:16.345Z</time>
      </trkpt>
      <trkpt lat="43.4433" lon="5.49776">
        <ele>331</ele>
        <time>2019-03-09T16:08:21.377Z</time>
      </trkpt>
      <trkpt lat="43.44327" lon="5.49782">
        <ele>331</ele>
        <time>2019-03-09T16:08:26.377Z</time>
      </trkpt>
      <trkpt lat="43.4432" lon="5.49786">
        <ele>331</ele>
        <time>2019-03-09T16:08:31.349Z</time>
      </trkpt>
      <trkpt lat="43.44313" lon="5.49789">
        <ele>331</ele>
        <time>2019-03-09T16:08:36.345Z</time>
      </trkpt>
      <trkpt lat="43.44308" lon="5.49793">
        <ele>335</ele>
        <time>2019-03-09T16:08:41.350Z</time>
      </trkpt>
      <trkpt lat="43.44303" lon="5.49795">
        <ele>335</ele>
        <time>2019-03-09T16:08:45.368Z</time>
      </trkpt>
      <trkpt lat="43.44297" lon="5.49797">
        <ele>335</ele>
        <time>2019-03-09T16:08:50.354Z</time>
      </trkpt>
      <trkpt lat="43.44293" lon="5.49801">
        <ele>335</ele>
        <time>2019-03-09T16:08:55.355Z</time>
      </trkpt>
      <trkpt lat="43.44289" lon="5.49805">
        <ele>338</ele>
        <time>2019-03-09T16:09:00.344Z</time>
      </trkpt>
      <trkpt lat="43.44283" lon="5.49807">
        <ele>338</ele>
        <time>2019-03-09T16:09:05.345Z</time>
      </trkpt>
      <trkpt lat="43.4428" lon="5.49809">
        <ele>338</ele>
        <time>2019-03-09T16:09:09.348Z</time>
      </trkpt>
      <trkpt lat="43.44275" lon="5.49813">
        <ele>338</ele>
        <time>2019-03-09T16:09:14.379Z</time>
      </trkpt>
      <trkpt lat="43.4427" lon="5.49816">
        <ele>338</ele>
        <time>2019-03-09T16:09:19.379Z</time>
      </trkpt>
      <trkpt lat="43.44266" lon="5.49819">
        <ele>338</ele>
        <time>2019-03-09T16:09:23.379Z</time>
      </trkpt>
      <trkpt lat="43.4426" lon="5.49823">
        <ele>343</ele>
        <time>2019-03-09T16:09:28.380Z</time>
      </trkpt>
      <trkpt lat="43.44255" lon="5.49829">
        <ele>343</ele>
        <time>2019-03-09T16:09:33.388Z</time>
      </trkpt>
      <trkpt lat="43.4425" lon="5.49834">
        <ele>343</ele>
        <time>2019-03-09T16:09:38.342Z</time>
      </trkpt>
      <trkpt lat="43.44247" lon="5.49839">
        <ele>343</ele>
        <time>2019-03-09T16:09:42.348Z</time>
      </trkpt>
      <trkpt lat="43.44242" lon="5.49842">
        <ele>343</ele>
        <time>2019-03-09T16:09:47.347Z</time>
      </trkpt>
      <trkpt lat="43.4424" lon="5.49844">
        <ele>343</ele>
        <time>2019-03-09T16:09:51.381Z</time>
      </trkpt>
      <trkpt lat="43.44235" lon="5.49845">
        <ele>344</ele>
        <time>2019-03-09T16:09:56.379Z</time>
      </trkpt>
      <trkpt lat="43.4423" lon="5.49846">
        <ele>344</ele>
        <time>2019-03-09T16:10:01.378Z</time>
      </trkpt>
      <trkpt lat="43.44225" lon="5.49848">
        <ele>344</ele>
        <time>2019-03-09T16:10:06.356Z</time>
      </trkpt>
      <trkpt lat="43.44219" lon="5.49852">
        <ele>344</ele>
        <time>2019-03-09T16:10:11.353Z</time>
      </trkpt>
      <trkpt lat="43.44214" lon="5.49854">
        <ele>344</ele>
        <time>2019-03-09T16:10:15.358Z</time>
      </trkpt>
      <trkpt lat="43.4421" lon="5.49855">
        <ele>344</ele>
        <time>2019-03-09T16:10:19.388Z</time>
      </trkpt>
      <trkpt lat="43.44204" lon="5.49857">
        <ele>344</ele>
        <time>2019-03-09T16:10:24.380Z</time>
      </trkpt>
      <trkpt lat="43.442" lon="5.49857">
        <ele>344</ele>
        <time>2019-03-09T16:10:29.373Z</time>
      </trkpt>
      <trkpt lat="43.44193" lon="5.4986">
        <ele>344</ele>
        <time>2019-03-09T16:10:34.364Z</time>
      </trkpt>
      <trkpt lat="43.44187" lon="5.49863">
        <ele>344</ele>
        <time>2019-03-09T16:10:39.357Z</time>
      </trkpt>
      <trkpt lat="43.44182" lon="5.49866">
        <ele>344</ele>
        <time>2019-03-09T16:10:43.387Z</time>
      </trkpt>
      <trkpt lat="43.44177" lon="5.49869">
        <ele>343</ele>
        <time>2019-03-09T16:10:48.346Z</time>
      </trkpt>
      <trkpt lat="43.44172" lon="5.4987">
        <ele>343</ele>
        <time>2019-03-09T16:10:52.369Z</time>
      </trkpt>
      <trkpt lat="43.44166" lon="5.49871">
        <ele>343</ele>
        <time>2019-03-09T16:10:57.346Z</time>
      </trkpt>
      <trkpt lat="43.44162" lon="5.49873">
        <ele>343</ele>
        <time>2019-03-09T16:11:01.378Z</time>
      </trkpt>
      <trkpt lat="43.44157" lon="5.49877">
        <ele>344</ele>
        <time>2019-03-09T16:11:06.350Z</time>
      </trkpt>
      <trkpt lat="43.4415" lon="5.49878">
        <ele>343</ele>
        <time>2019-03-09T16:11:10.368Z</time>
      </trkpt>
      <trkpt lat="43.44143" lon="5.49881">
        <ele>343</ele>
        <time>2019-03-09T16:11:15.368Z</time>
      </trkpt>
      <trkpt lat="43.44137" lon="5.49884">
        <ele>343</ele>
        <time>2019-03-09T16:11:20.357Z</time>
      </trkpt>
      <trkpt lat="43.44131" lon="5.49885">
        <ele>343</ele>
        <time>2019-03-09T16:11:25.386Z</time>
      </trkpt>
      <trkpt lat="43.44126" lon="5.49884">
        <ele>343</ele>
        <time>2019-03-09T16:11:30.350Z</time>
      </trkpt>
      <trkpt lat="43.44123" lon="5.49884">
        <ele>343</ele>
        <time>2019-03-09T16:11:34.371Z</time>
      </trkpt>
      <trkpt lat="43.44118" lon="5.49885">
        <ele>343</ele>
        <time>2019-03-09T16:11:39.347Z</time>
      </trkpt>
      <trkpt lat="43.44111" lon="5.49889">
        <ele>343</ele>
        <time>2019-03-09T16:11:44.346Z</time>
      </trkpt>
      <trkpt lat="43.44106" lon="5.49893">
        <ele>343</ele>
        <time>2019-03-09T16:11:49.354Z</time>
      </trkpt>
      <trkpt lat="43.44102" lon="5.49896">
        <ele>343</ele>
        <time>2019-03-09T16:11:54.355Z</time>
      </trkpt>
      <trkpt lat="43.44098" lon="5.499">
        <ele>343</ele>
        <time>2019-03-09T16:11:58.387Z</time>
      </trkpt>
      <trkpt lat="43.44094" lon="5.49905">
        <ele>347</ele>
        <time>2019-03-09T16:12:03.381Z</time>
      </trkpt>
      <trkpt lat="43.44089" lon="5.49906">
        <ele>347</ele>
        <time>2019-03-09T16:12:08.356Z</time>
      </trkpt>
      <trkpt lat="43.44083" lon="5.49908">
        <ele>347</ele>
        <time>2019-03-09T16:12:13.350Z</time>
      </trkpt>
      <trkpt lat="43.44077" lon="5.49911">
        <ele>347</ele>
        <time>2019-03-09T16:12:18.350Z</time>
      </trkpt>
      <trkpt lat="43.4407" lon="5.49915">
        <ele>347</ele>
        <time>2019-03-09T16:12:23.358Z</time>
      </trkpt>
      <trkpt lat="43.44064" lon="5.49918">
        <ele>347</ele>
        <time>2019-03-09T16:12:28.383Z</time>
      </trkpt>
      <trkpt lat="43.44059" lon="5.49922">
        <ele>347</ele>
        <time>2019-03-09T16:12:33.385Z</time>
      </trkpt>
      <trkpt lat="43.44054" lon="5.49925">
        <ele>347</ele>
        <time>2019-03-09T16:12:38.378Z</time>
      </trkpt>
      <trkpt lat="43.4405" lon="5.4993">
        <ele>347</ele>
        <time>2019-03-09T16:12:43.355Z</time>
      </trkpt>
      <trkpt lat="43.44045" lon="5.49933">
        <ele>347</ele>
        <time>2019-03-09T16:12:48.379Z</time>
      </trkpt>
      <trkpt lat="43.4404" lon="5.49936">
        <ele>346</ele>
        <time>2019-03-09T16:12:53.352Z</time>
      </trkpt>
      <trkpt lat="43.44035" lon="5.49938">
        <ele>346</ele>
        <time>2019-03-09T16:12:57.376Z</time>
      </trkpt>
      <trkpt lat="43.44029" lon="5.49942">
        <ele>346</ele>
        <time>2019-03-09T16:13:02.377Z</time>
      </trkpt>
      <trkpt lat="43.44023" lon="5.49945">
        <ele>346</ele>
        <time>2019-03-09T16:13:07.373Z</time>
      </trkpt>
      <trkpt lat="43.44018" lon="5.49947">
        <ele>346</ele>
        <time>2019-03-09T16:13:12.344Z</time>
      </trkpt>
      <trkpt lat="43.44014" lon="5.49948">
        <ele>349</ele>
        <time>2019-03-09T16:13:16.354Z</time>
      </trkpt>
      <trkpt lat="43.44009" lon="5.49951">
        <ele>349</ele>
        <time>2019-03-09T16:13:21.353Z</time>
      </trkpt>
      <trkpt lat="43.44005" lon="5.49956">
        <ele>349</ele>
        <time>2019-03-09T16:13:26.350Z</time>
      </trkpt>
      <trkpt lat="43.44" lon="5.49961">
        <ele>348</ele>
        <time>2019-03-09T16:13:31.335Z</time>
      </trkpt>
      <trkpt lat="43.43995" lon="5.49964">
        <ele>348</ele>
        <time>2019-03-09T16:13:35.345Z</time>
      </trkpt>
      <trkpt lat="43.43991" lon="5.49969">
        <ele>348</ele>
        <time>2019-03-09T16:13:40.352Z</time>
      </trkpt>
      <trkpt lat="43.43986" lon="5.49972">
        <ele>348</ele>
        <time>2019-03-09T16:13:44.379Z</time>
      </trkpt>
      <trkpt lat="43.43983" lon="5.49976">
        <ele>349</ele>
        <time>2019-03-09T16:13:49.344Z</time>
      </trkpt>
      <trkpt lat="43.4398" lon="5.4998">
        <ele>349</ele>
        <time>2019-03-09T16:13:53.361Z</time>
      </trkpt>
      <trkpt lat="43.43977" lon="5.49984">
        <ele>349</ele>
        <time>2019-03-09T16:13:57.381Z</time>
      </trkpt>
      <trkpt lat="43.43973" lon="5.49989">
        <ele>349</ele>
        <time>2019-03-09T16:14:02.347Z</time>
      </trkpt>
      <trkpt lat="43.43969" lon="5.49993">
        <ele>349</ele>
        <time>2019-03-09T16:14:06.377Z</time>
      </trkpt>
      <trkpt lat="43.43966" lon="5.49998">
        <ele>349</ele>
        <time>2019-03-09T16:14:10.379Z</time>
      </trkpt>
      <trkpt lat="43.4396" lon="5.50004">
        <ele>349</ele>
        <time>2019-03-09T16:14:15.351Z</time>
      </trkpt>
      <trkpt lat="43.43957" lon="5.50009">
        <ele>350</ele>
        <time>2019-03-09T16:14:20.344Z</time>
      </trkpt>
      <trkpt lat="43.43952" lon="5.50015">
        <ele>349</ele>
        <time>2019-03-09T16:14:25.346Z</time>
      </trkpt>
      <trkpt lat="43.43947" lon="5.5002">
        <ele>349</ele>
        <time>2019-03-09T16:14:30.353Z</time>
      </trkpt>
      <trkpt lat="43.43944" lon="5.50023">
        <ele>349</ele>
        <time>2019-03-09T16:14:34.389Z</time>
      </trkpt>
      <trkpt lat="43.4394" lon="5.50028">
        <ele>349</ele>
        <time>2019-03-09T16:14:39.351Z</time>
      </trkpt>
      <trkpt lat="43.43936" lon="5.50031">
        <ele>349</ele>
        <time>2019-03-09T16:14:43.376Z</time>
      </trkpt>
      <trkpt lat="43.43931" lon="5.50037">
        <ele>349</ele>
        <time>2019-03-09T16:14:48.344Z</time>
      </trkpt>
      <trkpt lat="43.43928" lon="5.50041">
        <ele>350</ele>
        <time>2019-03-09T16:14:52.357Z</time>
      </trkpt>
      <trkpt lat="43.43922" lon="5.50047">
        <ele>349</ele>
        <time>2019-03-09T16:14:57.374Z</time>
      </trkpt>
      <trkpt lat="43.43917" lon="5.50052">
        <ele>349</ele>
        <time>2019-03-09T16:15:02.348Z</time>
      </trkpt>
      <trkpt lat="43.43912" lon="5.50058">
        <ele>349</ele>
        <time>2019-03-09T16:15:07.361Z</time>
      </trkpt>
      <trkpt lat="43.43908" lon="5.50063">
        <ele>349</ele>
        <time>2019-03-09T16:15:12.357Z</time>
      </trkpt>
      <trkpt lat="43.43904" lon="5.50068">
        <ele>349</ele>
        <time>2019-03-09T16:15:17.346Z</time>
      </trkpt>
      <trkpt lat="43.439" lon="5.50071">
        <ele>348</ele>
        <time>2019-03-09T16:15:21.363Z</time>
      </trkpt>
      <trkpt lat="43.43896" lon="5.50074">
        <ele>348</ele>
        <time>2019-03-09T16:15:26.363Z</time>
      </trkpt>
      <trkpt lat="43.43893" lon="5.50079">
        <ele>348</ele>
        <time>2019-03-09T16:15:30.396Z</time>
      </trkpt>
      <trkpt lat="43.43889" lon="5.50085">
        <ele>348</ele>
        <time>2019-03-09T16:15:34.338Z</time>
      </trkpt>
      <trkpt lat="43.43889" lon="5.50087">
        <ele>348</ele>
        <time>2019-03-09T16:15:39.335Z</time>
      </trkpt>
      <trkpt lat="43.43885" lon="5.50089">
        <ele>348</ele>
        <time>2019-03-09T16:15:53.348Z</time>
      </trkpt>
      <trkpt lat="43.43882" lon="5.50095">
        <ele>348</ele>
        <time>2019-03-09T16:15:57.364Z</time>
      </trkpt>
      <trkpt lat="43.4388" lon="5.50099">
        <ele>349</ele>
        <time>2019-03-09T16:16:01.374Z</time>
      </trkpt>
      <trkpt lat="43.43876" lon="5.50104">
        <ele>349</ele>
        <time>2019-03-09T16:16:06.360Z</time>
      </trkpt>
      <trkpt lat="43.43871" lon="5.50111">
        <ele>350</ele>
        <time>2019-03-09T16:16:11.345Z</time>
      </trkpt>
      <trkpt lat="43.43868" lon="5.50116">
        <ele>350</ele>
        <time>2019-03-09T16:16:16.337Z</time>
      </trkpt>
      <trkpt lat="43.43865" lon="5.5012">
        <ele>350</ele>
        <time>2019-03-09T16:16:20.346Z</time>
      </trkpt>
      <trkpt lat="43.43861" lon="5.50124">
        <ele>350</ele>
        <time>2019-03-09T16:16:24.378Z</time>
      </trkpt>
      <trkpt lat="43.43857" lon="5.5013">
        <ele>353</ele>
        <time>2019-03-09T16:16:29.352Z</time>
      </trkpt>
      <trkpt lat="43.43855" lon="5.50133">
        <ele>353</ele>
        <time>2019-03-09T16:16:34.338Z</time>
      </trkpt>
      <trkpt lat="43.43855" lon="5.50133">
        <ele>353</ele>
        <time>2019-03-09T16:16:38.350Z</time>
      </trkpt>
      <trkpt lat="43.43854" lon="5.50136">
        <ele>353</ele>
        <time>2019-03-09T16:16:48.376Z</time>
      </trkpt>
      <trkpt lat="43.43849" lon="5.50142">
        <ele>353</ele>
        <time>2019-03-09T16:16:53.346Z</time>
      </trkpt>
      <trkpt lat="43.43846" lon="5.50149">
        <ele>356</ele>
        <time>2019-03-09T16:16:58.337Z</time>
      </trkpt>
      <trkpt lat="43.43844" lon="5.50154">
        <ele>357</ele>
        <time>2019-03-09T16:17:02.336Z</time>
      </trkpt>
      <trkpt lat="43.43842" lon="5.50159">
        <ele>357</ele>
        <time>2019-03-09T16:17:07.363Z</time>
      </trkpt>
      <trkpt lat="43.43837" lon="5.50164">
        <ele>357</ele>
        <time>2019-03-09T16:17:12.338Z</time>
      </trkpt>
      <trkpt lat="43.43835" lon="5.50167">
        <ele>357</ele>
        <time>2019-03-09T16:17:16.342Z</time>
      </trkpt>
      <trkpt lat="43.43833" lon="5.50172">
        <ele>357</ele>
        <time>2019-03-09T16:17:20.352Z</time>
      </trkpt>
      <trkpt lat="43.43832" lon="5.50176">
        <ele>357</ele>
        <time>2019-03-09T16:17:23.353Z</time>
      </trkpt>
      <trkpt lat="43.4383" lon="5.50179">
        <ele>357</ele>
        <time>2019-03-09T16:17:29.354Z</time>
      </trkpt>
      <trkpt lat="43.43825" lon="5.50186">
        <ele>357</ele>
        <time>2019-03-09T16:17:34.343Z</time>
      </trkpt>
      <trkpt lat="43.43821" lon="5.50191">
        <ele>357</ele>
        <time>2019-03-09T16:17:39.347Z</time>
      </trkpt>
      <trkpt lat="43.43819" lon="5.50196">
        <ele>359</ele>
        <time>2019-03-09T16:17:44.336Z</time>
      </trkpt>
      <trkpt lat="43.43816" lon="5.50201">
        <ele>359</ele>
        <time>2019-03-09T16:17:48.384Z</time>
      </trkpt>
      <trkpt lat="43.43812" lon="5.50204">
        <ele>359</ele>
        <time>2019-03-09T16:17:53.347Z</time>
      </trkpt>
      <trkpt lat="43.4381" lon="5.50208">
        <ele>359</ele>
        <time>2019-03-09T16:17:57.377Z</time>
      </trkpt>
      <trkpt lat="43.43806" lon="5.50214">
        <ele>358</ele>
        <time>2019-03-09T16:18:02.355Z</time>
      </trkpt>
      <trkpt lat="43.43802" lon="5.5022">
        <ele>358</ele>
        <time>2019-03-09T16:18:07.369Z</time>
      </trkpt>
      <trkpt lat="43.43799" lon="5.50226">
        <ele>358</ele>
        <time>2019-03-09T16:18:12.335Z</time>
      </trkpt>
      <trkpt lat="43.43796" lon="5.50231">
        <ele>358</ele>
        <time>2019-03-09T16:18:16.353Z</time>
      </trkpt>
      <trkpt lat="43.43793" lon="5.5024">
        <ele>358</ele>
        <time>2019-03-09T16:18:21.332Z</time>
      </trkpt>
      <trkpt lat="43.43791" lon="5.50246">
        <ele>359</ele>
        <time>2019-03-09T16:18:25.335Z</time>
      </trkpt>
      <trkpt lat="43.43788" lon="5.50251">
        <ele>359</ele>
        <time>2019-03-09T16:18:29.360Z</time>
      </trkpt>
      <trkpt lat="43.43785" lon="5.50258">
        <ele>359</ele>
        <time>2019-03-09T16:18:34.350Z</time>
      </trkpt>
      <trkpt lat="43.43782" lon="5.50265">
        <ele>359</ele>
        <time>2019-03-09T16:18:39.347Z</time>
      </trkpt>
      <trkpt lat="43.43778" lon="5.50271">
        <ele>359</ele>
        <time>2019-03-09T16:18:44.349Z</time>
      </trkpt>
      <trkpt lat="43.43773" lon="5.50274">
        <ele>359</ele>
        <time>2019-03-09T16:18:49.341Z</time>
      </trkpt>
      <trkpt lat="43.4377" lon="5.50277">
        <ele>359</ele>
        <time>2019-03-09T16:18:53.345Z</time>
      </trkpt>
      <trkpt lat="43.43766" lon="5.50279">
        <ele>359</ele>
        <time>2019-03-09T16:18:57.376Z</time>
      </trkpt>
      <trkpt lat="43.4376" lon="5.50283">
        <ele>360</ele>
        <time>2019-03-09T16:19:02.347Z</time>
      </trkpt>
      <trkpt lat="43.43756" lon="5.50289">
        <ele>360</ele>
        <time>2019-03-09T16:19:06.356Z</time>
      </trkpt>
      <trkpt lat="43.43752" lon="5.50294">
        <ele>360</ele>
        <time>2019-03-09T16:19:10.379Z</time>
      </trkpt>
      <trkpt lat="43.43747" lon="5.50298">
        <ele>360</ele>
        <time>2019-03-09T16:19:15.335Z</time>
      </trkpt>
      <trkpt lat="43.43743" lon="5.50301">
        <ele>360</ele>
        <time>2019-03-09T16:19:19.358Z</time>
      </trkpt>
      <trkpt lat="43.43739" lon="5.50302">
        <ele>360</ele>
        <time>2019-03-09T16:19:24.351Z</time>
      </trkpt>
      <trkpt lat="43.43735" lon="5.50304">
        <ele>361</ele>
        <time>2019-03-09T16:19:29.355Z</time>
      </trkpt>
      <trkpt lat="43.4373" lon="5.50308">
        <ele>361</ele>
        <time>2019-03-09T16:19:34.350Z</time>
      </trkpt>
      <trkpt lat="43.43726" lon="5.5031">
        <ele>361</ele>
        <time>2019-03-09T16:19:38.351Z</time>
      </trkpt>
      <trkpt lat="43.43721" lon="5.50312">
        <ele>361</ele>
        <time>2019-03-09T16:19:42.369Z</time>
      </trkpt>
      <trkpt lat="43.43715" lon="5.50316">
        <ele>361</ele>
        <time>2019-03-09T16:19:47.357Z</time>
      </trkpt>
      <trkpt lat="43.43709" lon="5.5032">
        <ele>360</ele>
        <time>2019-03-09T16:19:52.366Z</time>
      </trkpt>
      <trkpt lat="43.43703" lon="5.50325">
        <ele>359</ele>
        <time>2019-03-09T16:19:57.336Z</time>
      </trkpt>
      <trkpt lat="43.43699" lon="5.50329">
        <ele>359</ele>
        <time>2019-03-09T16:20:01.351Z</time>
      </trkpt>
      <trkpt lat="43.43695" lon="5.50331">
        <ele>359</ele>
        <time>2019-03-09T16:20:06.349Z</time>
      </trkpt>
      <trkpt lat="43.43691" lon="5.50334">
        <ele>359</ele>
        <time>2019-03-09T16:20:11.349Z</time>
      </trkpt>
      <trkpt lat="43.43686" lon="5.50338">
        <ele>359</ele>
        <time>2019-03-09T16:20:15.380Z</time>
      </trkpt>
      <trkpt lat="43.43682" lon="5.50339">
        <ele>359</ele>
        <time>2019-03-09T16:20:20.361Z</time>
      </trkpt>
      <trkpt lat="43.43679" lon="5.5034">
        <ele>360</ele>
        <time>2019-03-09T16:20:25.377Z</time>
      </trkpt>
      <trkpt lat="43.43675" lon="5.50343">
        <ele>360</ele>
        <time>2019-03-09T16:20:30.358Z</time>
      </trkpt>
      <trkpt lat="43.43671" lon="5.50345">
        <ele>360</ele>
        <time>2019-03-09T16:20:34.380Z</time>
      </trkpt>
      <trkpt lat="43.43667" lon="5.50346">
        <ele>360</ele>
        <time>2019-03-09T16:20:39.362Z</time>
      </trkpt>
      <trkpt lat="43.43661" lon="5.50347">
        <ele>357</ele>
        <time>2019-03-09T16:20:44.380Z</time>
      </trkpt>
      <trkpt lat="43.43654" lon="5.50349">
        <ele>357</ele>
        <time>2019-03-09T16:20:49.377Z</time>
      </trkpt>
      <trkpt lat="43.43649" lon="5.5035">
        <ele>359</ele>
        <time>2019-03-09T16:20:54.348Z</time>
      </trkpt>
      <trkpt lat="43.43642" lon="5.50352">
        <ele>359</ele>
        <time>2019-03-09T16:20:59.355Z</time>
      </trkpt>
      <trkpt lat="43.43637" lon="5.50353">
        <ele>359</ele>
        <time>2019-03-09T16:21:03.375Z</time>
      </trkpt>
      <trkpt lat="43.43632" lon="5.50355">
        <ele>359</ele>
        <time>2019-03-09T16:21:08.350Z</time>
      </trkpt>
      <trkpt lat="43.43629" lon="5.50356">
        <ele>359</ele>
        <time>2019-03-09T16:21:12.375Z</time>
      </trkpt>
      <trkpt lat="43.43623" lon="5.50358">
        <ele>359</ele>
        <time>2019-03-09T16:21:17.353Z</time>
      </trkpt>
      <trkpt lat="43.43618" lon="5.50361">
        <ele>359</ele>
        <time>2019-03-09T16:21:22.353Z</time>
      </trkpt>
      <trkpt lat="43.43612" lon="5.50365">
        <ele>359</ele>
        <time>2019-03-09T16:21:27.377Z</time>
      </trkpt>
      <trkpt lat="43.43605" lon="5.5037">
        <ele>359</ele>
        <time>2019-03-09T16:21:32.349Z</time>
      </trkpt>
      <trkpt lat="43.43601" lon="5.50374">
        <ele>359</ele>
        <time>2019-03-09T16:21:36.377Z</time>
      </trkpt>
      <trkpt lat="43.43599" lon="5.50375">
        <ele>359</ele>
        <time>2019-03-09T16:21:41.345Z</time>
      </trkpt>
      <trkpt lat="43.43598" lon="5.50375">
        <ele>356</ele>
        <time>2019-03-09T16:22:19.341Z</time>
      </trkpt>
      <trkpt lat="43.43592" lon="5.50379">
        <ele>355</ele>
        <time>2019-03-09T16:22:24.385Z</time>
      </trkpt>
      <trkpt lat="43.43584" lon="5.50384">
        <ele>355</ele>
        <time>2019-03-09T16:22:29.366Z</time>
      </trkpt>
      <trkpt lat="43.43574" lon="5.50389">
        <ele>355</ele>
        <time>2019-03-09T16:22:34.385Z</time>
      </trkpt>
      <trkpt lat="43.4357" lon="5.50391">
        <ele>355</ele>
        <time>2019-03-09T16:22:39.375Z</time>
      </trkpt>
      <trkpt lat="43.43563" lon="5.50394">
        <ele>356</ele>
        <time>2019-03-09T16:22:44.377Z</time>
      </trkpt>
      <trkpt lat="43.4356" lon="5.50397">
        <ele>356</ele>
        <time>2019-03-09T16:22:49.352Z</time>
      </trkpt>
      <trkpt lat="43.43552" lon="5.50404">
        <ele>352</ele>
        <time>2019-03-09T16:22:54.347Z</time>
      </trkpt>
      <trkpt lat="43.43546" lon="5.50409">
        <ele>352</ele>
        <time>2019-03-09T16:22:58.383Z</time>
      </trkpt>
      <trkpt lat="43.43541" lon="5.50413">
        <ele>354</ele>
        <time>2019-03-09T16:23:03.351Z</time>
      </trkpt>
      <trkpt lat="43.43536" lon="5.50417">
        <ele>354</ele>
        <time>2019-03-09T16:23:08.378Z</time>
      </trkpt>
      <trkpt lat="43.43531" lon="5.50422">
        <ele>354</ele>
        <time>2019-03-09T16:23:13.345Z</time>
      </trkpt>
      <trkpt lat="43.43527" lon="5.50424">
        <ele>354</ele>
        <time>2019-03-09T16:23:18.348Z</time>
      </trkpt>
      <trkpt lat="43.43523" lon="5.50426">
        <ele>354</ele>
        <time>2019-03-09T16:23:22.359Z</time>
      </trkpt>
      <trkpt lat="43.43517" lon="5.5043">
        <ele>354</ele>
        <time>2019-03-09T16:23:27.358Z</time>
      </trkpt>
      <trkpt lat="43.43513" lon="5.50434">
        <ele>356</ele>
        <time>2019-03-09T16:23:32.343Z</time>
      </trkpt>
      <trkpt lat="43.43507" lon="5.50439">
        <ele>356</ele>
        <time>2019-03-09T16:23:37.373Z</time>
      </trkpt>
      <trkpt lat="43.43503" lon="5.50442">
        <ele>356</ele>
        <time>2019-03-09T16:23:42.360Z</time>
      </trkpt>
      <trkpt lat="43.43498" lon="5.50447">
        <ele>356</ele>
        <time>2019-03-09T16:23:47.353Z</time>
      </trkpt>
      <trkpt lat="43.43495" lon="5.5045">
        <ele>356</ele>
        <time>2019-03-09T16:23:51.375Z</time>
      </trkpt>
      <trkpt lat="43.43489" lon="5.50453">
        <ele>356</ele>
        <time>2019-03-09T16:23:56.374Z</time>
      </trkpt>
      <trkpt lat="43.43484" lon="5.50458">
        <ele>357</ele>
        <time>2019-03-09T16:24:01.374Z</time>
      </trkpt>
      <trkpt lat="43.43479" lon="5.50461">
        <ele>358</ele>
        <time>2019-03-09T16:24:05.380Z</time>
      </trkpt>
      <trkpt lat="43.43471" lon="5.50468">
        <ele>358</ele>
        <time>2019-03-09T16:24:10.355Z</time>
      </trkpt>
      <trkpt lat="43.43466" lon="5.50472">
        <ele>358</ele>
        <time>2019-03-09T16:24:14.379Z</time>
      </trkpt>
      <trkpt lat="43.4346" lon="5.50477">
        <ele>358</ele>
        <time>2019-03-09T16:24:19.359Z</time>
      </trkpt>
      <trkpt lat="43.43455" lon="5.50479">
        <ele>355</ele>
        <time>2019-03-09T16:24:24.358Z</time>
      </trkpt>
      <trkpt lat="43.43449" lon="5.50481">
        <ele>355</ele>
        <time>2019-03-09T16:24:29.350Z</time>
      </trkpt>
      <trkpt lat="43.43443" lon="5.50483">
        <ele>355</ele>
        <time>2019-03-09T16:24:34.367Z</time>
      </trkpt>
      <trkpt lat="43.43438" lon="5.50486">
        <ele>356</ele>
        <time>2019-03-09T16:24:39.349Z</time>
      </trkpt>
      <trkpt lat="43.43433" lon="5.50492">
        <ele>356</ele>
        <time>2019-03-09T16:24:44.377Z</time>
      </trkpt>
      <trkpt lat="43.4343" lon="5.50496">
        <ele>354</ele>
        <time>2019-03-09T16:24:48.379Z</time>
      </trkpt>
      <trkpt lat="43.43424" lon="5.50503">
        <ele>354</ele>
        <time>2019-03-09T16:24:53.366Z</time>
      </trkpt>
      <trkpt lat="43.4342" lon="5.50507">
        <ele>354</ele>
        <time>2019-03-09T16:24:57.378Z</time>
      </trkpt>
      <trkpt lat="43.43415" lon="5.50513">
        <ele>354</ele>
        <time>2019-03-09T16:25:02.344Z</time>
      </trkpt>
      <trkpt lat="43.43411" lon="5.5052">
        <ele>355</ele>
        <time>2019-03-09T16:25:07.349Z</time>
      </trkpt>
      <trkpt lat="43.43408" lon="5.50527">
        <ele>355</ele>
        <time>2019-03-09T16:25:12.346Z</time>
      </trkpt>
      <trkpt lat="43.43405" lon="5.50533">
        <ele>355</ele>
        <time>2019-03-09T16:25:16.377Z</time>
      </trkpt>
      <trkpt lat="43.43404" lon="5.5054">
        <ele>355</ele>
        <time>2019-03-09T16:25:21.350Z</time>
      </trkpt>
      <trkpt lat="43.43402" lon="5.50546">
        <ele>359</ele>
        <time>2019-03-09T16:25:25.377Z</time>
      </trkpt>
      <trkpt lat="43.434" lon="5.5055">
        <ele>359</ele>
        <time>2019-03-09T16:25:30.348Z</time>
      </trkpt>
      <trkpt lat="43.43398" lon="5.50558">
        <ele>359</ele>
        <time>2019-03-09T16:25:49.339Z</time>
      </trkpt>
      <trkpt lat="43.43397" lon="5.50561">
        <ele>359</ele>
        <time>2019-03-09T16:25:54.335Z</time>
      </trkpt>
      <trkpt lat="43.43394" lon="5.50566">
        <ele>359</ele>
        <time>2019-03-09T16:25:58.370Z</time>
      </trkpt>
      <trkpt lat="43.43392" lon="5.5057">
        <ele>360</ele>
        <time>2019-03-09T16:26:03.386Z</time>
      </trkpt>
      <trkpt lat="43.43387" lon="5.50579">
        <ele>360</ele>
        <time>2019-03-09T16:26:08.348Z</time>
      </trkpt>
      <trkpt lat="43.43384" lon="5.50587">
        <ele>360</ele>
        <time>2019-03-09T16:26:12.377Z</time>
      </trkpt>
      <trkpt lat="43.4338" lon="5.50594">
        <ele>360</ele>
        <time>2019-03-09T16:26:17.350Z</time>
      </trkpt>
      <trkpt lat="43.43378" lon="5.50597">
        <ele>360</ele>
        <time>2019-03-09T16:26:21.368Z</time>
      </trkpt>
      <trkpt lat="43.43376" lon="5.50603">
        <ele>359</ele>
        <time>2019-03-09T16:26:26.346Z</time>
      </trkpt>
      <trkpt lat="43.4337" lon="5.50611">
        <ele>362</ele>
        <time>2019-03-09T16:26:31.347Z</time>
      </trkpt>
      <trkpt lat="43.43364" lon="5.50617">
        <ele>362</ele>
        <time>2019-03-09T16:27:14.375Z</time>
      </trkpt>
      <trkpt lat="43.4337" lon="5.50613">
        <ele>362</ele>
        <time>2019-03-09T16:27:19.369Z</time>
      </trkpt>
      <trkpt lat="43.43375" lon="5.50608">
        <ele>362</ele>
        <time>2019-03-09T16:27:24.351Z</time>
      </trkpt>
      <trkpt lat="43.43378" lon="5.50603">
        <ele>359</ele>
        <time>2019-03-09T16:27:29.345Z</time>
      </trkpt>
      <trkpt lat="43.43382" lon="5.50599">
        <ele>359</ele>
        <time>2019-03-09T16:27:33.367Z</time>
      </trkpt>
      <trkpt lat="43.43388" lon="5.50599">
        <ele>359</ele>
        <time>2019-03-09T16:27:38.345Z</time>
      </trkpt>
      <trkpt lat="43.43392" lon="5.50602">
        <ele>359</ele>
        <time>2019-03-09T16:27:43.350Z</time>
      </trkpt>
      <trkpt lat="43.43397" lon="5.50603">
        <ele>359</ele>
        <time>2019-03-09T16:27:48.350Z</time>
      </trkpt>
      <trkpt lat="43.43399" lon="5.50608">
        <ele>359</ele>
        <time>2019-03-09T16:27:53.357Z</time>
      </trkpt>
      <trkpt lat="43.43398" lon="5.50616">
        <ele>359</ele>
        <time>2019-03-09T16:27:58.340Z</time>
      </trkpt>
      <trkpt lat="43.43399" lon="5.50623">
        <ele>359</ele>
        <time>2019-03-09T16:28:03.340Z</time>
      </trkpt>
      <trkpt lat="43.43399" lon="5.5063">
        <ele>359</ele>
        <time>2019-03-09T16:28:07.347Z</time>
      </trkpt>
      <trkpt lat="43.434" lon="5.50634">
        <ele>359</ele>
        <time>2019-03-09T16:28:11.363Z</time>
      </trkpt>
      <trkpt lat="43.43401" lon="5.50643">
        <ele>359</ele>
        <time>2019-03-09T16:28:16.350Z</time>
      </trkpt>
      <trkpt lat="43.434" lon="5.50654">
        <ele>360</ele>
        <time>2019-03-09T16:28:21.340Z</time>
      </trkpt>
      <trkpt lat="43.43401" lon="5.50661">
        <ele>360</ele>
        <time>2019-03-09T16:28:26.349Z</time>
      </trkpt>
      <trkpt lat="43.43401" lon="5.50668">
        <ele>360</ele>
        <time>2019-03-09T16:28:30.386Z</time>
      </trkpt>
      <trkpt lat="43.43401" lon="5.50676">
        <ele>360</ele>
        <time>2019-03-09T16:28:35.351Z</time>
      </trkpt>
      <trkpt lat="43.43401" lon="5.50682">
        <ele>360</ele>
        <time>2019-03-09T16:28:39.376Z</time>
      </trkpt>
      <trkpt lat="43.43399" lon="5.50691">
        <ele>360</ele>
        <time>2019-03-09T16:28:44.342Z</time>
      </trkpt>
      <trkpt lat="43.43401" lon="5.50697">
        <ele>360</ele>
        <time>2019-03-09T16:28:48.348Z</time>
      </trkpt>
      <trkpt lat="43.43403" lon="5.50703">
        <ele>358</ele>
        <time>2019-03-09T16:28:53.347Z</time>
      </trkpt>
      <trkpt lat="43.43404" lon="5.50711">
        <ele>358</ele>
        <time>2019-03-09T16:28:58.342Z</time>
      </trkpt>
      <trkpt lat="43.43405" lon="5.50718">
        <ele>358</ele>
        <time>2019-03-09T16:29:02.362Z</time>
      </trkpt>
      <trkpt lat="43.43408" lon="5.50724">
        <ele>358</ele>
        <time>2019-03-09T16:29:07.349Z</time>
      </trkpt>
      <trkpt lat="43.43411" lon="5.50728">
        <ele>358</ele>
        <time>2019-03-09T16:29:11.378Z</time>
      </trkpt>
      <trkpt lat="43.43414" lon="5.50735">
        <ele>358</ele>
        <time>2019-03-09T16:29:16.380Z</time>
      </trkpt>
      <trkpt lat="43.43417" lon="5.50742">
        <ele>359</ele>
        <time>2019-03-09T16:29:21.348Z</time>
      </trkpt>
      <trkpt lat="43.4342" lon="5.50749">
        <ele>359</ele>
        <time>2019-03-09T16:29:25.363Z</time>
      </trkpt>
      <trkpt lat="43.43424" lon="5.50755">
        <ele>359</ele>
        <time>2019-03-09T16:29:30.347Z</time>
      </trkpt>
      <trkpt lat="43.43427" lon="5.50757">
        <ele>359</ele>
        <time>2019-03-09T16:29:34.349Z</time>
      </trkpt>
      <trkpt lat="43.4343" lon="5.50762">
        <ele>359</ele>
        <time>2019-03-09T16:29:39.352Z</time>
      </trkpt>
      <trkpt lat="43.43436" lon="5.50766">
        <ele>359</ele>
        <time>2019-03-09T16:29:44.351Z</time>
      </trkpt>
      <trkpt lat="43.43439" lon="5.50767">
        <ele>359</ele>
        <time>2019-03-09T16:29:49.349Z</time>
      </trkpt>
      <trkpt lat="43.43444" lon="5.50765">
        <ele>359</ele>
        <time>2019-03-09T16:29:54.339Z</time>
      </trkpt>
      <trkpt lat="43.43448" lon="5.50764">
        <ele>359</ele>
        <time>2019-03-09T16:29:58.373Z</time>
      </trkpt>
      <trkpt lat="43.43455" lon="5.50763">
        <ele>359</ele>
        <time>2019-03-09T16:30:03.354Z</time>
      </trkpt>
      <trkpt lat="43.43461" lon="5.50763">
        <ele>360</ele>
        <time>2019-03-09T16:30:08.346Z</time>
      </trkpt>
      <trkpt lat="43.43467" lon="5.50762">
        <ele>360</ele>
        <time>2019-03-09T16:30:13.344Z</time>
      </trkpt>
      <trkpt lat="43.43471" lon="5.50759">
        <ele>360</ele>
        <time>2019-03-09T16:30:17.351Z</time>
      </trkpt>
      <trkpt lat="43.43475" lon="5.50756">
        <ele>360</ele>
        <time>2019-03-09T16:30:21.350Z</time>
      </trkpt>
      <trkpt lat="43.4348" lon="5.50754">
        <ele>360</ele>
        <time>2019-03-09T16:30:26.349Z</time>
      </trkpt>
      <trkpt lat="43.43484" lon="5.50753">
        <ele>360</ele>
        <time>2019-03-09T16:30:30.360Z</time>
      </trkpt>
      <trkpt lat="43.43488" lon="5.50747">
        <ele>360</ele>
        <time>2019-03-09T16:30:35.351Z</time>
      </trkpt>
      <trkpt lat="43.43491" lon="5.50743">
        <ele>360</ele>
        <time>2019-03-09T16:30:39.355Z</time>
      </trkpt>
      <trkpt lat="43.43498" lon="5.50741">
        <ele>360</ele>
        <time>2019-03-09T16:30:44.350Z</time>
      </trkpt>
      <trkpt lat="43.43504" lon="5.50741">
        <ele>360</ele>
        <time>2019-03-09T16:30:49.348Z</time>
      </trkpt>
      <trkpt lat="43.4351" lon="5.5074">
        <ele>360</ele>
        <time>2019-03-09T16:30:54.338Z</time>
      </trkpt>
      <trkpt lat="43.43514" lon="5.50736">
        <ele>360</ele>
        <time>2019-03-09T16:30:58.380Z</time>
      </trkpt>
      <trkpt lat="43.43519" lon="5.50732">
        <ele>359</ele>
        <time>2019-03-09T16:31:03.379Z</time>
      </trkpt>
      <trkpt lat="43.43525" lon="5.50732">
        <ele>359</ele>
        <time>2019-03-09T16:31:08.355Z</time>
      </trkpt>
      <trkpt lat="43.43531" lon="5.50734">
        <ele>359</ele>
        <time>2019-03-09T16:31:13.347Z</time>
      </trkpt>
      <trkpt lat="43.43536" lon="5.50738">
        <ele>358</ele>
        <time>2019-03-09T16:31:17.351Z</time>
      </trkpt>
      <trkpt lat="43.43541" lon="5.50741">
        <ele>358</ele>
        <time>2019-03-09T16:31:21.385Z</time>
      </trkpt>
      <trkpt lat="43.43548" lon="5.50744">
        <ele>354</ele>
        <time>2019-03-09T16:31:26.347Z</time>
      </trkpt>
      <trkpt lat="43.43553" lon="5.50746">
        <ele>354</ele>
        <time>2019-03-09T16:31:30.375Z</time>
      </trkpt>
      <trkpt lat="43.43558" lon="5.50748">
        <ele>354</ele>
        <time>2019-03-09T16:31:35.336Z</time>
      </trkpt>
      <trkpt lat="43.43562" lon="5.50749">
        <ele>354</ele>
        <time>2019-03-09T16:31:39.357Z</time>
      </trkpt>
      <trkpt lat="43.43568" lon="5.5075">
        <ele>354</ele>
        <time>2019-03-09T16:31:44.344Z</time>
      </trkpt>
      <trkpt lat="43.43573" lon="5.50751">
        <ele>352</ele>
        <time>2019-03-09T16:31:48.346Z</time>
      </trkpt>
      <trkpt lat="43.4358" lon="5.50753">
        <ele>352</ele>
        <time>2019-03-09T16:31:53.347Z</time>
      </trkpt>
      <trkpt lat="43.43583" lon="5.50754">
        <ele>352</ele>
        <time>2019-03-09T16:31:57.354Z</time>
      </trkpt>
      <trkpt lat="43.4359" lon="5.50754">
        <ele>352</ele>
        <time>2019-03-09T16:32:01.377Z</time>
      </trkpt>
      <trkpt lat="43.43596" lon="5.50752">
        <ele>352</ele>
        <time>2019-03-09T16:32:06.345Z</time>
      </trkpt>
      <trkpt lat="43.43602" lon="5.50753">
        <ele>350</ele>
        <time>2019-03-09T16:32:10.352Z</time>
      </trkpt>
      <trkpt lat="43.43607" lon="5.50754">
        <ele>350</ele>
        <time>2019-03-09T16:32:15.336Z</time>
      </trkpt>
      <trkpt lat="43.43613" lon="5.50754">
        <ele>350</ele>
        <time>2019-03-09T16:32:19.346Z</time>
      </trkpt>
      <trkpt lat="43.43618" lon="5.50752">
        <ele>350</ele>
        <time>2019-03-09T16:32:24.356Z</time>
      </trkpt>
      <trkpt lat="43.43621" lon="5.5075">
        <ele>350</ele>
        <time>2019-03-09T16:32:28.377Z</time>
      </trkpt>
      <trkpt lat="43.43625" lon="5.5075">
        <ele>351</ele>
        <time>2019-03-09T16:32:33.336Z</time>
      </trkpt>
      <trkpt lat="43.4363" lon="5.50749">
        <ele>351</ele>
        <time>2019-03-09T16:32:37.354Z</time>
      </trkpt>
      <trkpt lat="43.43637" lon="5.5075">
        <ele>351</ele>
        <time>2019-03-09T16:32:42.338Z</time>
      </trkpt>
      <trkpt lat="43.43644" lon="5.50748">
        <ele>351</ele>
        <time>2019-03-09T16:32:46.347Z</time>
      </trkpt>
      <trkpt lat="43.43648" lon="5.5075">
        <ele>351</ele>
        <time>2019-03-09T16:32:50.380Z</time>
      </trkpt>
      <trkpt lat="43.43655" lon="5.50752">
        <ele>351</ele>
        <time>2019-03-09T16:32:55.351Z</time>
      </trkpt>
      <trkpt lat="43.4366" lon="5.50755">
        <ele>351</ele>
        <time>2019-03-09T16:33:00.337Z</time>
      </trkpt>
      <trkpt lat="43.43665" lon="5.50755">
        <ele>351</ele>
        <time>2019-03-09T16:33:04.380Z</time>
      </trkpt>
      <trkpt lat="43.43671" lon="5.50754">
        <ele>351</ele>
        <time>2019-03-09T16:33:09.358Z</time>
      </trkpt>
      <trkpt lat="43.43678" lon="5.50752">
        <ele>351</ele>
        <time>2019-03-09T16:33:14.355Z</time>
      </trkpt>
      <trkpt lat="43.43683" lon="5.50752">
        <ele>348</ele>
        <time>2019-03-09T16:33:19.343Z</time>
      </trkpt>
      <trkpt lat="43.43687" lon="5.50751">
        <ele>348</ele>
        <time>2019-03-09T16:33:23.375Z</time>
      </trkpt>
      <trkpt lat="43.43694" lon="5.50748">
        <ele>348</ele>
        <time>2019-03-09T16:33:28.349Z</time>
      </trkpt>
      <trkpt lat="43.437" lon="5.50746">
        <ele>348</ele>
        <time>2019-03-09T16:33:32.352Z</time>
      </trkpt>
      <trkpt lat="43.43706" lon="5.50743">
        <ele>348</ele>
        <time>2019-03-09T16:33:37.348Z</time>
      </trkpt>
      <trkpt lat="43.43711" lon="5.50742">
        <ele>345</ele>
        <time>2019-03-09T16:33:42.340Z</time>
      </trkpt>
      <trkpt lat="43.43713" lon="5.50743">
        <ele>345</ele>
        <time>2019-03-09T16:33:46.346Z</time>
      </trkpt>
      <trkpt lat="43.43717" lon="5.50742">
        <ele>345</ele>
        <time>2019-03-09T16:33:50.352Z</time>
      </trkpt>
      <trkpt lat="43.43722" lon="5.50741">
        <ele>345</ele>
        <time>2019-03-09T16:33:54.357Z</time>
      </trkpt>
      <trkpt lat="43.43727" lon="5.50739">
        <ele>345</ele>
        <time>2019-03-09T16:33:58.374Z</time>
      </trkpt>
      <trkpt lat="43.43732" lon="5.50734">
        <ele>346</ele>
        <time>2019-03-09T16:34:03.350Z</time>
      </trkpt>
      <trkpt lat="43.43736" lon="5.50731">
        <ele>341</ele>
        <time>2019-03-09T16:34:07.357Z</time>
      </trkpt>
      <trkpt lat="43.43742" lon="5.50731">
        <ele>341</ele>
        <time>2019-03-09T16:34:12.339Z</time>
      </trkpt>
      <trkpt lat="43.43745" lon="5.50731">
        <ele>341</ele>
        <time>2019-03-09T16:34:16.350Z</time>
      </trkpt>
      <trkpt lat="43.43748" lon="5.50732">
        <ele>341</ele>
        <time>2019-03-09T16:34:20.377Z</time>
      </trkpt>
      <trkpt lat="43.43753" lon="5.50734">
        <ele>341</ele>
        <time>2019-03-09T16:34:25.335Z</time>
      </trkpt>
      <trkpt lat="43.43756" lon="5.50735">
        <ele>341</ele>
        <time>2019-03-09T16:34:29.379Z</time>
      </trkpt>
      <trkpt lat="43.43763" lon="5.50736">
        <ele>341</ele>
        <time>2019-03-09T16:34:34.359Z</time>
      </trkpt>
      <trkpt lat="43.43769" lon="5.50737">
        <ele>334</ele>
        <time>2019-03-09T16:34:39.346Z</time>
      </trkpt>
      <trkpt lat="43.43778" lon="5.50736">
        <ele>337</ele>
        <time>2019-03-09T16:34:44.371Z</time>
      </trkpt>
      <trkpt lat="43.43785" lon="5.50734">
        <ele>337</ele>
        <time>2019-03-09T16:34:49.384Z</time>
      </trkpt>
      <trkpt lat="43.43788" lon="5.50733">
        <ele>337</ele>
        <time>2019-03-09T16:34:54.354Z</time>
      </trkpt>
      <trkpt lat="43.43794" lon="5.50733">
        <ele>335</ele>
        <time>2019-03-09T16:34:58.378Z</time>
      </trkpt>
      <trkpt lat="43.438" lon="5.50733">
        <ele>335</ele>
        <time>2019-03-09T16:35:03.376Z</time>
      </trkpt>
      <trkpt lat="43.43806" lon="5.50731">
        <ele>335</ele>
        <time>2019-03-09T16:35:08.356Z</time>
      </trkpt>
      <trkpt lat="43.43811" lon="5.50729">
        <ele>335</ele>
        <time>2019-03-09T16:35:13.386Z</time>
      </trkpt>
      <trkpt lat="43.43818" lon="5.5073">
        <ele>335</ele>
        <time>2019-03-09T16:35:18.345Z</time>
      </trkpt>
      <trkpt lat="43.43824" lon="5.50729">
        <ele>335</ele>
        <time>2019-03-09T16:35:23.366Z</time>
      </trkpt>
      <trkpt lat="43.43828" lon="5.50728">
        <ele>335</ele>
        <time>2019-03-09T16:35:28.339Z</time>
      </trkpt>
      <trkpt lat="43.43831" lon="5.50727">
        <ele>335</ele>
        <time>2019-03-09T16:35:32.378Z</time>
      </trkpt>
      <trkpt lat="43.43837" lon="5.50727">
        <ele>335</ele>
        <time>2019-03-09T16:35:37.351Z</time>
      </trkpt>
      <trkpt lat="43.43842" lon="5.50729">
        <ele>335</ele>
        <time>2019-03-09T16:35:41.349Z</time>
      </trkpt>
      <trkpt lat="43.43846" lon="5.5073">
        <ele>335</ele>
        <time>2019-03-09T16:35:45.366Z</time>
      </trkpt>
      <trkpt lat="43.43853" lon="5.50731">
        <ele>334</ele>
        <time>2019-03-09T16:35:50.346Z</time>
      </trkpt>
      <trkpt lat="43.43858" lon="5.50731">
        <ele>334</ele>
        <time>2019-03-09T16:35:54.348Z</time>
      </trkpt>
      <trkpt lat="43.43863" lon="5.50734">
        <ele>334</ele>
        <time>2019-03-09T16:35:59.342Z</time>
      </trkpt>
      <trkpt lat="43.43867" lon="5.50737">
        <ele>332</ele>
        <time>2019-03-09T16:36:03.375Z</time>
      </trkpt>
      <trkpt lat="43.43872" lon="5.50738">
        <ele>332</ele>
        <time>2019-03-09T16:36:07.378Z</time>
      </trkpt>
      <trkpt lat="43.43878" lon="5.50735">
        <ele>330</ele>
        <time>2019-03-09T16:36:12.378Z</time>
      </trkpt>
      <trkpt lat="43.43882" lon="5.5073">
        <ele>330</ele>
        <time>2019-03-09T16:36:17.335Z</time>
      </trkpt>
      <trkpt lat="43.43886" lon="5.50724">
        <ele>330</ele>
        <time>2019-03-09T16:36:21.354Z</time>
      </trkpt>
      <trkpt lat="43.43889" lon="5.5072">
        <ele>330</ele>
        <time>2019-03-09T16:36:26.348Z</time>
      </trkpt>
      <trkpt lat="43.43893" lon="5.50719">
        <ele>330</ele>
        <time>2019-03-09T16:36:31.348Z</time>
      </trkpt>
      <trkpt lat="43.43897" lon="5.50722">
        <ele>330</ele>
        <time>2019-03-09T16:36:35.380Z</time>
      </trkpt>
      <trkpt lat="43.43903" lon="5.50719">
        <ele>327</ele>
        <time>2019-03-09T16:36:40.346Z</time>
      </trkpt>
      <trkpt lat="43.43904" lon="5.50718">
        <ele>327</ele>
        <time>2019-03-09T16:36:49.374Z</time>
      </trkpt>
      <trkpt lat="43.43906" lon="5.50718">
        <ele>327</ele>
        <time>2019-03-09T16:36:54.398Z</time>
      </trkpt>
      <trkpt lat="43.43909" lon="5.50719">
        <ele>327</ele>
        <time>2019-03-09T16:37:28.348Z</time>
      </trkpt>
      <trkpt lat="43.43914" lon="5.50719">
        <ele>327</ele>
        <time>2019-03-09T16:37:33.373Z</time>
      </trkpt>
      <trkpt lat="43.4392" lon="5.50715">
        <ele>327</ele>
        <time>2019-03-09T16:37:38.385Z</time>
      </trkpt>
      <trkpt lat="43.43926" lon="5.5071">
        <ele>327</ele>
        <time>2019-03-09T16:37:43.376Z</time>
      </trkpt>
      <trkpt lat="43.4393" lon="5.50706">
        <ele>327</ele>
        <time>2019-03-09T16:37:48.379Z</time>
      </trkpt>
      <trkpt lat="43.43935" lon="5.50704">
        <ele>325</ele>
        <time>2019-03-09T16:37:53.375Z</time>
      </trkpt>
      <trkpt lat="43.43939" lon="5.50705">
        <ele>325</ele>
        <time>2019-03-09T16:37:58.375Z</time>
      </trkpt>
      <trkpt lat="43.43944" lon="5.50708">
        <ele>325</ele>
        <time>2019-03-09T16:38:03.356Z</time>
      </trkpt>
      <trkpt lat="43.43949" lon="5.50708">
        <ele>325</ele>
        <time>2019-03-09T16:38:08.347Z</time>
      </trkpt>
      <trkpt lat="43.43953" lon="5.50706">
        <ele>325</ele>
        <time>2019-03-09T16:38:12.382Z</time>
      </trkpt>
      <trkpt lat="43.43957" lon="5.50705">
        <ele>325</ele>
        <time>2019-03-09T16:38:17.346Z</time>
      </trkpt>
      <trkpt lat="43.43958" lon="5.50707">
        <ele>324</ele>
        <time>2019-03-09T16:38:21.358Z</time>
      </trkpt>
      <trkpt lat="43.43959" lon="5.50707">
        <ele>324</ele>
        <time>2019-03-09T16:38:25.391Z</time>
      </trkpt>
      <trkpt lat="43.43962" lon="5.50703">
        <ele>324</ele>
        <time>2019-03-09T16:38:30.336Z</time>
      </trkpt>
      <trkpt lat="43.43967" lon="5.507">
        <ele>324</ele>
        <time>2019-03-09T16:38:55.345Z</time>
      </trkpt>
      <trkpt lat="43.43968" lon="5.50699">
        <ele>324</ele>
        <time>2019-03-09T16:38:59.364Z</time>
      </trkpt>
      <trkpt lat="43.43975" lon="5.50699">
        <ele>324</ele>
        <time>2019-03-09T16:39:04.358Z</time>
      </trkpt>
      <trkpt lat="43.4398" lon="5.507">
        <ele>324</ele>
        <time>2019-03-09T16:39:09.356Z</time>
      </trkpt>
      <trkpt lat="43.43981" lon="5.507">
        <ele>324</ele>
        <time>2019-03-09T16:39:14.349Z</time>
      </trkpt>
      <trkpt lat="43.43985" lon="5.50702">
        <ele>324</ele>
        <time>2019-03-09T16:39:28.379Z</time>
      </trkpt>
      <trkpt lat="43.43991" lon="5.50703">
        <ele>319</ele>
        <time>2019-03-09T16:39:33.380Z</time>
      </trkpt>
      <trkpt lat="43.43992" lon="5.50704">
        <ele>319</ele>
        <time>2019-03-09T16:39:38.347Z</time>
      </trkpt>
      <trkpt lat="43.43998" lon="5.50714">
        <ele>319</ele>
        <time>2019-03-09T16:40:06.345Z</time>
      </trkpt>
      <trkpt lat="43.44" lon="5.50717">
        <ele>319</ele>
        <time>2019-03-09T16:40:10.354Z</time>
      </trkpt>
      <trkpt lat="43.44002" lon="5.50722">
        <ele>319</ele>
        <time>2019-03-09T16:40:28.376Z</time>
      </trkpt>
      <trkpt lat="43.44003" lon="5.50729">
        <ele>319</ele>
        <time>2019-03-09T16:40:43.343Z</time>
      </trkpt>
      <trkpt lat="43.44005" lon="5.50735">
        <ele>319</ele>
        <time>2019-03-09T16:40:48.379Z</time>
      </trkpt>
      <trkpt lat="43.44005" lon="5.50738">
        <ele>313</ele>
        <time>2019-03-09T16:40:53.375Z</time>
      </trkpt>
      <trkpt lat="43.44008" lon="5.50747">
        <ele>313</ele>
        <time>2019-03-09T16:40:58.348Z</time>
      </trkpt>
      <trkpt lat="43.4401" lon="5.50751">
        <ele>313</ele>
        <time>2019-03-09T16:41:02.374Z</time>
      </trkpt>
      <trkpt lat="43.44017" lon="5.50755">
        <ele>309</ele>
        <time>2019-03-09T16:41:07.361Z</time>
      </trkpt>
      <trkpt lat="43.44023" lon="5.50752">
        <ele>309</ele>
        <time>2019-03-09T16:41:12.379Z</time>
      </trkpt>
      <trkpt lat="43.44029" lon="5.5075">
        <ele>309</ele>
        <time>2019-03-09T16:41:17.365Z</time>
      </trkpt>
      <trkpt lat="43.44033" lon="5.50747">
        <ele>309</ele>
        <time>2019-03-09T16:41:22.350Z</time>
      </trkpt>
      <trkpt lat="43.44039" lon="5.50745">
        <ele>309</ele>
        <time>2019-03-09T16:41:27.335Z</time>
      </trkpt>
      <trkpt lat="43.44046" lon="5.50745">
        <ele>306</ele>
        <time>2019-03-09T16:41:31.343Z</time>
      </trkpt>
      <trkpt lat="43.44053" lon="5.50744">
        <ele>306</ele>
        <time>2019-03-09T16:41:35.355Z</time>
      </trkpt>
      <trkpt lat="43.44059" lon="5.50742">
        <ele>306</ele>
        <time>2019-03-09T16:41:40.346Z</time>
      </trkpt>
      <trkpt lat="43.44063" lon="5.50741">
        <ele>306</ele>
        <time>2019-03-09T16:41:44.373Z</time>
      </trkpt>
      <trkpt lat="43.44069" lon="5.50738">
        <ele>306</ele>
        <time>2019-03-09T16:41:49.348Z</time>
      </trkpt>
      <trkpt lat="43.44073" lon="5.50735">
        <ele>304</ele>
        <time>2019-03-09T16:41:53.353Z</time>
      </trkpt>
      <trkpt lat="43.44077" lon="5.5073">
        <ele>304</ele>
        <time>2019-03-09T16:41:58.349Z</time>
      </trkpt>
      <trkpt lat="43.44081" lon="5.50726">
        <ele>304</ele>
        <time>2019-03-09T16:42:02.352Z</time>
      </trkpt>
      <trkpt lat="43.44084" lon="5.50719">
        <ele>304</ele>
        <time>2019-03-09T16:42:07.374Z</time>
      </trkpt>
      <trkpt lat="43.44089" lon="5.50713">
        <ele>304</ele>
        <time>2019-03-09T16:42:12.378Z</time>
      </trkpt>
      <trkpt lat="43.44092" lon="5.50707">
        <ele>305</ele>
        <time>2019-03-09T16:42:17.346Z</time>
      </trkpt>
      <trkpt lat="43.44094" lon="5.50702">
        <ele>305</ele>
        <time>2019-03-09T16:42:21.371Z</time>
      </trkpt>
      <trkpt lat="43.44098" lon="5.50696">
        <ele>302</ele>
        <time>2019-03-09T16:42:26.355Z</time>
      </trkpt>
      <trkpt lat="43.44104" lon="5.50692">
        <ele>302</ele>
        <time>2019-03-09T16:42:31.357Z</time>
      </trkpt>
      <trkpt lat="43.44109" lon="5.50688">
        <ele>302</ele>
        <time>2019-03-09T16:42:36.367Z</time>
      </trkpt>
      <trkpt lat="43.44114" lon="5.50685">
        <ele>302</ele>
        <time>2019-03-09T16:42:41.347Z</time>
      </trkpt>
      <trkpt lat="43.44116" lon="5.50681">
        <ele>302</ele>
        <time>2019-03-09T16:42:45.362Z</time>
      </trkpt>
      <trkpt lat="43.4412" lon="5.50675">
        <ele>301</ele>
        <time>2019-03-09T16:42:50.370Z</time>
      </trkpt>
      <trkpt lat="43.44124" lon="5.50669">
        <ele>301</ele>
        <time>2019-03-09T16:42:55.386Z</time>
      </trkpt>
      <trkpt lat="43.44127" lon="5.50663">
        <ele>297</ele>
        <time>2019-03-09T16:43:00.376Z</time>
      </trkpt>
      <trkpt lat="43.4413" lon="5.50659">
        <ele>297</ele>
        <time>2019-03-09T16:43:05.388Z</time>
      </trkpt>
      <trkpt lat="43.44132" lon="5.50656">
        <ele>297</ele>
        <time>2019-03-09T16:43:10.347Z</time>
      </trkpt>
      <trkpt lat="43.44135" lon="5.50653">
        <ele>297</ele>
        <time>2019-03-09T16:43:14.381Z</time>
      </trkpt>
      <trkpt lat="43.44138" lon="5.50648">
        <ele>298</ele>
        <time>2019-03-09T16:43:19.365Z</time>
      </trkpt>
      <trkpt lat="43.44144" lon="5.50645">
        <ele>298</ele>
        <time>2019-03-09T16:43:24.356Z</time>
      </trkpt>
      <trkpt lat="43.44149" lon="5.50644">
        <ele>298</ele>
        <time>2019-03-09T16:43:28.385Z</time>
      </trkpt>
      <trkpt lat="43.44153" lon="5.50645">
        <ele>298</ele>
        <time>2019-03-09T16:43:33.376Z</time>
      </trkpt>
      <trkpt lat="43.44154" lon="5.50645">
        <ele>296</ele>
        <time>2019-03-09T16:43:38.347Z</time>
      </trkpt>
      <trkpt lat="43.44155" lon="5.50645">
        <ele>296</ele>
        <time>2019-03-09T16:43:42.375Z</time>
      </trkpt>
      <trkpt lat="43.44159" lon="5.50644">
        <ele>296</ele>
        <time>2019-03-09T16:43:47.359Z</time>
      </trkpt>
      <trkpt lat="43.44165" lon="5.50643">
        <ele>296</ele>
        <time>2019-03-09T16:43:52.351Z</time>
      </trkpt>
      <trkpt lat="43.4417" lon="5.5064">
        <ele>296</ele>
        <time>2019-03-09T16:43:57.343Z</time>
      </trkpt>
      <trkpt lat="43.44174" lon="5.50637">
        <ele>296</ele>
        <time>2019-03-09T16:44:01.376Z</time>
      </trkpt>
      <trkpt lat="43.44181" lon="5.50636">
        <ele>296</ele>
        <time>2019-03-09T16:44:06.352Z</time>
      </trkpt>
      <trkpt lat="43.44185" lon="5.50634">
        <ele>296</ele>
        <time>2019-03-09T16:44:11.358Z</time>
      </trkpt>
      <trkpt lat="43.44191" lon="5.5063">
        <ele>296</ele>
        <time>2019-03-09T16:44:16.352Z</time>
      </trkpt>
      <trkpt lat="43.44196" lon="5.50629">
        <ele>296</ele>
        <time>2019-03-09T16:44:20.361Z</time>
      </trkpt>
      <trkpt lat="43.44202" lon="5.50628">
        <ele>296</ele>
        <time>2019-03-09T16:44:24.377Z</time>
      </trkpt>
      <trkpt lat="43.44206" lon="5.50626">
        <ele>296</ele>
        <time>2019-03-09T16:44:29.357Z</time>
      </trkpt>
      <trkpt lat="43.44212" lon="5.50619">
        <ele>295</ele>
        <time>2019-03-09T16:44:38.346Z</time>
      </trkpt>
      <trkpt lat="43.4422" lon="5.50608">
        <ele>295</ele>
        <time>2019-03-09T16:44:42.379Z</time>
      </trkpt>
      <trkpt lat="43.44227" lon="5.50601">
        <ele>295</ele>
        <time>2019-03-09T16:44:47.375Z</time>
      </trkpt>
      <trkpt lat="43.44232" lon="5.50595">
        <ele>295</ele>
        <time>2019-03-09T16:44:52.345Z</time>
      </trkpt>
      <trkpt lat="43.44236" lon="5.50589">
        <ele>296</ele>
        <time>2019-03-09T16:44:57.358Z</time>
      </trkpt>
      <trkpt lat="43.44239" lon="5.50586">
        <ele>296</ele>
        <time>2019-03-09T16:45:01.374Z</time>
      </trkpt>
      <trkpt lat="43.44241" lon="5.50581">
        <ele>296</ele>
        <time>2019-03-09T16:45:05.378Z</time>
      </trkpt>
      <trkpt lat="43.44244" lon="5.50576">
        <ele>296</ele>
        <time>2019-03-09T16:45:10.374Z</time>
      </trkpt>
      <trkpt lat="43.44248" lon="5.5057">
        <ele>296</ele>
        <time>2019-03-09T16:45:15.350Z</time>
      </trkpt>
      <trkpt lat="43.44251" lon="5.50566">
        <ele>295</ele>
        <time>2019-03-09T16:45:20.381Z</time>
      </trkpt>
      <trkpt lat="43.44256" lon="5.5056">
        <ele>295</ele>
        <time>2019-03-09T16:45:25.358Z</time>
      </trkpt>
      <trkpt lat="43.4426" lon="5.50554">
        <ele>295</ele>
        <time>2019-03-09T16:45:29.357Z</time>
      </trkpt>
      <trkpt lat="43.44265" lon="5.5055">
        <ele>297</ele>
        <time>2019-03-09T16:45:34.357Z</time>
      </trkpt>
      <trkpt lat="43.44269" lon="5.50545">
        <ele>297</ele>
        <time>2019-03-09T16:45:39.374Z</time>
      </trkpt>
      <trkpt lat="43.44273" lon="5.50541">
        <ele>295</ele>
        <time>2019-03-09T16:45:43.393Z</time>
      </trkpt>
      <trkpt lat="43.44277" lon="5.50536">
        <ele>295</ele>
        <time>2019-03-09T16:45:48.361Z</time>
      </trkpt>
      <trkpt lat="43.44279" lon="5.50532">
        <ele>295</ele>
        <time>2019-03-09T16:45:53.357Z</time>
      </trkpt>
      <trkpt lat="43.44281" lon="5.50527">
        <ele>295</ele>
        <time>2019-03-09T16:45:57.375Z</time>
      </trkpt>
      <trkpt lat="43.44286" lon="5.50519">
        <ele>295</ele>
        <time>2019-03-09T16:46:02.345Z</time>
      </trkpt>
      <trkpt lat="43.44289" lon="5.50514">
        <ele>295</ele>
        <time>2019-03-09T16:46:06.355Z</time>
      </trkpt>
      <trkpt lat="43.4429" lon="5.50512">
        <ele>296</ele>
        <time>2019-03-09T16:46:10.381Z</time>
      </trkpt>
      <trkpt lat="43.44294" lon="5.50506">
        <ele>298</ele>
        <time>2019-03-09T16:46:15.373Z</time>
      </trkpt>
      <trkpt lat="43.44298" lon="5.505">
        <ele>298</ele>
        <time>2019-03-09T16:46:20.373Z</time>
      </trkpt>
      <trkpt lat="43.44302" lon="5.50494">
        <ele>298</ele>
        <time>2019-03-09T16:46:25.364Z</time>
      </trkpt>
      <trkpt lat="43.44306" lon="5.50489">
        <ele>298</ele>
        <time>2019-03-09T16:46:30.382Z</time>
      </trkpt>
      <trkpt lat="43.44311" lon="5.50483">
        <ele>296</ele>
        <time>2019-03-09T16:46:35.353Z</time>
      </trkpt>
      <trkpt lat="43.44314" lon="5.50477">
        <ele>296</ele>
        <time>2019-03-09T16:46:40.355Z</time>
      </trkpt>
      <trkpt lat="43.44317" lon="5.5047">
        <ele>296</ele>
        <time>2019-03-09T16:46:45.353Z</time>
      </trkpt>
      <trkpt lat="43.4432" lon="5.50468">
        <ele>298</ele>
        <time>2019-03-09T16:46:50.356Z</time>
      </trkpt>
      <trkpt lat="43.44324" lon="5.50463">
        <ele>298</ele>
        <time>2019-03-09T16:46:54.377Z</time>
      </trkpt>
      <trkpt lat="43.44329" lon="5.50458">
        <ele>295</ele>
        <time>2019-03-09T16:46:59.351Z</time>
      </trkpt>
      <trkpt lat="43.44331" lon="5.50456">
        <ele>295</ele>
        <time>2019-03-09T16:47:04.345Z</time>
      </trkpt>
      <trkpt lat="43.44337" lon="5.50447">
        <ele>295</ele>
        <time>2019-03-09T16:47:09.350Z</time>
      </trkpt>
      <trkpt lat="43.44345" lon="5.50436">
        <ele>295</ele>
        <time>2019-03-09T16:47:14.359Z</time>
      </trkpt>
      <trkpt lat="43.44349" lon="5.5043">
        <ele>293</ele>
        <time>2019-03-09T16:47:19.345Z</time>
      </trkpt>
      <trkpt lat="43.44352" lon="5.50423">
        <ele>293</ele>
        <time>2019-03-09T16:47:23.375Z</time>
      </trkpt>
      <trkpt lat="43.44356" lon="5.50418">
        <ele>293</ele>
        <time>2019-03-09T16:47:28.355Z</time>
      </trkpt>
      <trkpt lat="43.44359" lon="5.50412">
        <ele>293</ele>
        <time>2019-03-09T16:47:33.346Z</time>
      </trkpt>
      <trkpt lat="43.44361" lon="5.50409">
        <ele>293</ele>
        <time>2019-03-09T16:47:38.376Z</time>
      </trkpt>
      <trkpt lat="43.44363" lon="5.50404">
        <ele>293</ele>
        <time>2019-03-09T16:47:43.388Z</time>
      </trkpt>
      <trkpt lat="43.44365" lon="5.50395">
        <ele>290</ele>
        <time>2019-03-09T16:47:48.356Z</time>
      </trkpt>
      <trkpt lat="43.44366" lon="5.50394">
        <ele>290</ele>
        <time>2019-03-09T16:47:53.352Z</time>
      </trkpt>
      <trkpt lat="43.44369" lon="5.50385">
        <ele>290</ele>
        <time>2019-03-09T16:47:58.359Z</time>
      </trkpt>
      <trkpt lat="43.44374" lon="5.50379">
        <ele>290</ele>
        <time>2019-03-09T16:48:03.377Z</time>
      </trkpt>
      <trkpt lat="43.44379" lon="5.50373">
        <ele>290</ele>
        <time>2019-03-09T16:48:08.345Z</time>
      </trkpt>
      <trkpt lat="43.44382" lon="5.50368">
        <ele>290</ele>
        <time>2019-03-09T16:48:12.361Z</time>
      </trkpt>
      <trkpt lat="43.44387" lon="5.50361">
        <ele>290</ele>
        <time>2019-03-09T16:48:17.373Z</time>
      </trkpt>
      <trkpt lat="43.44391" lon="5.50358">
        <ele>290</ele>
        <time>2019-03-09T16:48:22.335Z</time>
      </trkpt>
      <trkpt lat="43.44394" lon="5.50357">
        <ele>290</ele>
        <time>2019-03-09T16:48:26.370Z</time>
      </trkpt>
      <trkpt lat="43.444" lon="5.50355">
        <ele>290</ele>
        <time>2019-03-09T16:48:31.375Z</time>
      </trkpt>
      <trkpt lat="43.44403" lon="5.50354">
        <ele>289</ele>
        <time>2019-03-09T16:48:36.383Z</time>
      </trkpt>
      <trkpt lat="43.44407" lon="5.50353">
        <ele>289</ele>
        <time>2019-03-09T16:48:41.354Z</time>
      </trkpt>
      <trkpt lat="43.4441" lon="5.50352">
        <ele>289</ele>
        <time>2019-03-09T16:48:45.375Z</time>
      </trkpt>
      <trkpt lat="43.44414" lon="5.50351">
        <ele>289</ele>
        <time>2019-03-09T16:48:50.346Z</time>
      </trkpt>
      <trkpt lat="43.44421" lon="5.50351">
        <ele>289</ele>
        <time>2019-03-09T16:48:55.347Z</time>
      </trkpt>
      <trkpt lat="43.44427" lon="5.50353">
        <ele>289</ele>
        <time>2019-03-09T16:49:00.351Z</time>
      </trkpt>
      <trkpt lat="43.44431" lon="5.50355">
        <ele>290</ele>
        <time>2019-03-09T16:49:05.352Z</time>
      </trkpt>
      <trkpt lat="43.44435" lon="5.50356">
        <ele>290</ele>
        <time>2019-03-09T16:49:10.372Z</time>
      </trkpt>
      <trkpt lat="43.4444" lon="5.50357">
        <ele>290</ele>
        <time>2019-03-09T16:49:15.380Z</time>
      </trkpt>
      <trkpt lat="43.44446" lon="5.50358">
        <ele>290</ele>
        <time>2019-03-09T16:49:20.363Z</time>
      </trkpt>
      <trkpt lat="43.44452" lon="5.50357">
        <ele>290</ele>
        <time>2019-03-09T16:49:25.345Z</time>
      </trkpt>
      <trkpt lat="43.4446" lon="5.50356">
        <ele>291</ele>
        <time>2019-03-09T16:49:29.378Z</time>
      </trkpt>
      <trkpt lat="43.44466" lon="5.50356">
        <ele>291</ele>
        <time>2019-03-09T16:49:34.352Z</time>
      </trkpt>
      <trkpt lat="43.44475" lon="5.50354">
        <ele>291</ele>
        <time>2019-03-09T16:49:39.347Z</time>
      </trkpt>
      <trkpt lat="43.44482" lon="5.50351">
        <ele>291</ele>
        <time>2019-03-09T16:49:44.355Z</time>
      </trkpt>
      <trkpt lat="43.44488" lon="5.50348">
        <ele>290</ele>
        <time>2019-03-09T16:49:49.352Z</time>
      </trkpt>
      <trkpt lat="43.44493" lon="5.50346">
        <ele>286</ele>
        <time>2019-03-09T16:49:53.375Z</time>
      </trkpt>
      <trkpt lat="43.44499" lon="5.50342">
        <ele>286</ele>
        <time>2019-03-09T16:49:58.375Z</time>
      </trkpt>
      <trkpt lat="43.44503" lon="5.5034">
        <ele>286</ele>
        <time>2019-03-09T16:50:03.345Z</time>
      </trkpt>
      <trkpt lat="43.44505" lon="5.50341">
        <ele>286</ele>
        <time>2019-03-09T16:50:08.350Z</time>
      </trkpt>
      <trkpt lat="43.4451" lon="5.50335">
        <ele>286</ele>
        <time>2019-03-09T16:50:13.343Z</time>
      </trkpt>
      <trkpt lat="43.44513" lon="5.50331">
        <ele>286</ele>
        <time>2019-03-09T16:50:18.355Z</time>
      </trkpt>
      <trkpt lat="43.44516" lon="5.50323">
        <ele>288</ele>
        <time>2019-03-09T16:50:28.354Z</time>
      </trkpt>
      <trkpt lat="43.4452" lon="5.50321">
        <ele>288</ele>
        <time>2019-03-09T16:50:32.375Z</time>
      </trkpt>
      <trkpt lat="43.44524" lon="5.50319">
        <ele>284</ele>
        <time>2019-03-09T16:50:37.336Z</time>
      </trkpt>
      <trkpt lat="43.44525" lon="5.50317">
        <ele>284</ele>
        <time>2019-03-09T16:50:41.352Z</time>
      </trkpt>
      <trkpt lat="43.44527" lon="5.50316">
        <ele>284</ele>
        <time>2019-03-09T16:50:45.376Z</time>
      </trkpt>
      <trkpt lat="43.44534" lon="5.50313">
        <ele>284</ele>
        <time>2019-03-09T16:50:50.346Z</time>
      </trkpt>
      <trkpt lat="43.44541" lon="5.50309">
        <ele>284</ele>
        <time>2019-03-09T16:50:55.357Z</time>
      </trkpt>
      <trkpt lat="43.44544" lon="5.50308">
        <ele>285</ele>
        <time>2019-03-09T16:51:00.338Z</time>
      </trkpt>
      <trkpt lat="43.44549" lon="5.50305">
        <ele>285</ele>
        <time>2019-03-09T16:51:04.358Z</time>
      </trkpt>
      <trkpt lat="43.44554" lon="5.503">
        <ele>285</ele>
        <time>2019-03-09T16:51:09.354Z</time>
      </trkpt>
      <trkpt lat="43.44558" lon="5.50295">
        <ele>285</ele>
        <time>2019-03-09T16:51:14.345Z</time>
      </trkpt>
      <trkpt lat="43.44561" lon="5.50294">
        <ele>285</ele>
        <time>2019-03-09T16:51:18.362Z</time>
      </trkpt>
      <trkpt lat="43.44566" lon="5.50292">
        <ele>285</ele>
        <time>2019-03-09T16:51:23.343Z</time>
      </trkpt>
      <trkpt lat="43.44573" lon="5.50288">
        <ele>281</ele>
        <time>2019-03-09T16:51:28.345Z</time>
      </trkpt>
      <trkpt lat="43.44577" lon="5.50285">
        <ele>281</ele>
        <time>2019-03-09T16:51:32.355Z</time>
      </trkpt>
      <trkpt lat="43.44584" lon="5.50283">
        <ele>281</ele>
        <time>2019-03-09T16:51:36.357Z</time>
      </trkpt>
      <trkpt lat="43.44587" lon="5.5028">
        <ele>281</ele>
        <time>2019-03-09T16:51:41.345Z</time>
      </trkpt>
      <trkpt lat="43.44592" lon="5.50279">
        <ele>281</ele>
        <time>2019-03-09T16:51:45.375Z</time>
      </trkpt>
      <trkpt lat="43.44596" lon="5.50276">
        <ele>281</ele>
        <time>2019-03-09T16:51:50.383Z</time>
      </trkpt>
      <trkpt lat="43.44602" lon="5.50272">
        <ele>284</ele>
        <time>2019-03-09T16:51:55.353Z</time>
      </trkpt>
      <trkpt lat="43.44607" lon="5.50268">
        <ele>284</ele>
        <time>2019-03-09T16:52:00.366Z</time>
      </trkpt>
      <trkpt lat="43.44613" lon="5.50264">
        <ele>281</ele>
        <time>2019-03-09T16:52:05.380Z</time>
      </trkpt>
      <trkpt lat="43.4462" lon="5.50258">
        <ele>281</ele>
        <time>2019-03-09T16:52:10.347Z</time>
      </trkpt>
      <trkpt lat="43.44626" lon="5.50252">
        <ele>280</ele>
        <time>2019-03-09T16:52:15.346Z</time>
      </trkpt>
      <trkpt lat="43.44632" lon="5.50249">
        <ele>280</ele>
        <time>2019-03-09T16:52:19.353Z</time>
      </trkpt>
      <trkpt lat="43.44636" lon="5.50245">
        <ele>280</ele>
        <time>2019-03-09T16:52:23.376Z</time>
      </trkpt>
      <trkpt lat="43.44639" lon="5.50237">
        <ele>280</ele>
        <time>2019-03-09T16:52:28.374Z</time>
      </trkpt>
      <trkpt lat="43.44642" lon="5.50231">
        <ele>277</ele>
        <time>2019-03-09T16:52:33.375Z</time>
      </trkpt>
      <trkpt lat="43.4465" lon="5.50226">
        <ele>277</ele>
        <time>2019-03-09T16:52:38.346Z</time>
      </trkpt>
      <trkpt lat="43.44656" lon="5.50224">
        <ele>276</ele>
        <time>2019-03-09T16:52:43.354Z</time>
      </trkpt>
      <trkpt lat="43.4466" lon="5.50224">
        <ele>276</ele>
        <time>2019-03-09T16:52:47.381Z</time>
      </trkpt>
      <trkpt lat="43.44666" lon="5.5022">
        <ele>276</ele>
        <time>2019-03-09T16:52:52.373Z</time>
      </trkpt>
      <trkpt lat="43.4467" lon="5.50216">
        <ele>276</ele>
        <time>2019-03-09T16:52:57.364Z</time>
      </trkpt>
      <trkpt lat="43.44673" lon="5.50213">
        <ele>276</ele>
        <time>2019-03-09T16:53:01.383Z</time>
      </trkpt>
      <trkpt lat="43.44679" lon="5.5021">
        <ele>276</ele>
        <time>2019-03-09T16:53:06.372Z</time>
      </trkpt>
      <trkpt lat="43.44684" lon="5.50208">
        <ele>276</ele>
        <time>2019-03-09T16:53:11.357Z</time>
      </trkpt>
      <trkpt lat="43.44689" lon="5.50207">
        <ele>276</ele>
        <time>2019-03-09T16:53:16.397Z</time>
      </trkpt>
      <trkpt lat="43.44694" lon="5.50206">
        <ele>276</ele>
        <time>2019-03-09T16:53:21.376Z</time>
      </trkpt>
      <trkpt lat="43.447" lon="5.50203">
        <ele>276</ele>
        <time>2019-03-09T16:53:26.345Z</time>
      </trkpt>
      <trkpt lat="43.44703" lon="5.50202">
        <ele>276</ele>
        <time>2019-03-09T16:53:30.362Z</time>
      </trkpt>
      <trkpt lat="43.44708" lon="5.502">
        <ele>276</ele>
        <time>2019-03-09T16:53:35.354Z</time>
      </trkpt>
      <trkpt lat="43.44715" lon="5.50199">
        <ele>277</ele>
        <time>2019-03-09T16:53:40.375Z</time>
      </trkpt>
      <trkpt lat="43.4472" lon="5.50199">
        <ele>277</ele>
        <time>2019-03-09T16:53:44.385Z</time>
      </trkpt>
      <trkpt lat="43.44726" lon="5.50201">
        <ele>277</ele>
        <time>2019-03-09T16:53:49.344Z</time>
      </trkpt>
      <trkpt lat="43.44733" lon="5.50204">
        <ele>277</ele>
        <time>2019-03-09T16:53:53.352Z</time>
      </trkpt>
      <trkpt lat="43.44738" lon="5.50206">
        <ele>273</ele>
        <time>2019-03-09T16:53:57.376Z</time>
      </trkpt>
      <trkpt lat="43.44745" lon="5.5021">
        <ele>277</ele>
        <time>2019-03-09T16:54:07.351Z</time>
      </trkpt>
      <trkpt lat="43.44745" lon="5.5021">
        <ele>277</ele>
        <time>2019-03-09T16:54:11.383Z</time>
      </trkpt>
      <trkpt lat="43.44747" lon="5.50213">
        <ele>277</ele>
        <time>2019-03-09T16:54:16.345Z</time>
      </trkpt>
      <trkpt lat="43.44748" lon="5.50215">
        <ele>277</ele>
        <time>2019-03-09T16:54:20.358Z</time>
      </trkpt>
      <trkpt lat="43.44751" lon="5.50221">
        <ele>277</ele>
        <time>2019-03-09T16:54:25.379Z</time>
      </trkpt>
      <trkpt lat="43.44754" lon="5.50225">
        <ele>277</ele>
        <time>2019-03-09T16:54:30.342Z</time>
      </trkpt>
      <trkpt lat="43.44759" lon="5.50231">
        <ele>277</ele>
        <time>2019-03-09T16:54:35.350Z</time>
      </trkpt>
      <trkpt lat="43.44764" lon="5.50236">
        <ele>277</ele>
        <time>2019-03-09T16:54:39.352Z</time>
      </trkpt>
      <trkpt lat="43.44767" lon="5.5024">
        <ele>278</ele>
        <time>2019-03-09T16:54:43.376Z</time>
      </trkpt>
      <trkpt lat="43.44771" lon="5.50245">
        <ele>278</ele>
        <time>2019-03-09T16:54:48.346Z</time>
      </trkpt>
      <trkpt lat="43.44776" lon="5.50244">
        <ele>278</ele>
        <time>2019-03-09T16:54:52.374Z</time>
      </trkpt>
      <trkpt lat="43.44782" lon="5.50238">
        <ele>278</ele>
        <time>2019-03-09T16:54:57.351Z</time>
      </trkpt>
      <trkpt lat="43.4479" lon="5.50227">
        <ele>277</ele>
        <time>2019-03-09T16:55:02.352Z</time>
      </trkpt>
      <trkpt lat="43.44796" lon="5.50219">
        <ele>281</ele>
        <time>2019-03-09T16:55:07.358Z</time>
      </trkpt>
      <trkpt lat="43.44799" lon="5.50211">
        <ele>281</ele>
        <time>2019-03-09T16:55:12.361Z</time>
      </trkpt>
      <trkpt lat="43.44801" lon="5.50203">
        <ele>280</ele>
        <time>2019-03-09T16:55:17.375Z</time>
      </trkpt>
      <trkpt lat="43.44802" lon="5.50197">
        <ele>280</ele>
        <time>2019-03-09T16:55:22.375Z</time>
      </trkpt>
      <trkpt lat="43.44804" lon="5.5019">
        <ele>280</ele>
        <time>2019-03-09T16:55:27.376Z</time>
      </trkpt>
      <trkpt lat="43.44805" lon="5.50182">
        <ele>280</ele>
        <time>2019-03-09T16:55:32.373Z</time>
      </trkpt>
      <trkpt lat="43.44806" lon="5.50174">
        <ele>277</ele>
        <time>2019-03-09T16:55:37.355Z</time>
      </trkpt>
      <trkpt lat="43.44805" lon="5.50167">
        <ele>277</ele>
        <time>2019-03-09T16:55:42.356Z</time>
      </trkpt>
      <trkpt lat="43.44806" lon="5.50161">
        <ele>277</ele>
        <time>2019-03-09T16:55:47.345Z</time>
      </trkpt>
      <trkpt lat="43.44808" lon="5.50153">
        <ele>277</ele>
        <time>2019-03-09T16:55:52.344Z</time>
      </trkpt>
      <trkpt lat="43.44809" lon="5.50145">
        <ele>273</ele>
        <time>2019-03-09T16:55:57.356Z</time>
      </trkpt>
      <trkpt lat="43.4481" lon="5.50137">
        <ele>273</ele>
        <time>2019-03-09T16:56:02.343Z</time>
      </trkpt>
      <trkpt lat="43.44813" lon="5.50132">
        <ele>273</ele>
        <time>2019-03-09T16:56:07.374Z</time>
      </trkpt>
      <trkpt lat="43.44818" lon="5.50128">
        <ele>273</ele>
        <time>2019-03-09T16:56:12.343Z</time>
      </trkpt>
      <trkpt lat="43.44822" lon="5.50123">
        <ele>276</ele>
        <time>2019-03-09T16:56:17.346Z</time>
      </trkpt>
      <trkpt lat="43.44825" lon="5.50116">
        <ele>276</ele>
        <time>2019-03-09T16:56:22.347Z</time>
      </trkpt>
      <trkpt lat="43.44827" lon="5.5011">
        <ele>276</ele>
        <time>2019-03-09T16:56:26.350Z</time>
      </trkpt>
      <trkpt lat="43.44829" lon="5.50103">
        <ele>276</ele>
        <time>2019-03-09T16:56:30.358Z</time>
      </trkpt>
      <trkpt lat="43.44835" lon="5.50097">
        <ele>276</ele>
        <time>2019-03-09T16:56:35.347Z</time>
      </trkpt>
      <trkpt lat="43.44837" lon="5.50092">
        <ele>272</ele>
        <time>2019-03-09T16:56:39.352Z</time>
      </trkpt>
      <trkpt lat="43.44841" lon="5.50086">
        <ele>272</ele>
        <time>2019-03-09T16:56:43.376Z</time>
      </trkpt>
      <trkpt lat="43.44845" lon="5.5008">
        <ele>272</ele>
        <time>2019-03-09T16:56:48.348Z</time>
      </trkpt>
      <trkpt lat="43.44845" lon="5.50074">
        <ele>272</ele>
        <time>2019-03-09T16:56:52.376Z</time>
      </trkpt>
      <trkpt lat="43.44845" lon="5.50065">
        <ele>270</ele>
        <time>2019-03-09T16:56:57.352Z</time>
      </trkpt>
      <trkpt lat="43.44847" lon="5.50057">
        <ele>270</ele>
        <time>2019-03-09T16:57:02.380Z</time>
      </trkpt>
      <trkpt lat="43.44849" lon="5.50049">
        <ele>271</ele>
        <time>2019-03-09T16:57:07.346Z</time>
      </trkpt>
      <trkpt lat="43.44851" lon="5.50044">
        <ele>271</ele>
        <time>2019-03-09T16:57:11.351Z</time>
      </trkpt>
      <trkpt lat="43.44852" lon="5.50039">
        <ele>269</ele>
        <time>2019-03-09T16:57:15.356Z</time>
      </trkpt>
      <trkpt lat="43.44852" lon="5.50037">
        <ele>269</ele>
        <time>2019-03-09T16:57:20.347Z</time>
      </trkpt>
      <trkpt lat="43.4485" lon="5.50034">
        <ele>269</ele>
        <time>2019-03-09T16:57:24.367Z</time>
      </trkpt>
      <trkpt lat="43.44846" lon="5.5003">
        <ele>269</ele>
        <time>2019-03-09T16:57:29.336Z</time>
      </trkpt>
      <trkpt lat="43.44846" lon="5.50028">
        <ele>269</ele>
        <time>2019-03-09T16:57:52.346Z</time>
      </trkpt>
      <trkpt lat="43.44844" lon="5.50021">
        <ele>269</ele>
        <time>2019-03-09T16:57:57.350Z</time>
      </trkpt>
      <trkpt lat="43.44842" lon="5.50014">
        <ele>269</ele>
        <time>2019-03-09T16:58:02.341Z</time>
      </trkpt>
      <trkpt lat="43.4484" lon="5.50007">
        <ele>269</ele>
        <time>2019-03-09T16:58:07.351Z</time>
      </trkpt>
      <trkpt lat="43.44839" lon="5.50002">
        <ele>269</ele>
        <time>2019-03-09T16:58:12.347Z</time>
      </trkpt>
      <trkpt lat="43.44838" lon="5.49997">
        <ele>269</ele>
        <time>2019-03-09T16:58:17.346Z</time>
      </trkpt>
      <trkpt lat="43.44839" lon="5.49991">
        <ele>269</ele>
        <time>2019-03-09T16:58:21.381Z</time>
      </trkpt>
      <trkpt lat="43.4484" lon="5.49986">
        <ele>268</ele>
        <time>2019-03-09T16:58:26.352Z</time>
      </trkpt>
      <trkpt lat="43.44839" lon="5.49979">
        <ele>268</ele>
        <time>2019-03-09T16:58:31.377Z</time>
      </trkpt>
      <trkpt lat="43.4484" lon="5.49973">
        <ele>268</ele>
        <time>2019-03-09T16:58:36.391Z</time>
      </trkpt>
      <trkpt lat="43.4484" lon="5.49969">
        <ele>268</ele>
        <time>2019-03-09T16:58:41.376Z</time>
      </trkpt>
      <trkpt lat="43.4484" lon="5.49961">
        <ele>268</ele>
        <time>2019-03-09T16:58:46.376Z</time>
      </trkpt>
      <trkpt lat="43.44841" lon="5.49953">
        <ele>269</ele>
        <time>2019-03-09T16:58:51.344Z</time>
      </trkpt>
      <trkpt lat="43.4484" lon="5.49947">
        <ele>269</ele>
        <time>2019-03-09T16:58:55.390Z</time>
      </trkpt>
      <trkpt lat="43.4484" lon="5.49939">
        <ele>269</ele>
        <time>2019-03-09T16:59:00.347Z</time>
      </trkpt>
      <trkpt lat="43.44839" lon="5.49932">
        <ele>269</ele>
        <time>2019-03-09T16:59:04.359Z</time>
      </trkpt>
      <trkpt lat="43.44839" lon="5.49923">
        <ele>272</ele>
        <time>2019-03-09T16:59:09.356Z</time>
      </trkpt>
      <trkpt lat="43.4484" lon="5.49915">
        <ele>272</ele>
        <time>2019-03-09T16:59:14.346Z</time>
      </trkpt>
      <trkpt lat="43.4484" lon="5.4991">
        <ele>272</ele>
        <time>2019-03-09T16:59:18.377Z</time>
      </trkpt>
      <trkpt lat="43.44841" lon="5.49906">
        <ele>272</ele>
        <time>2019-03-09T16:59:23.376Z</time>
      </trkpt>
      <trkpt lat="43.44842" lon="5.49902">
        <ele>277</ele>
        <time>2019-03-09T16:59:28.385Z</time>
      </trkpt>
      <trkpt lat="43.44843" lon="5.49894">
        <ele>277</ele>
        <time>2019-03-09T16:59:33.376Z</time>
      </trkpt>
      <trkpt lat="43.44846" lon="5.49886">
        <ele>277</ele>
        <time>2019-03-09T16:59:38.349Z</time>
      </trkpt>
      <trkpt lat="43.44848" lon="5.49879">
        <ele>269</ele>
        <time>2019-03-09T16:59:43.358Z</time>
      </trkpt>
      <trkpt lat="43.44851" lon="5.4987">
        <ele>273</ele>
        <time>2019-03-09T16:59:48.374Z</time>
      </trkpt>
      <trkpt lat="43.44853" lon="5.49864">
        <ele>273</ele>
        <time>2019-03-09T16:59:53.377Z</time>
      </trkpt>
      <trkpt lat="43.44855" lon="5.49858">
        <ele>273</ele>
        <time>2019-03-09T16:59:58.385Z</time>
      </trkpt>
      <trkpt lat="43.44858" lon="5.49852">
        <ele>273</ele>
        <time>2019-03-09T17:00:03.365Z</time>
      </trkpt>
      <trkpt lat="43.44861" lon="5.49847">
        <ele>278</ele>
        <time>2019-03-09T17:00:08.375Z</time>
      </trkpt>
      <trkpt lat="43.44864" lon="5.4984">
        <ele>278</ele>
        <time>2019-03-09T17:00:13.376Z</time>
      </trkpt>
      <trkpt lat="43.44867" lon="5.49836">
        <ele>278</ele>
        <time>2019-03-09T17:00:18.376Z</time>
      </trkpt>
      <trkpt lat="43.44871" lon="5.49831">
        <ele>278</ele>
        <time>2019-03-09T17:00:23.365Z</time>
      </trkpt>
      <trkpt lat="43.44875" lon="5.49824">
        <ele>278</ele>
        <time>2019-03-09T17:00:28.359Z</time>
      </trkpt>
      <trkpt lat="43.44879" lon="5.49818">
        <ele>277</ele>
        <time>2019-03-09T17:00:33.344Z</time>
      </trkpt>
      <trkpt lat="43.44881" lon="5.49813">
        <ele>277</ele>
        <time>2019-03-09T17:00:37.359Z</time>
      </trkpt>
      <trkpt lat="43.44884" lon="5.49804">
        <ele>277</ele>
        <time>2019-03-09T17:00:42.382Z</time>
      </trkpt>
      <trkpt lat="43.44888" lon="5.49797">
        <ele>277</ele>
        <time>2019-03-09T17:00:47.356Z</time>
      </trkpt>
      <trkpt lat="43.44891" lon="5.49789">
        <ele>277</ele>
        <time>2019-03-09T17:00:52.357Z</time>
      </trkpt>
      <trkpt lat="43.44895" lon="5.49781">
        <ele>277</ele>
        <time>2019-03-09T17:00:57.345Z</time>
      </trkpt>
      <trkpt lat="43.44896" lon="5.49777">
        <ele>277</ele>
        <time>2019-03-09T17:01:01.381Z</time>
      </trkpt>
      <trkpt lat="43.44898" lon="5.49771">
        <ele>277</ele>
        <time>2019-03-09T17:01:06.343Z</time>
      </trkpt>
      <trkpt lat="43.44899" lon="5.49768">
        <ele>277</ele>
        <time>2019-03-09T17:01:10.352Z</time>
      </trkpt>
      <trkpt lat="43.44899" lon="5.49767">
        <ele>277</ele>
        <time>2019-03-09T17:01:14.379Z</time>
      </trkpt>
      <trkpt lat="43.44901" lon="5.49763">
        <ele>276</ele>
        <time>2019-03-09T17:01:19.354Z</time>
      </trkpt>
      <trkpt lat="43.44904" lon="5.49759">
        <ele>266</ele>
        <time>2019-03-09T17:01:29.357Z</time>
      </trkpt>
      <trkpt lat="43.44913" lon="5.49745">
        <ele>266</ele>
        <time>2019-03-09T17:01:34.389Z</time>
      </trkpt>
      <trkpt lat="43.44918" lon="5.49735">
        <ele>269</ele>
        <time>2019-03-09T17:01:39.345Z</time>
      </trkpt>
      <trkpt lat="43.44923" lon="5.49728">
        <ele>269</ele>
        <time>2019-03-09T17:01:44.345Z</time>
      </trkpt>
      <trkpt lat="43.44928" lon="5.49722">
        <ele>269</ele>
        <time>2019-03-09T17:01:49.340Z</time>
      </trkpt>
      <trkpt lat="43.44931" lon="5.49718">
        <ele>265</ele>
        <time>2019-03-09T17:01:53.346Z</time>
      </trkpt>
      <trkpt lat="43.44931" lon="5.49716">
        <ele>265</ele>
        <time>2019-03-09T17:01:57.366Z</time>
      </trkpt>
      <trkpt lat="43.44935" lon="5.49708">
        <ele>266</ele>
        <time>2019-03-09T17:02:02.374Z</time>
      </trkpt>
      <trkpt lat="43.44938" lon="5.49702">
        <ele>266</ele>
        <time>2019-03-09T17:02:07.346Z</time>
      </trkpt>
      <trkpt lat="43.44943" lon="5.49694">
        <ele>266</ele>
        <time>2019-03-09T17:02:12.346Z</time>
      </trkpt>
      <trkpt lat="43.44943" lon="5.49693">
        <ele>266</ele>
        <time>2019-03-09T17:02:16.352Z</time>
      </trkpt>
      <trkpt lat="43.4495" lon="5.49681">
        <ele>266</ele>
        <time>2019-03-09T17:02:31.374Z</time>
      </trkpt>
      <trkpt lat="43.44957" lon="5.4967">
        <ele>267</ele>
        <time>2019-03-09T17:02:36.375Z</time>
      </trkpt>
      <trkpt lat="43.44959" lon="5.49664">
        <ele>261</ele>
        <time>2019-03-09T17:02:41.375Z</time>
      </trkpt>
      <trkpt lat="43.44965" lon="5.4965">
        <ele>267</ele>
        <time>2019-03-09T17:02:46.350Z</time>
      </trkpt>
      <trkpt lat="43.44969" lon="5.49644">
        <ele>267</ele>
        <time>2019-03-09T17:02:50.359Z</time>
      </trkpt>
      <trkpt lat="43.44976" lon="5.49631">
        <ele>267</ele>
        <time>2019-03-09T17:03:00.345Z</time>
      </trkpt>
      <trkpt lat="43.44981" lon="5.49627">
        <ele>267</ele>
        <time>2019-03-09T17:03:05.374Z</time>
      </trkpt>
      <trkpt lat="43.44986" lon="5.4962">
        <ele>276</ele>
        <time>2019-03-09T17:03:10.379Z</time>
      </trkpt>
      <trkpt lat="43.44991" lon="5.49611">
        <ele>271</ele>
        <time>2019-03-09T17:03:15.344Z</time>
      </trkpt>
      <trkpt lat="43.44995" lon="5.49604">
        <ele>271</ele>
        <time>2019-03-09T17:03:20.357Z</time>
      </trkpt>
      <trkpt lat="43.44999" lon="5.49597">
        <ele>278</ele>
        <time>2019-03-09T17:03:25.348Z</time>
      </trkpt>
      <trkpt lat="43.45" lon="5.49594">
        <ele>278</ele>
        <time>2019-03-09T17:03:30.334Z</time>
      </trkpt>
      <trkpt lat="43.45002" lon="5.49591">
        <ele>278</ele>
        <time>2019-03-09T17:03:34.354Z</time>
      </trkpt>
      <trkpt lat="43.45008" lon="5.49582">
        <ele>278</ele>
        <time>2019-03-09T17:03:38.379Z</time>
      </trkpt>
      <trkpt lat="43.45013" lon="5.49573">
        <ele>278</ele>
        <time>2019-03-09T17:03:43.348Z</time>
      </trkpt>
      <trkpt lat="43.45015" lon="5.4957">
        <ele>271</ele>
        <time>2019-03-09T17:03:48.348Z</time>
      </trkpt>
      <trkpt lat="43.45018" lon="5.49564">
        <ele>273</ele>
        <time>2019-03-09T17:03:53.346Z</time>
      </trkpt>
      <trkpt lat="43.45021" lon="5.49555">
        <ele>273</ele>
        <time>2019-03-09T17:03:58.352Z</time>
      </trkpt>
      <trkpt lat="43.45025" lon="5.49546">
        <ele>273</ele>
        <time>2019-03-09T17:04:03.352Z</time>
      </trkpt>
      <trkpt lat="43.4503" lon="5.49538">
        <ele>274</ele>
        <time>2019-03-09T17:04:08.385Z</time>
      </trkpt>
      <trkpt lat="43.45032" lon="5.49532">
        <ele>274</ele>
        <time>2019-03-09T17:04:13.356Z</time>
      </trkpt>
      <trkpt lat="43.45033" lon="5.49529">
        <ele>274</ele>
        <time>2019-03-09T17:04:18.340Z</time>
      </trkpt>
      <trkpt lat="43.45035" lon="5.49522">
        <ele>274</ele>
        <time>2019-03-09T17:04:23.345Z</time>
      </trkpt>
      <trkpt lat="43.45038" lon="5.49515">
        <ele>274</ele>
        <time>2019-03-09T17:04:27.358Z</time>
      </trkpt>
      <trkpt lat="43.4504" lon="5.49506">
        <ele>277</ele>
        <time>2019-03-09T17:04:32.352Z</time>
      </trkpt>
      <trkpt lat="43.45045" lon="5.49497">
        <ele>266</ele>
        <time>2019-03-09T17:04:37.341Z</time>
      </trkpt>
      <trkpt lat="43.45048" lon="5.4949">
        <ele>266</ele>
        <time>2019-03-09T17:04:41.348Z</time>
      </trkpt>
      <trkpt lat="43.45052" lon="5.49481">
        <ele>268</ele>
        <time>2019-03-09T17:04:46.346Z</time>
      </trkpt>
      <trkpt lat="43.45055" lon="5.49472">
        <ele>268</ele>
        <time>2019-03-09T17:04:51.351Z</time>
      </trkpt>
      <trkpt lat="43.45057" lon="5.49466">
        <ele>268</ele>
        <time>2019-03-09T17:04:55.361Z</time>
      </trkpt>
      <trkpt lat="43.45058" lon="5.4946">
        <ele>268</ele>
        <time>2019-03-09T17:04:59.377Z</time>
      </trkpt>
      <trkpt lat="43.4506" lon="5.49453">
        <ele>271</ele>
        <time>2019-03-09T17:05:04.347Z</time>
      </trkpt>
      <trkpt lat="43.45062" lon="5.49446">
        <ele>271</ele>
        <time>2019-03-09T17:05:09.355Z</time>
      </trkpt>
      <trkpt lat="43.45063" lon="5.4944">
        <ele>271</ele>
        <time>2019-03-09T17:05:13.383Z</time>
      </trkpt>
      <trkpt lat="43.45063" lon="5.49432">
        <ele>271</ele>
        <time>2019-03-09T17:05:18.346Z</time>
      </trkpt>
      <trkpt lat="43.45062" lon="5.49426">
        <ele>271</ele>
        <time>2019-03-09T17:05:22.378Z</time>
      </trkpt>
      <trkpt lat="43.45064" lon="5.49418">
        <ele>271</ele>
        <time>2019-03-09T17:05:27.346Z</time>
      </trkpt>
      <trkpt lat="43.45064" lon="5.49411">
        <ele>271</ele>
        <time>2019-03-09T17:05:31.356Z</time>
      </trkpt>
      <trkpt lat="43.45062" lon="5.49404">
        <ele>271</ele>
        <time>2019-03-09T17:05:36.345Z</time>
      </trkpt>
      <trkpt lat="43.45063" lon="5.49398">
        <ele>271</ele>
        <time>2019-03-09T17:05:40.365Z</time>
      </trkpt>
      <trkpt lat="43.45065" lon="5.49391">
        <ele>271</ele>
        <time>2019-03-09T17:05:45.333Z</time>
      </trkpt>
      <trkpt lat="43.45066" lon="5.49389">
        <ele>271</ele>
        <time>2019-03-09T17:05:50.341Z</time>
      </trkpt>
      <trkpt lat="43.45066" lon="5.49381">
        <ele>271</ele>
        <time>2019-03-09T17:05:55.346Z</time>
      </trkpt>
      <trkpt lat="43.45065" lon="5.49374">
        <ele>271</ele>
        <time>2019-03-09T17:06:00.335Z</time>
      </trkpt>
      <trkpt lat="43.45065" lon="5.49368">
        <ele>271</ele>
        <time>2019-03-09T17:06:04.368Z</time>
      </trkpt>
      <trkpt lat="43.45064" lon="5.49361">
        <ele>271</ele>
        <time>2019-03-09T17:06:08.377Z</time>
      </trkpt>
      <trkpt lat="43.45064" lon="5.49354">
        <ele>271</ele>
        <time>2019-03-09T17:06:13.339Z</time>
      </trkpt>
      <trkpt lat="43.45064" lon="5.49348">
        <ele>271</ele>
        <time>2019-03-09T17:06:17.351Z</time>
      </trkpt>
      <trkpt lat="43.45063" lon="5.49341">
        <ele>270</ele>
        <time>2019-03-09T17:06:21.373Z</time>
      </trkpt>
      <trkpt lat="43.45061" lon="5.49334">
        <ele>270</ele>
        <time>2019-03-09T17:06:25.376Z</time>
      </trkpt>
      <trkpt lat="43.45062" lon="5.49325">
        <ele>270</ele>
        <time>2019-03-09T17:06:30.350Z</time>
      </trkpt>
      <trkpt lat="43.45061" lon="5.49318">
        <ele>265</ele>
        <time>2019-03-09T17:06:34.386Z</time>
      </trkpt>
      <trkpt lat="43.45059" lon="5.4931">
        <ele>265</ele>
        <time>2019-03-09T17:06:39.357Z</time>
      </trkpt>
      <trkpt lat="43.45058" lon="5.49304">
        <ele>265</ele>
        <time>2019-03-09T17:06:43.373Z</time>
      </trkpt>
      <trkpt lat="43.45056" lon="5.49297">
        <ele>265</ele>
        <time>2019-03-09T17:06:48.353Z</time>
      </trkpt>
      <trkpt lat="43.45055" lon="5.49292">
        <ele>265</ele>
        <time>2019-03-09T17:06:52.374Z</time>
      </trkpt>
      <trkpt lat="43.45055" lon="5.49287">
        <ele>260</ele>
        <time>2019-03-09T17:06:56.387Z</time>
      </trkpt>
      <trkpt lat="43.45055" lon="5.49281">
        <ele>260</ele>
        <time>2019-03-09T17:07:01.377Z</time>
      </trkpt>
      <trkpt lat="43.45054" lon="5.49274">
        <ele>260</ele>
        <time>2019-03-09T17:07:06.343Z</time>
      </trkpt>
      <trkpt lat="43.45053" lon="5.49269">
        <ele>260</ele>
        <time>2019-03-09T17:07:10.351Z</time>
      </trkpt>
      <trkpt lat="43.45051" lon="5.49264">
        <ele>256</ele>
        <time>2019-03-09T17:07:15.375Z</time>
      </trkpt>
      <trkpt lat="43.4505" lon="5.49258">
        <ele>256</ele>
        <time>2019-03-09T17:07:20.346Z</time>
      </trkpt>
      <trkpt lat="43.45048" lon="5.49253">
        <ele>256</ele>
        <time>2019-03-09T17:07:24.348Z</time>
      </trkpt>
      <trkpt lat="43.45046" lon="5.49247">
        <ele>256</ele>
        <time>2019-03-09T17:07:29.343Z</time>
      </trkpt>
      <trkpt lat="43.45044" lon="5.4924">
        <ele>256</ele>
        <time>2019-03-09T17:07:33.359Z</time>
      </trkpt>
      <trkpt lat="43.45044" lon="5.49233">
        <ele>257</ele>
        <time>2019-03-09T17:07:38.360Z</time>
      </trkpt>
      <trkpt lat="43.45044" lon="5.49227">
        <ele>257</ele>
        <time>2019-03-09T17:07:43.371Z</time>
      </trkpt>
      <trkpt lat="43.45044" lon="5.4922">
        <ele>257</ele>
        <time>2019-03-09T17:07:48.348Z</time>
      </trkpt>
      <trkpt lat="43.45045" lon="5.49217">
        <ele>257</ele>
        <time>2019-03-09T17:07:52.380Z</time>
      </trkpt>
      <trkpt lat="43.45047" lon="5.49213">
        <ele>257</ele>
        <time>2019-03-09T17:07:57.352Z</time>
      </trkpt>
      <trkpt lat="43.45048" lon="5.49207">
        <ele>257</ele>
        <time>2019-03-09T17:08:02.376Z</time>
      </trkpt>
      <trkpt lat="43.4505" lon="5.49197">
        <ele>257</ele>
        <time>2019-03-09T17:08:07.357Z</time>
      </trkpt>
      <trkpt lat="43.45053" lon="5.4919">
        <ele>257</ele>
        <time>2019-03-09T17:08:12.358Z</time>
      </trkpt>
      <trkpt lat="43.45054" lon="5.49182">
        <ele>257</ele>
        <time>2019-03-09T17:08:17.346Z</time>
      </trkpt>
      <trkpt lat="43.45057" lon="5.49175">
        <ele>259</ele>
        <time>2019-03-09T17:08:22.347Z</time>
      </trkpt>
      <trkpt lat="43.45058" lon="5.4917">
        <ele>259</ele>
        <time>2019-03-09T17:08:26.380Z</time>
      </trkpt>
      <trkpt lat="43.4506" lon="5.49164">
        <ele>259</ele>
        <time>2019-03-09T17:08:31.357Z</time>
      </trkpt>
      <trkpt lat="43.45063" lon="5.49159">
        <ele>259</ele>
        <time>2019-03-09T17:08:35.365Z</time>
      </trkpt>
      <trkpt lat="43.45065" lon="5.49152">
        <ele>264</ele>
        <time>2019-03-09T17:08:40.340Z</time>
      </trkpt>
      <trkpt lat="43.45065" lon="5.49148">
        <ele>264</ele>
        <time>2019-03-09T17:08:44.349Z</time>
      </trkpt>
      <trkpt lat="43.45066" lon="5.49137">
        <ele>264</ele>
        <time>2019-03-09T17:08:49.348Z</time>
      </trkpt>
      <trkpt lat="43.45069" lon="5.49127">
        <ele>264</ele>
        <time>2019-03-09T17:08:54.348Z</time>
      </trkpt>
      <trkpt lat="43.45075" lon="5.49121">
        <ele>259</ele>
        <time>2019-03-09T17:08:59.345Z</time>
      </trkpt>
      <trkpt lat="43.45082" lon="5.49117">
        <ele>259</ele>
        <time>2019-03-09T17:09:04.344Z</time>
      </trkpt>
      <trkpt lat="43.45084" lon="5.49116">
        <ele>259</ele>
        <time>2019-03-09T17:09:08.372Z</time>
      </trkpt>
      <trkpt lat="43.45087" lon="5.49112">
        <ele>259</ele>
        <time>2019-03-09T17:09:13.349Z</time>
      </trkpt>
      <trkpt lat="43.45089" lon="5.49109">
        <ele>259</ele>
        <time>2019-03-09T17:09:18.346Z</time>
      </trkpt>
      <trkpt lat="43.45092" lon="5.49106">
        <ele>259</ele>
        <time>2019-03-09T17:09:23.346Z</time>
      </trkpt>
      <trkpt lat="43.45093" lon="5.49103">
        <ele>259</ele>
        <time>2019-03-09T17:09:28.347Z</time>
      </trkpt>
      <trkpt lat="43.45098" lon="5.49096">
        <ele>254</ele>
        <time>2019-03-09T17:09:33.354Z</time>
      </trkpt>
      <trkpt lat="43.45103" lon="5.4909">
        <ele>254</ele>
        <time>2019-03-09T17:09:38.351Z</time>
      </trkpt>
      <trkpt lat="43.45107" lon="5.49084">
        <ele>254</ele>
        <time>2019-03-09T17:09:43.343Z</time>
      </trkpt>
      <trkpt lat="43.45111" lon="5.49082">
        <ele>254</ele>
        <time>2019-03-09T17:09:47.378Z</time>
      </trkpt>
      <trkpt lat="43.45116" lon="5.49081">
        <ele>254</ele>
        <time>2019-03-09T17:09:52.350Z</time>
      </trkpt>
      <trkpt lat="43.45119" lon="5.49082">
        <ele>254</ele>
        <time>2019-03-09T17:09:56.375Z</time>
      </trkpt>
      <trkpt lat="43.45124" lon="5.49083">
        <ele>254</ele>
        <time>2019-03-09T17:10:01.374Z</time>
      </trkpt>
      <trkpt lat="43.45129" lon="5.49079">
        <ele>253</ele>
        <time>2019-03-09T17:10:06.383Z</time>
      </trkpt>
      <trkpt lat="43.45134" lon="5.49073">
        <ele>253</ele>
        <time>2019-03-09T17:10:11.355Z</time>
      </trkpt>
      <trkpt lat="43.45136" lon="5.49067">
        <ele>248</ele>
        <time>2019-03-09T17:10:15.358Z</time>
      </trkpt>
      <trkpt lat="43.45138" lon="5.49056">
        <ele>248</ele>
        <time>2019-03-09T17:10:20.351Z</time>
      </trkpt>
      <trkpt lat="43.4514" lon="5.49049">
        <ele>248</ele>
        <time>2019-03-09T17:10:24.379Z</time>
      </trkpt>
      <trkpt lat="43.45142" lon="5.49043">
        <ele>248</ele>
        <time>2019-03-09T17:10:28.390Z</time>
      </trkpt>
      <trkpt lat="43.45143" lon="5.49036">
        <ele>248</ele>
        <time>2019-03-09T17:10:33.347Z</time>
      </trkpt>
      <trkpt lat="43.45143" lon="5.4903">
        <ele>248</ele>
        <time>2019-03-09T17:10:37.379Z</time>
      </trkpt>
      <trkpt lat="43.45142" lon="5.49024">
        <ele>248</ele>
        <time>2019-03-09T17:10:42.372Z</time>
      </trkpt>
      <trkpt lat="43.45141" lon="5.49018">
        <ele>248</ele>
        <time>2019-03-09T17:10:47.345Z</time>
      </trkpt>
      <trkpt lat="43.4514" lon="5.49015">
        <ele>248</ele>
        <time>2019-03-09T17:10:51.376Z</time>
      </trkpt>
      <trkpt lat="43.45141" lon="5.49008">
        <ele>247</ele>
        <time>2019-03-09T17:10:56.349Z</time>
      </trkpt>
      <trkpt lat="43.45141" lon="5.49001">
        <ele>247</ele>
        <time>2019-03-09T17:11:01.345Z</time>
      </trkpt>
      <trkpt lat="43.4514" lon="5.48995">
        <ele>247</ele>
        <time>2019-03-09T17:11:05.373Z</time>
      </trkpt>
      <trkpt lat="43.45139" lon="5.48989">
        <ele>247</ele>
        <time>2019-03-09T17:11:10.343Z</time>
      </trkpt>
      <trkpt lat="43.45139" lon="5.48985">
        <ele>250</ele>
        <time>2019-03-09T17:11:14.376Z</time>
      </trkpt>
      <trkpt lat="43.45138" lon="5.48976">
        <ele>250</ele>
        <time>2019-03-09T17:11:19.371Z</time>
      </trkpt>
      <trkpt lat="43.4514" lon="5.48968">
        <ele>250</ele>
        <time>2019-03-09T17:11:24.375Z</time>
      </trkpt>
      <trkpt lat="43.45143" lon="5.48959">
        <ele>250</ele>
        <time>2019-03-09T17:11:29.375Z</time>
      </trkpt>
      <trkpt lat="43.45145" lon="5.48951">
        <ele>252</ele>
        <time>2019-03-09T17:11:34.349Z</time>
      </trkpt>
      <trkpt lat="43.45146" lon="5.48945">
        <ele>252</ele>
        <time>2019-03-09T17:11:39.345Z</time>
      </trkpt>
      <trkpt lat="43.45148" lon="5.48941">
        <ele>252</ele>
        <time>2019-03-09T17:11:43.376Z</time>
      </trkpt>
      <trkpt lat="43.45149" lon="5.48935">
        <ele>252</ele>
        <time>2019-03-09T17:11:48.343Z</time>
      </trkpt>
      <trkpt lat="43.45149" lon="5.48933">
        <ele>252</ele>
        <time>2019-03-09T17:11:52.361Z</time>
      </trkpt>
      <trkpt lat="43.45151" lon="5.48934">
        <ele>252</ele>
        <time>2019-03-09T17:11:57.344Z</time>
      </trkpt>
      <trkpt lat="43.45151" lon="5.48932">
        <ele>252</ele>
        <time>2019-03-09T17:12:02.374Z</time>
      </trkpt>
      <trkpt lat="43.45153" lon="5.48926">
        <ele>250</ele>
        <time>2019-03-09T17:12:07.346Z</time>
      </trkpt>
      <trkpt lat="43.45157" lon="5.48925">
        <ele>250</ele>
        <time>2019-03-09T17:12:12.353Z</time>
      </trkpt>
      <trkpt lat="43.45161" lon="5.48925">
        <ele>250</ele>
        <time>2019-03-09T17:12:16.385Z</time>
      </trkpt>
      <trkpt lat="43.45163" lon="5.48925">
        <ele>250</ele>
        <time>2019-03-09T17:12:21.348Z</time>
      </trkpt>
      <trkpt lat="43.45168" lon="5.48924">
        <ele>250</ele>
        <time>2019-03-09T17:12:25.375Z</time>
      </trkpt>
      <trkpt lat="43.45175" lon="5.48921">
        <ele>250</ele>
        <time>2019-03-09T17:12:30.345Z</time>
      </trkpt>
      <trkpt lat="43.45181" lon="5.48919">
        <ele>246</ele>
        <time>2019-03-09T17:12:35.378Z</time>
      </trkpt>
      <trkpt lat="43.45187" lon="5.48918">
        <ele>246</ele>
        <time>2019-03-09T17:12:40.375Z</time>
      </trkpt>
      <trkpt lat="43.45195" lon="5.48918">
        <ele>246</ele>
        <time>2019-03-09T17:12:45.352Z</time>
      </trkpt>
      <trkpt lat="43.45202" lon="5.48917">
        <ele>246</ele>
        <time>2019-03-09T17:12:50.348Z</time>
      </trkpt>
      <trkpt lat="43.45206" lon="5.48917">
        <ele>246</ele>
        <time>2019-03-09T17:12:55.344Z</time>
      </trkpt>
      <trkpt lat="43.45209" lon="5.48918">
        <ele>247</ele>
        <time>2019-03-09T17:12:59.346Z</time>
      </trkpt>
      <trkpt lat="43.45213" lon="5.48917">
        <ele>247</ele>
        <time>2019-03-09T17:13:03.376Z</time>
      </trkpt>
      <trkpt lat="43.45216" lon="5.48915">
        <ele>247</ele>
        <time>2019-03-09T17:13:08.354Z</time>
      </trkpt>
      <trkpt lat="43.45221" lon="5.48915">
        <ele>247</ele>
        <time>2019-03-09T17:13:13.373Z</time>
      </trkpt>
      <trkpt lat="43.45222" lon="5.48915">
        <ele>247</ele>
        <time>2019-03-09T17:13:18.360Z</time>
      </trkpt>
      <trkpt lat="43.45228" lon="5.48913">
        <ele>247</ele>
        <time>2019-03-09T17:13:23.348Z</time>
      </trkpt>
      <trkpt lat="43.45234" lon="5.48911">
        <ele>247</ele>
        <time>2019-03-09T17:13:27.363Z</time>
      </trkpt>
      <trkpt lat="43.45245" lon="5.48903">
        <ele>248</ele>
        <time>2019-03-09T17:13:32.351Z</time>
      </trkpt>
      <trkpt lat="43.45252" lon="5.48896">
        <ele>248</ele>
        <time>2019-03-09T17:13:36.374Z</time>
      </trkpt>
      <trkpt lat="43.45255" lon="5.48889">
        <ele>248</ele>
        <time>2019-03-09T17:13:41.384Z</time>
      </trkpt>
      <trkpt lat="43.45259" lon="5.48882">
        <ele>248</ele>
        <time>2019-03-09T17:13:46.347Z</time>
      </trkpt>
      <trkpt lat="43.45264" lon="5.48877">
        <ele>248</ele>
        <time>2019-03-09T17:13:51.350Z</time>
      </trkpt>
      <trkpt lat="43.45267" lon="5.48872">
        <ele>248</ele>
        <time>2019-03-09T17:13:56.345Z</time>
      </trkpt>
      <trkpt lat="43.45267" lon="5.48866">
        <ele>248</ele>
        <time>2019-03-09T17:14:01.348Z</time>
      </trkpt>
      <trkpt lat="43.45268" lon="5.4886">
        <ele>248</ele>
        <time>2019-03-09T17:14:06.344Z</time>
      </trkpt>
      <trkpt lat="43.45268" lon="5.48855">
        <ele>248</ele>
        <time>2019-03-09T17:14:10.356Z</time>
      </trkpt>
      <trkpt lat="43.45269" lon="5.48848">
        <ele>248</ele>
        <time>2019-03-09T17:14:15.354Z</time>
      </trkpt>
      <trkpt lat="43.45271" lon="5.48841">
        <ele>249</ele>
        <time>2019-03-09T17:14:20.341Z</time>
      </trkpt>
      <trkpt lat="43.45272" lon="5.48835">
        <ele>249</ele>
        <time>2019-03-09T17:14:24.359Z</time>
      </trkpt>
      <trkpt lat="43.45272" lon="5.48829">
        <ele>249</ele>
        <time>2019-03-09T17:14:29.355Z</time>
      </trkpt>
      <trkpt lat="43.45273" lon="5.48822">
        <ele>249</ele>
        <time>2019-03-09T17:14:34.384Z</time>
      </trkpt>
      <trkpt lat="43.45274" lon="5.48814">
        <ele>249</ele>
        <time>2019-03-09T17:14:39.346Z</time>
      </trkpt>
      <trkpt lat="43.45276" lon="5.48809">
        <ele>249</ele>
        <time>2019-03-09T17:14:43.346Z</time>
      </trkpt>
      <trkpt lat="43.45278" lon="5.48804">
        <ele>249</ele>
        <time>2019-03-09T17:14:47.368Z</time>
      </trkpt>
      <trkpt lat="43.4528" lon="5.488">
        <ele>249</ele>
        <time>2019-03-09T17:14:52.345Z</time>
      </trkpt>
      <trkpt lat="43.45281" lon="5.488">
        <ele>249</ele>
        <time>2019-03-09T17:15:00.374Z</time>
      </trkpt>
      <trkpt lat="43.45283" lon="5.48797">
        <ele>249</ele>
        <time>2019-03-09T17:15:05.353Z</time>
      </trkpt>
      <trkpt lat="43.45286" lon="5.4879">
        <ele>250</ele>
        <time>2019-03-09T17:15:10.353Z</time>
      </trkpt>
      <trkpt lat="43.4529" lon="5.48782">
        <ele>250</ele>
        <time>2019-03-09T17:15:15.356Z</time>
      </trkpt>
      <trkpt lat="43.45292" lon="5.48773">
        <ele>247</ele>
        <time>2019-03-09T17:15:20.362Z</time>
      </trkpt>
      <trkpt lat="43.45293" lon="5.48765">
        <ele>247</ele>
        <time>2019-03-09T17:15:25.375Z</time>
      </trkpt>
      <trkpt lat="43.45293" lon="5.48757">
        <ele>247</ele>
        <time>2019-03-09T17:15:30.355Z</time>
      </trkpt>
      <trkpt lat="43.45293" lon="5.48756">
        <ele>247</ele>
        <time>2019-03-09T17:15:34.377Z</time>
      </trkpt>
      <trkpt lat="43.45293" lon="5.48745">
        <ele>247</ele>
        <time>2019-03-09T17:15:39.346Z</time>
      </trkpt>
      <trkpt lat="43.45296" lon="5.48739">
        <ele>247</ele>
        <time>2019-03-09T17:15:43.380Z</time>
      </trkpt>
      <trkpt lat="43.45298" lon="5.48737">
        <ele>247</ele>
        <time>2019-03-09T17:15:48.355Z</time>
      </trkpt>
      <trkpt lat="43.45301" lon="5.48732">
        <ele>246</ele>
        <time>2019-03-09T17:15:53.356Z</time>
      </trkpt>
      <trkpt lat="43.45305" lon="5.48732">
        <ele>246</ele>
        <time>2019-03-09T17:15:58.356Z</time>
      </trkpt>
      <trkpt lat="43.45308" lon="5.4873">
        <ele>246</ele>
        <time>2019-03-09T17:16:02.382Z</time>
      </trkpt>
      <trkpt lat="43.45312" lon="5.48726">
        <ele>246</ele>
        <time>2019-03-09T17:16:07.375Z</time>
      </trkpt>
      <trkpt lat="43.45315" lon="5.48719">
        <ele>246</ele>
        <time>2019-03-09T17:16:12.351Z</time>
      </trkpt>
      <trkpt lat="43.4532" lon="5.48711">
        <ele>246</ele>
        <time>2019-03-09T17:16:17.353Z</time>
      </trkpt>
      <trkpt lat="43.45323" lon="5.48707">
        <ele>243</ele>
        <time>2019-03-09T17:16:21.377Z</time>
      </trkpt>
      <trkpt lat="43.45326" lon="5.48703">
        <ele>243</ele>
        <time>2019-03-09T17:16:26.377Z</time>
      </trkpt>
      <trkpt lat="43.45332" lon="5.48701">
        <ele>243</ele>
        <time>2019-03-09T17:16:31.355Z</time>
      </trkpt>
      <trkpt lat="43.45339" lon="5.48697">
        <ele>243</ele>
        <time>2019-03-09T17:16:36.351Z</time>
      </trkpt>
      <trkpt lat="43.45342" lon="5.48692">
        <ele>243</ele>
        <time>2019-03-09T17:16:40.361Z</time>
      </trkpt>
      <trkpt lat="43.45346" lon="5.48685">
        <ele>243</ele>
        <time>2019-03-09T17:16:45.375Z</time>
      </trkpt>
      <trkpt lat="43.4535" lon="5.48679">
        <ele>242</ele>
        <time>2019-03-09T17:16:50.347Z</time>
      </trkpt>
      <trkpt lat="43.45355" lon="5.48675">
        <ele>242</ele>
        <time>2019-03-09T17:16:54.375Z</time>
      </trkpt>
      <trkpt lat="43.45359" lon="5.48669">
        <ele>242</ele>
        <time>2019-03-09T17:16:59.348Z</time>
      </trkpt>
      <trkpt lat="43.45363" lon="5.48664">
        <ele>242</ele>
        <time>2019-03-09T17:17:04.357Z</time>
      </trkpt>
      <trkpt lat="43.45366" lon="5.48657">
        <ele>242</ele>
        <time>2019-03-09T17:17:09.358Z</time>
      </trkpt>
      <trkpt lat="43.45369" lon="5.48651">
        <ele>241</ele>
        <time>2019-03-09T17:17:14.384Z</time>
      </trkpt>
      <trkpt lat="43.45372" lon="5.48644">
        <ele>241</ele>
        <time>2019-03-09T17:17:19.338Z</time>
      </trkpt>
      <trkpt lat="43.45377" lon="5.48639">
        <ele>242</ele>
        <time>2019-03-09T17:17:23.349Z</time>
      </trkpt>
      <trkpt lat="43.45381" lon="5.48631">
        <ele>242</ele>
        <time>2019-03-09T17:17:27.359Z</time>
      </trkpt>
      <trkpt lat="43.45383" lon="5.48624">
        <ele>241</ele>
        <time>2019-03-09T17:17:31.364Z</time>
      </trkpt>
      <trkpt lat="43.45384" lon="5.48616">
        <ele>241</ele>
        <time>2019-03-09T17:17:36.346Z</time>
      </trkpt>
      <trkpt lat="43.45387" lon="5.48607">
        <ele>241</ele>
        <time>2019-03-09T17:17:41.346Z</time>
      </trkpt>
      <trkpt lat="43.45388" lon="5.48603">
        <ele>241</ele>
        <time>2019-03-09T17:17:45.380Z</time>
      </trkpt>
      <trkpt lat="43.45388" lon="5.48597">
        <ele>240</ele>
        <time>2019-03-09T17:17:50.375Z</time>
      </trkpt>
      <trkpt lat="43.45387" lon="5.48589">
        <ele>240</ele>
        <time>2019-03-09T17:17:55.349Z</time>
      </trkpt>
      <trkpt lat="43.45386" lon="5.48581">
        <ele>240</ele>
        <time>2019-03-09T17:17:59.358Z</time>
      </trkpt>
      <trkpt lat="43.45385" lon="5.48573">
        <ele>240</ele>
        <time>2019-03-09T17:18:04.379Z</time>
      </trkpt>
      <trkpt lat="43.45387" lon="5.48567">
        <ele>239</ele>
        <time>2019-03-09T17:18:09.376Z</time>
      </trkpt>
      <trkpt lat="43.45388" lon="5.48562">
        <ele>239</ele>
        <time>2019-03-09T17:18:14.347Z</time>
      </trkpt>
      <trkpt lat="43.45389" lon="5.48555">
        <ele>239</ele>
        <time>2019-03-09T17:18:18.355Z</time>
      </trkpt>
      <trkpt lat="43.4539" lon="5.48548">
        <ele>239</ele>
        <time>2019-03-09T17:18:22.359Z</time>
      </trkpt>
      <trkpt lat="43.45389" lon="5.48539">
        <ele>238</ele>
        <time>2019-03-09T17:18:27.387Z</time>
      </trkpt>
      <trkpt lat="43.4539" lon="5.48532">
        <ele>238</ele>
        <time>2019-03-09T17:18:32.356Z</time>
      </trkpt>
      <trkpt lat="43.45389" lon="5.48525">
        <ele>238</ele>
        <time>2019-03-09T17:18:37.346Z</time>
      </trkpt>
      <trkpt lat="43.45391" lon="5.48521">
        <ele>238</ele>
        <time>2019-03-09T17:18:41.379Z</time>
      </trkpt>
      <trkpt lat="43.45392" lon="5.48513">
        <ele>238</ele>
        <time>2019-03-09T17:18:46.341Z</time>
      </trkpt>
      <trkpt lat="43.45393" lon="5.48509">
        <ele>238</ele>
        <time>2019-03-09T17:18:50.347Z</time>
      </trkpt>
      <trkpt lat="43.45394" lon="5.48503">
        <ele>238</ele>
        <time>2019-03-09T17:18:55.354Z</time>
      </trkpt>
      <trkpt lat="43.45396" lon="5.48493">
        <ele>238</ele>
        <time>2019-03-09T17:18:59.381Z</time>
      </trkpt>
      <trkpt lat="43.45396" lon="5.48485">
        <ele>237</ele>
        <time>2019-03-09T17:19:04.339Z</time>
      </trkpt>
      <trkpt lat="43.45394" lon="5.4848">
        <ele>237</ele>
        <time>2019-03-09T17:19:08.344Z</time>
      </trkpt>
      <trkpt lat="43.45391" lon="5.48475">
        <ele>237</ele>
        <time>2019-03-09T17:19:18.348Z</time>
      </trkpt>
      <trkpt lat="43.45386" lon="5.48464">
        <ele>237</ele>
        <time>2019-03-09T17:19:23.371Z</time>
      </trkpt>
      <trkpt lat="43.45384" lon="5.48457">
        <ele>235</ele>
        <time>2019-03-09T17:19:28.366Z</time>
      </trkpt>
      <trkpt lat="43.45385" lon="5.48452">
        <ele>235</ele>
        <time>2019-03-09T17:19:32.376Z</time>
      </trkpt>
      <trkpt lat="43.45386" lon="5.48448">
        <ele>235</ele>
        <time>2019-03-09T17:19:37.340Z</time>
      </trkpt>
      <trkpt lat="43.45387" lon="5.48443">
        <ele>235</ele>
        <time>2019-03-09T17:19:42.357Z</time>
      </trkpt>
      <trkpt lat="43.45388" lon="5.48439">
        <ele>235</ele>
        <time>2019-03-09T17:19:46.375Z</time>
      </trkpt>
      <trkpt lat="43.45387" lon="5.48434">
        <ele>235</ele>
        <time>2019-03-09T17:19:51.349Z</time>
      </trkpt>
      <trkpt lat="43.45386" lon="5.48428">
        <ele>234</ele>
        <time>2019-03-09T17:19:56.358Z</time>
      </trkpt>
      <trkpt lat="43.45386" lon="5.48425">
        <ele>234</ele>
        <time>2019-03-09T17:20:01.356Z</time>
      </trkpt>
      <trkpt lat="43.45383" lon="5.48415">
        <ele>234</ele>
        <time>2019-03-09T17:20:06.336Z</time>
      </trkpt>
      <trkpt lat="43.45382" lon="5.48414">
        <ele>234</ele>
        <time>2019-03-09T17:20:11.346Z</time>
      </trkpt>
      <trkpt lat="43.45381" lon="5.48413">
        <ele>234</ele>
        <time>2019-03-09T17:20:16.374Z</time>
      </trkpt>
      <trkpt lat="43.45382" lon="5.48405">
        <ele>234</ele>
        <time>2019-03-09T17:20:21.344Z</time>
      </trkpt>
      <trkpt lat="43.45383" lon="5.48401">
        <ele>233</ele>
        <time>2019-03-09T17:20:26.344Z</time>
      </trkpt>
      <trkpt lat="43.45384" lon="5.48397">
        <ele>233</ele>
        <time>2019-03-09T17:20:31.348Z</time>
      </trkpt>
      <trkpt lat="43.45388" lon="5.48393">
        <ele>233</ele>
        <time>2019-03-09T17:20:36.346Z</time>
      </trkpt>
      <trkpt lat="43.4539" lon="5.48388">
        <ele>233</ele>
        <time>2019-03-09T17:20:40.372Z</time>
      </trkpt>
      <trkpt lat="43.4539" lon="5.48386">
        <ele>233</ele>
        <time>2019-03-09T17:20:45.346Z</time>
      </trkpt>
      <trkpt lat="43.45391" lon="5.48385">
        <ele>233</ele>
        <time>2019-03-09T17:20:50.347Z</time>
      </trkpt>
      <trkpt lat="43.45392" lon="5.48376">
        <ele>233</ele>
        <time>2019-03-09T17:20:54.365Z</time>
      </trkpt>
      <trkpt lat="43.45393" lon="5.48364">
        <ele>233</ele>
        <time>2019-03-09T17:20:59.350Z</time>
      </trkpt>
      <trkpt lat="43.45393" lon="5.48361">
        <ele>233</ele>
        <time>2019-03-09T17:21:04.336Z</time>
      </trkpt>
      <trkpt lat="43.45394" lon="5.48361">
        <ele>233</ele>
        <time>2019-03-09T17:21:08.347Z</time>
      </trkpt>
      <trkpt lat="43.45398" lon="5.4836">
        <ele>233</ele>
        <time>2019-03-09T17:21:12.366Z</time>
      </trkpt>
      <trkpt lat="43.45401" lon="5.48359">
        <ele>233</ele>
        <time>2019-03-09T17:21:16.381Z</time>
      </trkpt>
      <trkpt lat="43.45405" lon="5.48357">
        <ele>231</ele>
        <time>2019-03-09T17:21:21.363Z</time>
      </trkpt>
      <trkpt lat="43.45409" lon="5.48351">
        <ele>231</ele>
        <time>2019-03-09T17:21:26.346Z</time>
      </trkpt>
      <trkpt lat="43.45415" lon="5.48353">
        <ele>231</ele>
        <time>2019-03-09T17:21:30.382Z</time>
      </trkpt>
      <trkpt lat="43.45418" lon="5.48355">
        <ele>231</ele>
        <time>2019-03-09T17:21:35.351Z</time>
      </trkpt>
      <trkpt lat="43.45421" lon="5.48357">
        <ele>231</ele>
        <time>2019-03-09T17:21:40.354Z</time>
      </trkpt>
      <trkpt lat="43.45425" lon="5.48356">
        <ele>231</ele>
        <time>2019-03-09T17:21:45.376Z</time>
      </trkpt>
      <trkpt lat="43.45424" lon="5.48349">
        <ele>231</ele>
        <time>2019-03-09T17:21:50.346Z</time>
      </trkpt>
      <trkpt lat="43.45423" lon="5.48343">
        <ele>230</ele>
        <time>2019-03-09T17:21:55.352Z</time>
      </trkpt>
      <trkpt lat="43.45421" lon="5.48338">
        <ele>230</ele>
        <time>2019-03-09T17:22:00.380Z</time>
      </trkpt>
      <trkpt lat="43.45421" lon="5.48333">
        <ele>230</ele>
        <time>2019-03-09T17:22:05.347Z</time>
      </trkpt>
      <trkpt lat="43.45421" lon="5.48324">
        <ele>230</ele>
        <time>2019-03-09T17:22:10.378Z</time>
      </trkpt>
      <trkpt lat="43.45421" lon="5.48318">
        <ele>230</ele>
        <time>2019-03-09T17:22:15.356Z</time>
      </trkpt>
      <trkpt lat="43.45421" lon="5.48312">
        <ele>230</ele>
        <time>2019-03-09T17:22:19.383Z</time>
      </trkpt>
      <trkpt lat="43.45421" lon="5.48304">
        <ele>230</ele>
        <time>2019-03-09T17:22:24.356Z</time>
      </trkpt>
      <trkpt lat="43.45421" lon="5.48296">
        <ele>230</ele>
        <time>2019-03-09T17:22:29.360Z</time>
      </trkpt>
      <trkpt lat="43.45422" lon="5.48289">
        <ele>231</ele>
        <time>2019-03-09T17:22:34.355Z</time>
      </trkpt>
      <trkpt lat="43.45423" lon="5.48279">
        <ele>231</ele>
        <time>2019-03-09T17:22:39.347Z</time>
      </trkpt>
      <trkpt lat="43.45425" lon="5.48272">
        <ele>231</ele>
        <time>2019-03-09T17:22:43.383Z</time>
      </trkpt>
      <trkpt lat="43.45428" lon="5.48267">
        <ele>231</ele>
        <time>2019-03-09T17:22:48.343Z</time>
      </trkpt>
      <trkpt lat="43.45431" lon="5.48264">
        <ele>230</ele>
        <time>2019-03-09T17:22:52.378Z</time>
      </trkpt>
      <trkpt lat="43.45434" lon="5.48258">
        <ele>230</ele>
        <time>2019-03-09T17:22:57.349Z</time>
      </trkpt>
      <trkpt lat="43.45436" lon="5.48255">
        <ele>230</ele>
        <time>2019-03-09T17:23:01.349Z</time>
      </trkpt>
      <trkpt lat="43.45439" lon="5.48247">
        <ele>230</ele>
        <time>2019-03-09T17:23:06.355Z</time>
      </trkpt>
      <trkpt lat="43.45444" lon="5.4824">
        <ele>230</ele>
        <time>2019-03-09T17:23:11.355Z</time>
      </trkpt>
      <trkpt lat="43.45447" lon="5.48236">
        <ele>230</ele>
        <time>2019-03-09T17:23:15.378Z</time>
      </trkpt>
      <trkpt lat="43.45449" lon="5.48231">
        <ele>230</ele>
        <time>2019-03-09T17:23:20.351Z</time>
      </trkpt>
      <trkpt lat="43.45452" lon="5.48227">
        <ele>230</ele>
        <time>2019-03-09T17:23:24.368Z</time>
      </trkpt>
      <trkpt lat="43.45454" lon="5.48219">
        <ele>230</ele>
        <time>2019-03-09T17:23:29.353Z</time>
      </trkpt>
      <trkpt lat="43.45456" lon="5.48216">
        <ele>230</ele>
        <time>2019-03-09T17:23:34.363Z</time>
      </trkpt>
      <trkpt lat="43.45459" lon="5.48213">
        <ele>230</ele>
        <time>2019-03-09T17:23:39.348Z</time>
      </trkpt>
      <trkpt lat="43.45461" lon="5.48207">
        <ele>229</ele>
        <time>2019-03-09T17:23:44.366Z</time>
      </trkpt>
      <trkpt lat="43.45463" lon="5.482">
        <ele>229</ele>
        <time>2019-03-09T17:23:49.371Z</time>
      </trkpt>
      <trkpt lat="43.45465" lon="5.48188">
        <ele>229</ele>
        <time>2019-03-09T17:23:54.348Z</time>
      </trkpt>
      <trkpt lat="43.45468" lon="5.48178">
        <ele>228</ele>
        <time>2019-03-09T17:23:58.378Z</time>
      </trkpt>
      <trkpt lat="43.45469" lon="5.48169">
        <ele>228</ele>
        <time>2019-03-09T17:24:03.355Z</time>
      </trkpt>
      <trkpt lat="43.45466" lon="5.48164">
        <ele>228</ele>
        <time>2019-03-09T17:24:08.379Z</time>
      </trkpt>
      <trkpt lat="43.45466" lon="5.48159">
        <ele>228</ele>
        <time>2019-03-09T17:24:13.385Z</time>
      </trkpt>
      <trkpt lat="43.45464" lon="5.48152">
        <ele>227</ele>
        <time>2019-03-09T17:24:18.354Z</time>
      </trkpt>
      <trkpt lat="43.45464" lon="5.48147">
        <ele>227</ele>
        <time>2019-03-09T17:24:22.377Z</time>
      </trkpt>
      <trkpt lat="43.45463" lon="5.48144">
        <ele>227</ele>
        <time>2019-03-09T17:24:26.382Z</time>
      </trkpt>
      <trkpt lat="43.45463" lon="5.48138">
        <ele>227</ele>
        <time>2019-03-09T17:24:31.377Z</time>
      </trkpt>
      <trkpt lat="43.45463" lon="5.48134">
        <ele>227</ele>
        <time>2019-03-09T17:24:36.376Z</time>
      </trkpt>
      <trkpt lat="43.45464" lon="5.48128">
        <ele>227</ele>
        <time>2019-03-09T17:24:40.389Z</time>
      </trkpt>
      <trkpt lat="43.45465" lon="5.48123">
        <ele>227</ele>
        <time>2019-03-09T17:24:45.362Z</time>
      </trkpt>
      <trkpt lat="43.45468" lon="5.48114">
        <ele>227</ele>
        <time>2019-03-09T17:24:50.360Z</time>
      </trkpt>
      <trkpt lat="43.45473" lon="5.48106">
        <ele>227</ele>
        <time>2019-03-09T17:24:55.348Z</time>
      </trkpt>
      <trkpt lat="43.45478" lon="5.48102">
        <ele>227</ele>
        <time>2019-03-09T17:25:00.335Z</time>
      </trkpt>
      <trkpt lat="43.45481" lon="5.481">
        <ele>227</ele>
        <time>2019-03-09T17:25:04.380Z</time>
      </trkpt>
      <trkpt lat="43.45485" lon="5.48097">
        <ele>226</ele>
        <time>2019-03-09T17:25:09.383Z</time>
      </trkpt>
      <trkpt lat="43.4549" lon="5.48093">
        <ele>226</ele>
        <time>2019-03-09T17:25:14.356Z</time>
      </trkpt>
      <trkpt lat="43.45494" lon="5.48089">
        <ele>226</ele>
        <time>2019-03-09T17:25:18.385Z</time>
      </trkpt>
      <trkpt lat="43.45499" lon="5.48084">
        <ele>226</ele>
        <time>2019-03-09T17:25:23.365Z</time>
      </trkpt>
      <trkpt lat="43.45502" lon="5.4808">
        <ele>226</ele>
        <time>2019-03-09T17:25:27.381Z</time>
      </trkpt>
      <trkpt lat="43.45506" lon="5.48076">
        <ele>226</ele>
        <time>2019-03-09T17:25:32.377Z</time>
      </trkpt>
      <trkpt lat="43.45512" lon="5.48073">
        <ele>226</ele>
        <time>2019-03-09T17:25:37.349Z</time>
      </trkpt>
      <trkpt lat="43.45518" lon="5.48071">
        <ele>226</ele>
        <time>2019-03-09T17:25:42.386Z</time>
      </trkpt>
      <trkpt lat="43.45523" lon="5.48068">
        <ele>226</ele>
        <time>2019-03-09T17:25:47.348Z</time>
      </trkpt>
      <trkpt lat="43.45527" lon="5.48066">
        <ele>226</ele>
        <time>2019-03-09T17:25:51.355Z</time>
      </trkpt>
      <trkpt lat="43.45531" lon="5.48061">
        <ele>226</ele>
        <time>2019-03-09T17:25:55.376Z</time>
      </trkpt>
      <trkpt lat="43.45536" lon="5.48057">
        <ele>226</ele>
        <time>2019-03-09T17:26:00.345Z</time>
      </trkpt>
      <trkpt lat="43.4554" lon="5.48053">
        <ele>226</ele>
        <time>2019-03-09T17:26:04.348Z</time>
      </trkpt>
      <trkpt lat="43.45544" lon="5.48048">
        <ele>224</ele>
        <time>2019-03-09T17:26:09.382Z</time>
      </trkpt>
      <trkpt lat="43.45546" lon="5.48044">
        <ele>224</ele>
        <time>2019-03-09T17:26:14.346Z</time>
      </trkpt>
      <trkpt lat="43.45547" lon="5.48037">
        <ele>221</ele>
        <time>2019-03-09T17:26:19.339Z</time>
      </trkpt>
      <trkpt lat="43.45546" lon="5.4803">
        <ele>221</ele>
        <time>2019-03-09T17:26:23.378Z</time>
      </trkpt>
      <trkpt lat="43.45545" lon="5.4802">
        <ele>221</ele>
        <time>2019-03-09T17:26:28.397Z</time>
      </trkpt>
      <trkpt lat="43.45544" lon="5.48009">
        <ele>218</ele>
        <time>2019-03-09T17:26:33.359Z</time>
      </trkpt>
      <trkpt lat="43.45544" lon="5.48001">
        <ele>218</ele>
        <time>2019-03-09T17:26:38.351Z</time>
      </trkpt>
      <trkpt lat="43.45543" lon="5.47994">
        <ele>218</ele>
        <time>2019-03-09T17:26:42.369Z</time>
      </trkpt>
      <trkpt lat="43.45541" lon="5.47985">
        <ele>220</ele>
        <time>2019-03-09T17:26:47.360Z</time>
      </trkpt>
      <trkpt lat="43.45539" lon="5.47979">
        <ele>220</ele>
        <time>2019-03-09T17:26:51.377Z</time>
      </trkpt>
      <trkpt lat="43.45539" lon="5.47978">
        <ele>220</ele>
        <time>2019-03-09T17:26:56.335Z</time>
      </trkpt>
      <trkpt lat="43.4554" lon="5.47974">
        <ele>220</ele>
        <time>2019-03-09T17:27:00.348Z</time>
      </trkpt>
      <trkpt lat="43.45539" lon="5.47968">
        <ele>220</ele>
        <time>2019-03-09T17:27:04.387Z</time>
      </trkpt>
      <trkpt lat="43.4554" lon="5.4796">
        <ele>220</ele>
        <time>2019-03-09T17:27:09.359Z</time>
      </trkpt>
      <trkpt lat="43.45542" lon="5.47953">
        <ele>219</ele>
        <time>2019-03-09T17:27:14.362Z</time>
      </trkpt>
      <trkpt lat="43.45543" lon="5.47948">
        <ele>219</ele>
        <time>2019-03-09T17:27:19.383Z</time>
      </trkpt>
      <trkpt lat="43.45546" lon="5.47943">
        <ele>219</ele>
        <time>2019-03-09T17:27:24.381Z</time>
      </trkpt>
      <trkpt lat="43.45548" lon="5.47937">
        <ele>219</ele>
        <time>2019-03-09T17:27:28.387Z</time>
      </trkpt>
      <trkpt lat="43.45552" lon="5.47932">
        <ele>219</ele>
        <time>2019-03-09T17:27:33.371Z</time>
      </trkpt>
      <trkpt lat="43.45556" lon="5.47926">
        <ele>222</ele>
        <time>2019-03-09T17:27:38.346Z</time>
      </trkpt>
      <trkpt lat="43.45559" lon="5.47922">
        <ele>222</ele>
        <time>2019-03-09T17:27:42.378Z</time>
      </trkpt>
      <trkpt lat="43.45562" lon="5.47917">
        <ele>222</ele>
        <time>2019-03-09T17:27:47.379Z</time>
      </trkpt>
      <trkpt lat="43.45564" lon="5.4791">
        <ele>222</ele>
        <time>2019-03-09T17:27:52.375Z</time>
      </trkpt>
      <trkpt lat="43.45565" lon="5.47905">
        <ele>222</ele>
        <time>2019-03-09T17:27:57.353Z</time>
      </trkpt>
      <trkpt lat="43.45567" lon="5.47897">
        <ele>221</ele>
        <time>2019-03-09T17:28:02.350Z</time>
      </trkpt>
      <trkpt lat="43.45569" lon="5.47889">
        <ele>221</ele>
        <time>2019-03-09T17:28:07.346Z</time>
      </trkpt>
      <trkpt lat="43.45571" lon="5.47883">
        <ele>220</ele>
        <time>2019-03-09T17:28:11.355Z</time>
      </trkpt>
      <trkpt lat="43.45573" lon="5.47877">
        <ele>220</ele>
        <time>2019-03-09T17:28:15.379Z</time>
      </trkpt>
      <trkpt lat="43.45574" lon="5.47873">
        <ele>221</ele>
        <time>2019-03-09T17:28:20.379Z</time>
      </trkpt>
      <trkpt lat="43.45575" lon="5.47864">
        <ele>221</ele>
        <time>2019-03-09T17:28:25.376Z</time>
      </trkpt>
      <trkpt lat="43.45579" lon="5.47851">
        <ele>221</ele>
        <time>2019-03-09T17:28:30.346Z</time>
      </trkpt>
      <trkpt lat="43.45583" lon="5.47845">
        <ele>220</ele>
        <time>2019-03-09T17:28:34.352Z</time>
      </trkpt>
      <trkpt lat="43.45584" lon="5.47841">
        <ele>220</ele>
        <time>2019-03-09T17:28:38.386Z</time>
      </trkpt>
      <trkpt lat="43.45585" lon="5.47836">
        <ele>220</ele>
        <time>2019-03-09T17:28:43.335Z</time>
      </trkpt>
      <trkpt lat="43.45585" lon="5.47833">
        <ele>220</ele>
        <time>2019-03-09T17:28:47.347Z</time>
      </trkpt>
      <trkpt lat="43.45588" lon="5.47828">
        <ele>220</ele>
        <time>2019-03-09T17:28:52.346Z</time>
      </trkpt>
      <trkpt lat="43.4559" lon="5.47825">
        <ele>220</ele>
        <time>2019-03-09T17:28:56.350Z</time>
      </trkpt>
      <trkpt lat="43.45594" lon="5.47822">
        <ele>220</ele>
        <time>2019-03-09T17:29:01.353Z</time>
      </trkpt>
      <trkpt lat="43.45596" lon="5.47818">
        <ele>219</ele>
        <time>2019-03-09T17:29:05.341Z</time>
      </trkpt>
      <trkpt lat="43.456" lon="5.47813">
        <ele>220</ele>
        <time>2019-03-09T17:29:10.336Z</time>
      </trkpt>
      <trkpt lat="43.45602" lon="5.47805">
        <ele>220</ele>
        <time>2019-03-09T17:29:14.351Z</time>
      </trkpt>
      <trkpt lat="43.45605" lon="5.47799">
        <ele>220</ele>
        <time>2019-03-09T17:29:18.370Z</time>
      </trkpt>
      <trkpt lat="43.45612" lon="5.47795">
        <ele>220</ele>
        <time>2019-03-09T17:29:23.371Z</time>
      </trkpt>
      <trkpt lat="43.45617" lon="5.47794">
        <ele>220</ele>
        <time>2019-03-09T17:29:28.386Z</time>
      </trkpt>
      <trkpt lat="43.45622" lon="5.47792">
        <ele>220</ele>
        <time>2019-03-09T17:29:33.378Z</time>
      </trkpt>
      <trkpt lat="43.45624" lon="5.47791">
        <ele>221</ele>
        <time>2019-03-09T17:29:38.347Z</time>
      </trkpt>
      <trkpt lat="43.45627" lon="5.47794">
        <ele>222</ele>
        <time>2019-03-09T17:29:43.358Z</time>
      </trkpt>
      <trkpt lat="43.45631" lon="5.47798">
        <ele>222</ele>
        <time>2019-03-09T17:29:48.338Z</time>
      </trkpt>
      <trkpt lat="43.45634" lon="5.47799">
        <ele>222</ele>
        <time>2019-03-09T17:29:52.382Z</time>
      </trkpt>
      <trkpt lat="43.45638" lon="5.47795">
        <ele>222</ele>
        <time>2019-03-09T17:29:57.388Z</time>
      </trkpt>
      <trkpt lat="43.45642" lon="5.47789">
        <ele>221</ele>
        <time>2019-03-09T17:30:02.379Z</time>
      </trkpt>
      <trkpt lat="43.45646" lon="5.47783">
        <ele>221</ele>
        <time>2019-03-09T17:30:07.347Z</time>
      </trkpt>
      <trkpt lat="43.45651" lon="5.47782">
        <ele>221</ele>
        <time>2019-03-09T17:30:11.381Z</time>
      </trkpt>
      <trkpt lat="43.45656" lon="5.47779">
        <ele>222</ele>
        <time>2019-03-09T17:30:16.350Z</time>
      </trkpt>
      <trkpt lat="43.45656" lon="5.4778">
        <ele>222</ele>
        <time>2019-03-09T17:30:21.362Z</time>
      </trkpt>
      <trkpt lat="43.45661" lon="5.47778">
        <ele>222</ele>
        <time>2019-03-09T17:30:26.347Z</time>
      </trkpt>
      <trkpt lat="43.45665" lon="5.47773">
        <ele>222</ele>
        <time>2019-03-09T17:30:31.337Z</time>
      </trkpt>
      <trkpt lat="43.45668" lon="5.47767">
        <ele>222</ele>
        <time>2019-03-09T17:30:35.377Z</time>
      </trkpt>
      <trkpt lat="43.4567" lon="5.47759">
        <ele>221</ele>
        <time>2019-03-09T17:30:40.389Z</time>
      </trkpt>
      <trkpt lat="43.45675" lon="5.47746">
        <ele>221</ele>
        <time>2019-03-09T17:30:45.380Z</time>
      </trkpt>
      <trkpt lat="43.45679" lon="5.47738">
        <ele>221</ele>
        <time>2019-03-09T17:30:50.351Z</time>
      </trkpt>
      <trkpt lat="43.4568" lon="5.47731">
        <ele>220</ele>
        <time>2019-03-09T17:30:54.386Z</time>
      </trkpt>
      <trkpt lat="43.45681" lon="5.47724">
        <ele>219</ele>
        <time>2019-03-09T17:30:59.361Z</time>
      </trkpt>
      <trkpt lat="43.45682" lon="5.47717">
        <ele>219</ele>
        <time>2019-03-09T17:31:04.361Z</time>
      </trkpt>
      <trkpt lat="43.45682" lon="5.4771">
        <ele>219</ele>
        <time>2019-03-09T17:31:08.387Z</time>
      </trkpt>
      <trkpt lat="43.45682" lon="5.47703">
        <ele>217</ele>
        <time>2019-03-09T17:31:13.375Z</time>
      </trkpt>
      <trkpt lat="43.45682" lon="5.47696">
        <ele>217</ele>
        <time>2019-03-09T17:31:18.348Z</time>
      </trkpt>
      <trkpt lat="43.45684" lon="5.47694">
        <ele>217</ele>
        <time>2019-03-09T17:31:23.391Z</time>
      </trkpt>
      <trkpt lat="43.45683" lon="5.47686">
        <ele>217</ele>
        <time>2019-03-09T17:31:28.379Z</time>
      </trkpt>
      <trkpt lat="43.45682" lon="5.47678">
        <ele>217</ele>
        <time>2019-03-09T17:31:33.380Z</time>
      </trkpt>
      <trkpt lat="43.45681" lon="5.47671">
        <ele>217</ele>
        <time>2019-03-09T17:31:38.376Z</time>
      </trkpt>
      <trkpt lat="43.4568" lon="5.47664">
        <ele>217</ele>
        <time>2019-03-09T17:31:43.352Z</time>
      </trkpt>
      <trkpt lat="43.45679" lon="5.47657">
        <ele>217</ele>
        <time>2019-03-09T17:31:48.356Z</time>
      </trkpt>
      <trkpt lat="43.45679" lon="5.47651">
        <ele>216</ele>
        <time>2019-03-09T17:31:52.355Z</time>
      </trkpt>
      <trkpt lat="43.45679" lon="5.47643">
        <ele>216</ele>
        <time>2019-03-09T17:31:57.351Z</time>
      </trkpt>
      <trkpt lat="43.45683" lon="5.47634">
        <ele>216</ele>
        <time>2019-03-09T17:32:02.351Z</time>
      </trkpt>
      <trkpt lat="43.45687" lon="5.47627">
        <ele>216</ele>
        <time>2019-03-09T17:32:06.377Z</time>
      </trkpt>
      <trkpt lat="43.4569" lon="5.47619">
        <ele>216</ele>
        <time>2019-03-09T17:32:11.356Z</time>
      </trkpt>
      <trkpt lat="43.4569" lon="5.47612">
        <ele>216</ele>
        <time>2019-03-09T17:32:16.346Z</time>
      </trkpt>
      <trkpt lat="43.45688" lon="5.47605">
        <ele>216</ele>
        <time>2019-03-09T17:32:20.357Z</time>
      </trkpt>
      <trkpt lat="43.45684" lon="5.47598">
        <ele>216</ele>
        <time>2019-03-09T17:32:24.375Z</time>
      </trkpt>
      <trkpt lat="43.45679" lon="5.47591">
        <ele>218</ele>
        <time>2019-03-09T17:32:29.385Z</time>
      </trkpt>
      <trkpt lat="43.45676" lon="5.47585">
        <ele>218</ele>
        <time>2019-03-09T17:32:34.350Z</time>
      </trkpt>
      <trkpt lat="43.45671" lon="5.47578">
        <ele>218</ele>
        <time>2019-03-09T17:32:39.350Z</time>
      </trkpt>
      <trkpt lat="43.45669" lon="5.47574">
        <ele>218</ele>
        <time>2019-03-09T17:32:43.386Z</time>
      </trkpt>
      <trkpt lat="43.45667" lon="5.47569">
        <ele>217</ele>
        <time>2019-03-09T17:32:47.391Z</time>
      </trkpt>
      <trkpt lat="43.45664" lon="5.47562">
        <ele>217</ele>
        <time>2019-03-09T17:32:52.346Z</time>
      </trkpt>
      <trkpt lat="43.45663" lon="5.47558">
        <ele>217</ele>
        <time>2019-03-09T17:32:56.353Z</time>
      </trkpt>
      <trkpt lat="43.45663" lon="5.47553">
        <ele>217</ele>
        <time>2019-03-09T17:33:00.366Z</time>
      </trkpt>
      <trkpt lat="43.45664" lon="5.47549">
        <ele>217</ele>
        <time>2019-03-09T17:33:04.367Z</time>
      </trkpt>
      <trkpt lat="43.45666" lon="5.47543">
        <ele>217</ele>
        <time>2019-03-09T17:33:09.360Z</time>
      </trkpt>
      <trkpt lat="43.45667" lon="5.47535">
        <ele>216</ele>
        <time>2019-03-09T17:33:14.352Z</time>
      </trkpt>
      <trkpt lat="43.45667" lon="5.47528">
        <ele>216</ele>
        <time>2019-03-09T17:33:18.362Z</time>
      </trkpt>
      <trkpt lat="43.45667" lon="5.47521">
        <ele>216</ele>
        <time>2019-03-09T17:33:23.379Z</time>
      </trkpt>
      <trkpt lat="43.45665" lon="5.47513">
        <ele>216</ele>
        <time>2019-03-09T17:33:28.351Z</time>
      </trkpt>
      <trkpt lat="43.45662" lon="5.47502">
        <ele>216</ele>
        <time>2019-03-09T17:33:33.347Z</time>
      </trkpt>
      <trkpt lat="43.45661" lon="5.47495">
        <ele>216</ele>
        <time>2019-03-09T17:33:37.358Z</time>
      </trkpt>
      <trkpt lat="43.4566" lon="5.47488">
        <ele>216</ele>
        <time>2019-03-09T17:33:42.394Z</time>
      </trkpt>
      <trkpt lat="43.4566" lon="5.47484">
        <ele>216</ele>
        <time>2019-03-09T17:33:47.379Z</time>
      </trkpt>
    </trkseg>
  </trk>
</gpx>